<?xml version='1.0' encoding='UTF-8'?><gpx version="1.1" creator="JPX - https://github.com/jenetics/jpx" xmlns="http://www.topografix.com/GPX/1/1"><trk><trkseg><trkpt lat="44.7247548" lon="10.1170135"><ele>129.0</ele><time>2026-04-30T13:57:19.605Z</time></trkpt><trkpt lat="44.7248258" lon="10.1170935"><ele>129.0</ele><time>2026-04-30T13:59:03.605Z</time></trkpt><trkpt lat="44.7248169" lon="10.1169992"><ele>129.0</ele><time>2026-04-30T13:59:09.514Z</time></trkpt><trkpt lat="44.7248133" lon="10.11687"><ele>129.0</ele><time>2026-04-30T13:59:13.581Z</time></trkpt><trkpt lat="44.7248533" lon="10.1167933"><ele>129.0</ele><time>2026-04-30T13:59:18.595Z</time></trkpt><trkpt lat="44.72493" lon="10.1167917"><ele>129.0</ele><time>2026-04-30T13:59:24.583Z</time></trkpt><trkpt lat="44.724995" lon="10.1168267"><ele>129.0</ele><time>2026-04-30T13:59:28.586Z</time></trkpt><trkpt lat="44.7250617" lon="10.1168467"><ele>129.0</ele><time>2026-04-30T13:59:31.588Z</time></trkpt><trkpt lat="44.7251217" lon="10.116745"><ele>129.0</ele><time>2026-04-30T13:59:34.59Z</time></trkpt><trkpt lat="44.72517" lon="10.1166383"><ele>129.0</ele><time>2026-04-30T13:59:37.59Z</time></trkpt><trkpt lat="44.7252033" lon="10.1165267"><ele>129.0</ele><time>2026-04-30T13:59:40.587Z</time></trkpt><trkpt lat="44.72516" lon="10.11643"><ele>129.0</ele><time>2026-04-30T13:59:43.592Z</time></trkpt><trkpt lat="44.7251" lon="10.1163683"><ele>129.33333333333334</ele><time>2026-04-30T13:59:45.59Z</time></trkpt><trkpt lat="44.725035" lon="10.1163033"><ele>129.66666666666666</ele><time>2026-04-30T13:59:47.584Z</time></trkpt><trkpt lat="44.7249733" lon="10.1162333"><ele>130.0</ele><time>2026-04-30T13:59:49.584Z</time></trkpt><trkpt lat="44.7249017" lon="10.1161633"><ele>130.33333333333331</ele><time>2026-04-30T13:59:51.585Z</time></trkpt><trkpt lat="44.7248267" lon="10.116095"><ele>130.66666666666666</ele><time>2026-04-30T13:59:53.595Z</time></trkpt><trkpt lat="44.7247517" lon="10.1160217"><ele>131.0</ele><time>2026-04-30T13:59:55.592Z</time></trkpt><trkpt lat="44.7246817" lon="10.1159417"><ele>131.0</ele><time>2026-04-30T13:59:57.592Z</time></trkpt><trkpt lat="44.7246167" lon="10.1158617"><ele>131.0</ele><time>2026-04-30T13:59:59.586Z</time></trkpt><trkpt lat="44.7245517" lon="10.1157767"><ele>131.0</ele><time>2026-04-30T14:00:01.588Z</time></trkpt><trkpt lat="44.7245" lon="10.1156833"><ele>131.0</ele><time>2026-04-30T14:00:03.585Z</time></trkpt><trkpt lat="44.72446" lon="10.1155783"><ele>131.0</ele><time>2026-04-30T14:00:05.585Z</time></trkpt><trkpt lat="44.724395" lon="10.1154917"><ele>131.0</ele><time>2026-04-30T14:00:07.586Z</time></trkpt><trkpt lat="44.72431" lon="10.1154183"><ele>131.0</ele><time>2026-04-30T14:00:09.587Z</time></trkpt><trkpt lat="44.724225" lon="10.1153483"><ele>131.0</ele><time>2026-04-30T14:00:11.588Z</time></trkpt><trkpt lat="44.7241367" lon="10.1152783"><ele>131.0</ele><time>2026-04-30T14:00:13.584Z</time></trkpt><trkpt lat="44.724045" lon="10.115205"><ele>131.0</ele><time>2026-04-30T14:00:15.587Z</time></trkpt><trkpt lat="44.7239733" lon="10.1151417"><ele>131.0</ele><time>2026-04-30T14:00:17.588Z</time></trkpt><trkpt lat="44.72389" lon="10.1151317"><ele>131.0</ele><time>2026-04-30T14:00:20.585Z</time></trkpt><trkpt lat="44.7238467" lon="10.115225"><ele>131.0</ele><time>2026-04-30T14:00:24.591Z</time></trkpt><trkpt lat="44.723815" lon="10.1153167"><ele>131.0</ele><time>2026-04-30T14:00:27.586Z</time></trkpt><trkpt lat="44.72377" lon="10.11542"><ele>131.0</ele><time>2026-04-30T14:00:30.592Z</time></trkpt><trkpt lat="44.723735" lon="10.115515"><ele>131.0</ele><time>2026-04-30T14:00:34.584Z</time></trkpt><trkpt lat="44.723705" lon="10.115595"><ele>131.0</ele><time>2026-04-30T14:00:37.591Z</time></trkpt><trkpt lat="44.7236867" lon="10.1156967"><ele>130.83333333333331</ele><time>2026-04-30T14:00:54.586Z</time></trkpt><trkpt lat="44.72365" lon="10.115795"><ele>130.66666666666666</ele><time>2026-04-30T14:00:57.587Z</time></trkpt><trkpt lat="44.7236067" lon="10.1159083"><ele>130.5</ele><time>2026-04-30T14:01:00.588Z</time></trkpt><trkpt lat="44.7235767" lon="10.1159883"><ele>130.33333333333334</ele><time>2026-04-30T14:01:02.588Z</time></trkpt><trkpt lat="44.7235433" lon="10.116075"><ele>130.16666666666669</ele><time>2026-04-30T14:01:04.586Z</time></trkpt><trkpt lat="44.7235" lon="10.1161683"><ele>130.0</ele><time>2026-04-30T14:01:06.594Z</time></trkpt><trkpt lat="44.7234433" lon="10.11626"><ele>129.6</ele><time>2026-04-30T14:01:08.589Z</time></trkpt><trkpt lat="44.723395" lon="10.1163683"><ele>129.2</ele><time>2026-04-30T14:01:10.585Z</time></trkpt><trkpt lat="44.7233467" lon="10.1164767"><ele>128.8</ele><time>2026-04-30T14:01:12.587Z</time></trkpt><trkpt lat="44.723305" lon="10.1165867"><ele>128.4</ele><time>2026-04-30T14:01:14.585Z</time></trkpt><trkpt lat="44.7232633" lon="10.1167067"><ele>128.0</ele><time>2026-04-30T14:01:16.595Z</time></trkpt><trkpt lat="44.7232167" lon="10.1168133"><ele>128.0</ele><time>2026-04-30T14:01:18.592Z</time></trkpt><trkpt lat="44.7231683" lon="10.1169333"><ele>128.0</ele><time>2026-04-30T14:01:20.587Z</time></trkpt><trkpt lat="44.7231133" lon="10.1170633"><ele>128.0</ele><time>2026-04-30T14:01:22.597Z</time></trkpt><trkpt lat="44.7230633" lon="10.1171833"><ele>128.0</ele><time>2026-04-30T14:01:24.585Z</time></trkpt><trkpt lat="44.7230167" lon="10.1173117"><ele>128.0</ele><time>2026-04-30T14:01:26.591Z</time></trkpt><trkpt lat="44.7229617" lon="10.11745"><ele>127.80000000000001</ele><time>2026-04-30T14:01:28.598Z</time></trkpt><trkpt lat="44.7229183" lon="10.1175867"><ele>127.60000000000001</ele><time>2026-04-30T14:01:30.593Z</time></trkpt><trkpt lat="44.72287" lon="10.1177317"><ele>127.39999999999999</ele><time>2026-04-30T14:01:32.587Z</time></trkpt><trkpt lat="44.7228267" lon="10.1178867"><ele>127.19999999999999</ele><time>2026-04-30T14:01:34.585Z</time></trkpt><trkpt lat="44.7228133" lon="10.11804"><ele>127.0</ele><time>2026-04-30T14:01:36.585Z</time></trkpt><trkpt lat="44.7228433" lon="10.1181833"><ele>126.83333333333334</ele><time>2026-04-30T14:01:38.588Z</time></trkpt><trkpt lat="44.7228917" lon="10.118315"><ele>126.66666666666667</ele><time>2026-04-30T14:01:40.586Z</time></trkpt><trkpt lat="44.7229783" lon="10.1184483"><ele>126.5</ele><time>2026-04-30T14:01:42.586Z</time></trkpt><trkpt lat="44.72303" lon="10.11851"><ele>126.33333333333334</ele><time>2026-04-30T14:01:43.583Z</time></trkpt><trkpt lat="44.7230867" lon="10.11856"><ele>126.16666666666667</ele><time>2026-04-30T14:01:44.586Z</time></trkpt><trkpt lat="44.7231483" lon="10.1186067"><ele>126.0</ele><time>2026-04-30T14:01:45.585Z</time></trkpt><trkpt lat="44.7232617" lon="10.1186833"><ele>126.0</ele><time>2026-04-30T14:01:47.585Z</time></trkpt><trkpt lat="44.7233217" lon="10.1187233"><ele>126.0</ele><time>2026-04-30T14:01:48.593Z</time></trkpt><trkpt lat="44.723385" lon="10.11876"><ele>126.0</ele><time>2026-04-30T14:01:49.582Z</time></trkpt><trkpt lat="44.72349" lon="10.11884"><ele>126.0</ele><time>2026-04-30T14:01:51.586Z</time></trkpt><trkpt lat="44.7235883" lon="10.1189133"><ele>126.0</ele><time>2026-04-30T14:01:53.594Z</time></trkpt><trkpt lat="44.7236883" lon="10.1189983"><ele>125.83333333333333</ele><time>2026-04-30T14:01:55.59Z</time></trkpt><trkpt lat="44.7238017" lon="10.1190833"><ele>125.66666666666666</ele><time>2026-04-30T14:01:57.588Z</time></trkpt><trkpt lat="44.72386" lon="10.119125"><ele>125.5</ele><time>2026-04-30T14:01:58.587Z</time></trkpt><trkpt lat="44.72392" lon="10.11917"><ele>125.33333333333333</ele><time>2026-04-30T14:01:59.588Z</time></trkpt><trkpt lat="44.72398" lon="10.1192133"><ele>125.16666666666666</ele><time>2026-04-30T14:02:00.59Z</time></trkpt><trkpt lat="44.724035" lon="10.1192717"><ele>125.0</ele><time>2026-04-30T14:02:01.589Z</time></trkpt><trkpt lat="44.7240883" lon="10.1193267"><ele>124.99999999999999</ele><time>2026-04-30T14:02:02.587Z</time></trkpt><trkpt lat="44.7241433" lon="10.1193833"><ele>125.0</ele><time>2026-04-30T14:02:03.587Z</time></trkpt><trkpt lat="44.7242017" lon="10.1194433"><ele>125.0</ele><time>2026-04-30T14:02:04.59Z</time></trkpt><trkpt lat="44.7242633" lon="10.119505"><ele>125.0</ele><time>2026-04-30T14:02:05.59Z</time></trkpt><trkpt lat="44.724325" lon="10.11957"><ele>124.99999999999999</ele><time>2026-04-30T14:02:06.586Z</time></trkpt><trkpt lat="44.7243883" lon="10.1196383"><ele>125.0</ele><time>2026-04-30T14:02:07.593Z</time></trkpt><trkpt lat="44.724455" lon="10.1197067"><ele>125.33333333333333</ele><time>2026-04-30T14:02:08.587Z</time></trkpt><trkpt lat="44.72452" lon="10.1197733"><ele>125.66666666666666</ele><time>2026-04-30T14:02:09.585Z</time></trkpt><trkpt lat="44.7245867" lon="10.119845"><ele>126.0</ele><time>2026-04-30T14:02:10.586Z</time></trkpt><trkpt lat="44.7246517" lon="10.1199183"><ele>126.33333333333334</ele><time>2026-04-30T14:02:11.587Z</time></trkpt><trkpt lat="44.724725" lon="10.1199917"><ele>126.66666666666667</ele><time>2026-04-30T14:02:12.586Z</time></trkpt><trkpt lat="44.7247917" lon="10.120065"><ele>127.0</ele><time>2026-04-30T14:02:13.586Z</time></trkpt><trkpt lat="44.724855" lon="10.1201367"><ele>126.28571428571429</ele><time>2026-04-30T14:02:14.594Z</time></trkpt><trkpt lat="44.7249183" lon="10.1202067"><ele>125.57142857142856</ele><time>2026-04-30T14:02:15.595Z</time></trkpt><trkpt lat="44.7249783" lon="10.1202767"><ele>124.85714285714285</ele><time>2026-04-30T14:02:16.591Z</time></trkpt><trkpt lat="44.7250367" lon="10.1203433"><ele>124.14285714285714</ele><time>2026-04-30T14:02:17.593Z</time></trkpt><trkpt lat="44.7250967" lon="10.1204033"><ele>123.42857142857142</ele><time>2026-04-30T14:02:18.593Z</time></trkpt><trkpt lat="44.7251517" lon="10.1204583"><ele>122.7142857142857</ele><time>2026-04-30T14:02:19.592Z</time></trkpt><trkpt lat="44.72521" lon="10.1205183"><ele>121.99999999999999</ele><time>2026-04-30T14:02:20.587Z</time></trkpt><trkpt lat="44.7252683" lon="10.1205867"><ele>121.99999999999999</ele><time>2026-04-30T14:02:21.59Z</time></trkpt><trkpt lat="44.7253267" lon="10.12065"><ele>122.0</ele><time>2026-04-30T14:02:22.59Z</time></trkpt><trkpt lat="44.72538" lon="10.1207133"><ele>121.99999999999999</ele><time>2026-04-30T14:02:23.584Z</time></trkpt><trkpt lat="44.725435" lon="10.1207717"><ele>121.99999999999999</ele><time>2026-04-30T14:02:24.598Z</time></trkpt><trkpt lat="44.7254883" lon="10.1208283"><ele>122.0</ele><time>2026-04-30T14:02:25.586Z</time></trkpt><trkpt lat="44.7255417" lon="10.12089"><ele>121.99999999999999</ele><time>2026-04-30T14:02:26.585Z</time></trkpt><trkpt lat="44.7255933" lon="10.120945"><ele>121.99999999999999</ele><time>2026-04-30T14:02:27.592Z</time></trkpt><trkpt lat="44.7256433" lon="10.121"><ele>121.5</ele><time>2026-04-30T14:02:28.588Z</time></trkpt><trkpt lat="44.7257433" lon="10.1210967"><ele>121.0</ele><time>2026-04-30T14:02:30.585Z</time></trkpt><trkpt lat="44.7258517" lon="10.1211633"><ele>120.5</ele><time>2026-04-30T14:02:32.587Z</time></trkpt><trkpt lat="44.725955" lon="10.1212233"><ele>120.0</ele><time>2026-04-30T14:02:34.587Z</time></trkpt><trkpt lat="44.7260483" lon="10.1213017"><ele>120.0</ele><time>2026-04-30T14:02:36.59Z</time></trkpt><trkpt lat="44.7261233" lon="10.1213833"><ele>120.0</ele><time>2026-04-30T14:02:38.6Z</time></trkpt><trkpt lat="44.7261983" lon="10.1214617"><ele>120.0</ele><time>2026-04-30T14:02:40.588Z</time></trkpt><trkpt lat="44.7262717" lon="10.1215417"><ele>120.0</ele><time>2026-04-30T14:02:42.594Z</time></trkpt><trkpt lat="44.7263583" lon="10.1216167"><ele>120.0</ele><time>2026-04-30T14:02:44.587Z</time></trkpt><trkpt lat="44.7264517" lon="10.121675"><ele>119.5</ele><time>2026-04-30T14:02:46.588Z</time></trkpt><trkpt lat="44.7265483" lon="10.1217667"><ele>119.0</ele><time>2026-04-30T14:02:48.59Z</time></trkpt><trkpt lat="44.7266383" lon="10.1218733"><ele>118.5</ele><time>2026-04-30T14:02:50.599Z</time></trkpt><trkpt lat="44.7267383" lon="10.1219783"><ele>118.0</ele><time>2026-04-30T14:02:52.586Z</time></trkpt><trkpt lat="44.7268383" lon="10.1220833"><ele>118.4</ele><time>2026-04-30T14:02:54.598Z</time></trkpt><trkpt lat="44.7269317" lon="10.1221783"><ele>118.80000000000001</ele><time>2026-04-30T14:02:56.59Z</time></trkpt><trkpt lat="44.727015" lon="10.1222683"><ele>119.2</ele><time>2026-04-30T14:02:58.597Z</time></trkpt><trkpt lat="44.727085" lon="10.12234"><ele>119.6</ele><time>2026-04-30T14:03:00.585Z</time></trkpt><trkpt lat="44.7271467" lon="10.122405"><ele>120.0</ele><time>2026-04-30T14:03:02.583Z</time></trkpt><trkpt lat="44.7272117" lon="10.1224633"><ele>120.0</ele><time>2026-04-30T14:03:04.585Z</time></trkpt><trkpt lat="44.7272633" lon="10.1225217"><ele>120.0</ele><time>2026-04-30T14:03:06.588Z</time></trkpt><trkpt lat="44.7273167" lon="10.1225833"><ele>120.0</ele><time>2026-04-30T14:03:08.59Z</time></trkpt><trkpt lat="44.7273733" lon="10.1226367"><ele>120.0</ele><time>2026-04-30T14:03:10.588Z</time></trkpt><trkpt lat="44.72743" lon="10.122695"><ele>120.0</ele><time>2026-04-30T14:03:12.584Z</time></trkpt><trkpt lat="44.7274867" lon="10.1227467"><ele>120.0</ele><time>2026-04-30T14:03:14.595Z</time></trkpt><trkpt lat="44.7275483" lon="10.1227933"><ele>120.0</ele><time>2026-04-30T14:03:16.59Z</time></trkpt><trkpt lat="44.7276133" lon="10.122845"><ele>120.0</ele><time>2026-04-30T14:03:18.595Z</time></trkpt><trkpt lat="44.7276683" lon="10.1228917"><ele>120.0</ele><time>2026-04-30T14:03:20.592Z</time></trkpt><trkpt lat="44.7277467" lon="10.1229467"><ele>120.0</ele><time>2026-04-30T14:03:23.589Z</time></trkpt><trkpt lat="44.7278333" lon="10.1229967"><ele>120.0</ele><time>2026-04-30T14:03:26.59Z</time></trkpt><trkpt lat="44.7279133" lon="10.1230467"><ele>120.0</ele><time>2026-04-30T14:03:29.59Z</time></trkpt><trkpt lat="44.7279783" lon="10.1230867"><ele>120.0</ele><time>2026-04-30T14:03:31.585Z</time></trkpt><trkpt lat="44.7280417" lon="10.1231283"><ele>120.33333333333333</ele><time>2026-04-30T14:03:33.588Z</time></trkpt><trkpt lat="44.7281117" lon="10.1231717"><ele>120.66666666666666</ele><time>2026-04-30T14:03:35.588Z</time></trkpt><trkpt lat="44.728185" lon="10.12322"><ele>121.0</ele><time>2026-04-30T14:03:37.593Z</time></trkpt><trkpt lat="44.7282617" lon="10.1232633"><ele>121.33333333333333</ele><time>2026-04-30T14:03:39.592Z</time></trkpt><trkpt lat="44.7283433" lon="10.1233133"><ele>121.66666666666666</ele><time>2026-04-30T14:03:41.586Z</time></trkpt><trkpt lat="44.7284283" lon="10.1233667"><ele>122.0</ele><time>2026-04-30T14:03:43.595Z</time></trkpt><trkpt lat="44.7285133" lon="10.1234217"><ele>121.39999999999999</ele><time>2026-04-30T14:03:45.589Z</time></trkpt><trkpt lat="44.7285983" lon="10.1234767"><ele>120.79999999999998</ele><time>2026-04-30T14:03:47.591Z</time></trkpt><trkpt lat="44.7286833" lon="10.123535"><ele>120.2</ele><time>2026-04-30T14:03:49.591Z</time></trkpt><trkpt lat="44.72877" lon="10.123595"><ele>119.6</ele><time>2026-04-30T14:03:51.59Z</time></trkpt><trkpt lat="44.7288567" lon="10.123655"><ele>119.0</ele><time>2026-04-30T14:03:53.587Z</time></trkpt><trkpt lat="44.7289433" lon="10.1237117"><ele>119.0</ele><time>2026-04-30T14:03:55.588Z</time></trkpt><trkpt lat="44.72903" lon="10.1237683"><ele>119.0</ele><time>2026-04-30T14:03:57.594Z</time></trkpt><trkpt lat="44.7291183" lon="10.1238317"><ele>119.0</ele><time>2026-04-30T14:03:59.588Z</time></trkpt><trkpt lat="44.729215" lon="10.1238983"><ele>119.0</ele><time>2026-04-30T14:04:01.589Z</time></trkpt><trkpt lat="44.729315" lon="10.12396"><ele>119.0</ele><time>2026-04-30T14:04:03.587Z</time></trkpt><trkpt lat="44.72942" lon="10.12403"><ele>118.6</ele><time>2026-04-30T14:04:05.589Z</time></trkpt><trkpt lat="44.729525" lon="10.124095"><ele>118.2</ele><time>2026-04-30T14:04:07.594Z</time></trkpt><trkpt lat="44.7296217" lon="10.1241617"><ele>117.79999999999998</ele><time>2026-04-30T14:04:09.589Z</time></trkpt><trkpt lat="44.7297217" lon="10.1242383"><ele>117.39999999999999</ele><time>2026-04-30T14:04:11.598Z</time></trkpt><trkpt lat="44.729825" lon="10.1243"><ele>117.0</ele><time>2026-04-30T14:04:13.589Z</time></trkpt><trkpt lat="44.7299317" lon="10.1243717"><ele>117.0</ele><time>2026-04-30T14:04:15.587Z</time></trkpt><trkpt lat="44.73004" lon="10.1244483"><ele>116.99999999999999</ele><time>2026-04-30T14:04:17.59Z</time></trkpt><trkpt lat="44.730155" lon="10.1245283"><ele>116.99999999999999</ele><time>2026-04-30T14:04:19.593Z</time></trkpt><trkpt lat="44.7302133" lon="10.1245733"><ele>117.0</ele><time>2026-04-30T14:04:20.589Z</time></trkpt><trkpt lat="44.7303217" lon="10.1246467"><ele>117.0</ele><time>2026-04-30T14:04:22.585Z</time></trkpt><trkpt lat="44.7304267" lon="10.1247083"><ele>117.19999999999999</ele><time>2026-04-30T14:04:24.593Z</time></trkpt><trkpt lat="44.7305317" lon="10.1247583"><ele>117.39999999999999</ele><time>2026-04-30T14:04:26.59Z</time></trkpt><trkpt lat="44.7306283" lon="10.124825"><ele>117.60000000000001</ele><time>2026-04-30T14:04:28.605Z</time></trkpt><trkpt lat="44.7307217" lon="10.124875"><ele>117.80000000000001</ele><time>2026-04-30T14:04:30.59Z</time></trkpt><trkpt lat="44.7308117" lon="10.1249433"><ele>118.0</ele><time>2026-04-30T14:04:32.597Z</time></trkpt><trkpt lat="44.7309033" lon="10.1250117"><ele>118.0</ele><time>2026-04-30T14:04:34.598Z</time></trkpt><trkpt lat="44.730995" lon="10.1250633"><ele>118.00000000000001</ele><time>2026-04-30T14:04:36.592Z</time></trkpt><trkpt lat="44.7310917" lon="10.125125"><ele>118.00000000000001</ele><time>2026-04-30T14:04:38.589Z</time></trkpt><trkpt lat="44.7311867" lon="10.1251883"><ele>118.0</ele><time>2026-04-30T14:04:40.588Z</time></trkpt><trkpt lat="44.731275" lon="10.1252533"><ele>118.0</ele><time>2026-04-30T14:04:42.592Z</time></trkpt><trkpt lat="44.7313583" lon="10.1253117"><ele>118.16666666666667</ele><time>2026-04-30T14:04:44.597Z</time></trkpt><trkpt lat="44.73144" lon="10.125365"><ele>118.33333333333334</ele><time>2026-04-30T14:04:46.592Z</time></trkpt><trkpt lat="44.7315183" lon="10.1254183"><ele>118.5</ele><time>2026-04-30T14:04:48.594Z</time></trkpt><trkpt lat="44.731595" lon="10.1254683"><ele>118.66666666666666</ele><time>2026-04-30T14:04:50.597Z</time></trkpt><trkpt lat="44.7316683" lon="10.1255233"><ele>118.83333333333333</ele><time>2026-04-30T14:04:52.592Z</time></trkpt><trkpt lat="44.7317467" lon="10.1255717"><ele>119.0</ele><time>2026-04-30T14:04:54.592Z</time></trkpt><trkpt lat="44.73183" lon="10.12563"><ele>118.83333333333333</ele><time>2026-04-30T14:04:56.593Z</time></trkpt><trkpt lat="44.7319183" lon="10.1256817"><ele>118.66666666666666</ele><time>2026-04-30T14:04:58.586Z</time></trkpt><trkpt lat="44.7320017" lon="10.1257367"><ele>118.5</ele><time>2026-04-30T14:05:00.592Z</time></trkpt><trkpt lat="44.73208" lon="10.1257867"><ele>118.33333333333334</ele><time>2026-04-30T14:05:02.594Z</time></trkpt><trkpt lat="44.732155" lon="10.1258333"><ele>118.16666666666667</ele><time>2026-04-30T14:05:04.586Z</time></trkpt><trkpt lat="44.7322333" lon="10.125885"><ele>118.0</ele><time>2026-04-30T14:05:06.586Z</time></trkpt><trkpt lat="44.7323117" lon="10.1259383"><ele>118.00000000000001</ele><time>2026-04-30T14:05:08.585Z</time></trkpt><trkpt lat="44.7323817" lon="10.1260017"><ele>118.0</ele><time>2026-04-30T14:05:10.595Z</time></trkpt><trkpt lat="44.7324483" lon="10.12609"><ele>118.0</ele><time>2026-04-30T14:05:12.597Z</time></trkpt><trkpt lat="44.732525" lon="10.126155"><ele>118.0</ele><time>2026-04-30T14:05:14.589Z</time></trkpt><trkpt lat="44.7326" lon="10.1262133"><ele>118.00000000000001</ele><time>2026-04-30T14:05:16.593Z</time></trkpt><trkpt lat="44.7326783" lon="10.1262633"><ele>118.0</ele><time>2026-04-30T14:05:18.59Z</time></trkpt><trkpt lat="44.7327583" lon="10.1263133"><ele>117.4</ele><time>2026-04-30T14:05:20.591Z</time></trkpt><trkpt lat="44.7328317" lon="10.1263683"><ele>116.80000000000001</ele><time>2026-04-30T14:05:22.587Z</time></trkpt><trkpt lat="44.732905" lon="10.126425"><ele>116.2</ele><time>2026-04-30T14:05:24.593Z</time></trkpt><trkpt lat="44.7329817" lon="10.1264817"><ele>115.6</ele><time>2026-04-30T14:05:26.595Z</time></trkpt><trkpt lat="44.73307" lon="10.126505"><ele>115.0</ele><time>2026-04-30T14:05:28.59Z</time></trkpt><trkpt lat="44.7331883" lon="10.1265117"><ele>115.0</ele><time>2026-04-30T14:05:30.592Z</time></trkpt><trkpt lat="44.73329" lon="10.1265567"><ele>115.0</ele><time>2026-04-30T14:05:32.59Z</time></trkpt><trkpt lat="44.73337" lon="10.1266167"><ele>115.0</ele><time>2026-04-30T14:05:34.59Z</time></trkpt><trkpt lat="44.73345" lon="10.1266717"><ele>115.0</ele><time>2026-04-30T14:05:36.595Z</time></trkpt><trkpt lat="44.733535" lon="10.1267183"><ele>115.0</ele><time>2026-04-30T14:05:38.585Z</time></trkpt><trkpt lat="44.7336233" lon="10.1267717"><ele>115.0</ele><time>2026-04-30T14:05:40.589Z</time></trkpt><trkpt lat="44.7337083" lon="10.12682"><ele>115.0</ele><time>2026-04-30T14:05:42.587Z</time></trkpt><trkpt lat="44.73379" lon="10.1268667"><ele>115.0</ele><time>2026-04-30T14:05:44.585Z</time></trkpt><trkpt lat="44.7338783" lon="10.12692"><ele>115.0</ele><time>2026-04-30T14:05:46.585Z</time></trkpt><trkpt lat="44.733965" lon="10.126965"><ele>115.0</ele><time>2026-04-30T14:05:48.591Z</time></trkpt><trkpt lat="44.73405" lon="10.12701"><ele>115.0</ele><time>2026-04-30T14:05:50.59Z</time></trkpt><trkpt lat="44.7341367" lon="10.1270533"><ele>115.0</ele><time>2026-04-30T14:05:52.584Z</time></trkpt><trkpt lat="44.7342233" lon="10.12709"><ele>115.0</ele><time>2026-04-30T14:05:54.592Z</time></trkpt><trkpt lat="44.7343117" lon="10.127125"><ele>115.0</ele><time>2026-04-30T14:05:56.599Z</time></trkpt><trkpt lat="44.7344017" lon="10.1271667"><ele>115.0</ele><time>2026-04-30T14:05:58.586Z</time></trkpt><trkpt lat="44.734495" lon="10.12721"><ele>114.8</ele><time>2026-04-30T14:06:00.596Z</time></trkpt><trkpt lat="44.7345867" lon="10.1272567"><ele>114.6</ele><time>2026-04-30T14:06:02.59Z</time></trkpt><trkpt lat="44.7346783" lon="10.1272967"><ele>114.4</ele><time>2026-04-30T14:06:04.586Z</time></trkpt><trkpt lat="44.7347667" lon="10.12734"><ele>114.2</ele><time>2026-04-30T14:06:06.585Z</time></trkpt><trkpt lat="44.734855" lon="10.12738"><ele>114.0</ele><time>2026-04-30T14:06:08.584Z</time></trkpt><trkpt lat="44.734945" lon="10.1274133"><ele>114.0</ele><time>2026-04-30T14:06:10.583Z</time></trkpt><trkpt lat="44.735035" lon="10.12745"><ele>114.0</ele><time>2026-04-30T14:06:12.588Z</time></trkpt><trkpt lat="44.7351217" lon="10.1274867"><ele>114.0</ele><time>2026-04-30T14:06:14.592Z</time></trkpt><trkpt lat="44.7352033" lon="10.1275217"><ele>114.0</ele><time>2026-04-30T14:06:16.593Z</time></trkpt><trkpt lat="44.7352917" lon="10.1275617"><ele>114.0</ele><time>2026-04-30T14:06:18.585Z</time></trkpt><trkpt lat="44.73538" lon="10.1275983"><ele>114.4</ele><time>2026-04-30T14:06:20.597Z</time></trkpt><trkpt lat="44.7354683" lon="10.1276367"><ele>114.80000000000001</ele><time>2026-04-30T14:06:22.584Z</time></trkpt><trkpt lat="44.735555" lon="10.12768"><ele>115.19999999999999</ele><time>2026-04-30T14:06:24.585Z</time></trkpt><trkpt lat="44.7356383" lon="10.127715"><ele>115.6</ele><time>2026-04-30T14:06:26.588Z</time></trkpt><trkpt lat="44.7357283" lon="10.1277517"><ele>116.0</ele><time>2026-04-30T14:06:28.587Z</time></trkpt><trkpt lat="44.735815" lon="10.1277683"><ele>116.0</ele><time>2026-04-30T14:06:30.587Z</time></trkpt><trkpt lat="44.73589" lon="10.1277117"><ele>116.0</ele><time>2026-04-30T14:06:32.59Z</time></trkpt><trkpt lat="44.7359383" lon="10.127605"><ele>116.0</ele><time>2026-04-30T14:06:34.589Z</time></trkpt><trkpt lat="44.7359817" lon="10.12749"><ele>116.0</ele><time>2026-04-30T14:06:36.59Z</time></trkpt><trkpt lat="44.736025" lon="10.1273733"><ele>116.0</ele><time>2026-04-30T14:06:38.586Z</time></trkpt><trkpt lat="44.7360567" lon="10.1272517"><ele>115.99999999999999</ele><time>2026-04-30T14:06:40.591Z</time></trkpt><trkpt lat="44.7360917" lon="10.12714"><ele>116.0</ele><time>2026-04-30T14:06:42.589Z</time></trkpt><trkpt lat="44.7361233" lon="10.1270333"><ele>116.0</ele><time>2026-04-30T14:06:44.588Z</time></trkpt><trkpt lat="44.73615" lon="10.1269317"><ele>116.0</ele><time>2026-04-30T14:06:46.59Z</time></trkpt><trkpt lat="44.736175" lon="10.126825"><ele>115.99999999999999</ele><time>2026-04-30T14:06:48.587Z</time></trkpt><trkpt lat="44.7362033" lon="10.1267233"><ele>116.0</ele><time>2026-04-30T14:06:50.588Z</time></trkpt><trkpt lat="44.7362333" lon="10.1266433"><ele>115.99999999999999</ele><time>2026-04-30T14:06:52.588Z</time></trkpt><trkpt lat="44.73627" lon="10.1265567"><ele>116.0</ele><time>2026-04-30T14:06:54.593Z</time></trkpt><trkpt lat="44.736345" lon="10.1264883"><ele>116.0</ele><time>2026-04-30T14:06:56.591Z</time></trkpt><trkpt lat="44.7364183" lon="10.1265017"><ele>116.0</ele><time>2026-04-30T14:06:58.591Z</time></trkpt><trkpt lat="44.736505" lon="10.1265917"><ele>115.99999999999999</ele><time>2026-04-30T14:07:00.595Z</time></trkpt><trkpt lat="44.7365817" lon="10.1266767"><ele>116.0</ele><time>2026-04-30T14:07:02.59Z</time></trkpt><trkpt lat="44.736655" lon="10.1267533"><ele>116.0</ele><time>2026-04-30T14:07:04.586Z</time></trkpt><trkpt lat="44.7367317" lon="10.12684"><ele>116.0</ele><time>2026-04-30T14:07:06.591Z</time></trkpt><trkpt lat="44.73681" lon="10.1269233"><ele>116.0</ele><time>2026-04-30T14:07:08.588Z</time></trkpt><trkpt lat="44.7368883" lon="10.1269967"><ele>116.0</ele><time>2026-04-30T14:07:10.594Z</time></trkpt><trkpt lat="44.7369633" lon="10.127075"><ele>116.0</ele><time>2026-04-30T14:07:12.597Z</time></trkpt><trkpt lat="44.737035" lon="10.1271567"><ele>116.16666666666666</ele><time>2026-04-30T14:07:14.59Z</time></trkpt><trkpt lat="44.7371017" lon="10.1272283"><ele>116.33333333333333</ele><time>2026-04-30T14:07:16.587Z</time></trkpt><trkpt lat="44.7371683" lon="10.1272983"><ele>116.5</ele><time>2026-04-30T14:07:18.597Z</time></trkpt><trkpt lat="44.7372367" lon="10.1273717"><ele>116.66666666666666</ele><time>2026-04-30T14:07:20.589Z</time></trkpt><trkpt lat="44.737305" lon="10.1274433"><ele>116.83333333333333</ele><time>2026-04-30T14:07:22.596Z</time></trkpt><trkpt lat="44.7373683" lon="10.1275133"><ele>117.0</ele><time>2026-04-30T14:07:24.592Z</time></trkpt><trkpt lat="44.737425" lon="10.1275817"><ele>117.16666666666667</ele><time>2026-04-30T14:07:26.593Z</time></trkpt><trkpt lat="44.737485" lon="10.1276483"><ele>117.33333333333334</ele><time>2026-04-30T14:07:28.585Z</time></trkpt><trkpt lat="44.7375467" lon="10.127715"><ele>117.5</ele><time>2026-04-30T14:07:30.595Z</time></trkpt><trkpt lat="44.737615" lon="10.1277783"><ele>117.66666666666667</ele><time>2026-04-30T14:07:32.592Z</time></trkpt><trkpt lat="44.7376717" lon="10.127845"><ele>117.83333333333334</ele><time>2026-04-30T14:07:34.591Z</time></trkpt><trkpt lat="44.737735" lon="10.127915"><ele>118.0</ele><time>2026-04-30T14:07:36.595Z</time></trkpt><trkpt lat="44.7378" lon="10.1279817"><ele>118.00000000000001</ele><time>2026-04-30T14:07:38.594Z</time></trkpt><trkpt lat="44.7378617" lon="10.12805"><ele>118.0</ele><time>2026-04-30T14:07:40.591Z</time></trkpt><trkpt lat="44.7379267" lon="10.12812"><ele>118.0</ele><time>2026-04-30T14:07:42.587Z</time></trkpt><trkpt lat="44.738" lon="10.12819"><ele>118.0</ele><time>2026-04-30T14:07:44.593Z</time></trkpt><trkpt lat="44.7380517" lon="10.1282633"><ele>118.00000000000001</ele><time>2026-04-30T14:07:46.594Z</time></trkpt><trkpt lat="44.73811" lon="10.1283433"><ele>118.0</ele><time>2026-04-30T14:07:48.597Z</time></trkpt><trkpt lat="44.7381667" lon="10.128415"><ele>117.83333333333334</ele><time>2026-04-30T14:07:50.589Z</time></trkpt><trkpt lat="44.73823" lon="10.12848"><ele>117.66666666666667</ele><time>2026-04-30T14:07:52.593Z</time></trkpt><trkpt lat="44.7383" lon="10.12853"><ele>117.5</ele><time>2026-04-30T14:07:54.595Z</time></trkpt><trkpt lat="44.7383883" lon="10.12853"><ele>117.33333333333334</ele><time>2026-04-30T14:07:57.593Z</time></trkpt><trkpt lat="44.7384733" lon="10.1285233"><ele>117.16666666666667</ele><time>2026-04-30T14:08:00.587Z</time></trkpt><trkpt lat="44.7385317" lon="10.1285583"><ele>117.0</ele><time>2026-04-30T14:08:02.597Z</time></trkpt><trkpt lat="44.7385983" lon="10.12862"><ele>117.16666666666667</ele><time>2026-04-30T14:08:04.596Z</time></trkpt><trkpt lat="44.7386667" lon="10.128705"><ele>117.33333333333334</ele><time>2026-04-30T14:08:06.594Z</time></trkpt><trkpt lat="44.7387033" lon="10.1288017"><ele>117.5</ele><time>2026-04-30T14:08:08.586Z</time></trkpt><trkpt lat="44.7387167" lon="10.1289117"><ele>117.66666666666667</ele><time>2026-04-30T14:08:10.586Z</time></trkpt><trkpt lat="44.7387433" lon="10.1290183"><ele>117.83333333333334</ele><time>2026-04-30T14:08:12.586Z</time></trkpt><trkpt lat="44.738795" lon="10.1290883"><ele>118.0</ele><time>2026-04-30T14:08:14.588Z</time></trkpt><trkpt lat="44.7388633" lon="10.1291417"><ele>118.00000000000001</ele><time>2026-04-30T14:08:16.593Z</time></trkpt><trkpt lat="44.73893" lon="10.1291917"><ele>118.0</ele><time>2026-04-30T14:08:18.594Z</time></trkpt><trkpt lat="44.7389917" lon="10.129255"><ele>118.0</ele><time>2026-04-30T14:08:20.596Z</time></trkpt><trkpt lat="44.7390683" lon="10.1293183"><ele>118.0</ele><time>2026-04-30T14:08:22.586Z</time></trkpt><trkpt lat="44.7391517" lon="10.129395"><ele>118.00000000000001</ele><time>2026-04-30T14:08:24.593Z</time></trkpt><trkpt lat="44.739235" lon="10.129485"><ele>118.0</ele><time>2026-04-30T14:08:26.596Z</time></trkpt><trkpt lat="44.7393233" lon="10.12956"><ele>117.80000000000001</ele><time>2026-04-30T14:08:28.587Z</time></trkpt><trkpt lat="44.7394183" lon="10.1295867"><ele>117.60000000000001</ele><time>2026-04-30T14:08:30.595Z</time></trkpt><trkpt lat="44.73952" lon="10.1295883"><ele>117.39999999999999</ele><time>2026-04-30T14:08:32.603Z</time></trkpt><trkpt lat="44.7396117" lon="10.1296383"><ele>117.19999999999999</ele><time>2026-04-30T14:08:34.592Z</time></trkpt><trkpt lat="44.7396833" lon="10.1297083"><ele>117.0</ele><time>2026-04-30T14:08:36.591Z</time></trkpt><trkpt lat="44.73975" lon="10.12977"><ele>117.0</ele><time>2026-04-30T14:08:38.586Z</time></trkpt><trkpt lat="44.7398067" lon="10.1298183"><ele>117.0</ele><time>2026-04-30T14:08:40.585Z</time></trkpt><trkpt lat="44.7398783" lon="10.12988"><ele>117.0</ele><time>2026-04-30T14:08:43.589Z</time></trkpt><trkpt lat="44.739935" lon="10.12993"><ele>117.0</ele><time>2026-04-30T14:08:46.588Z</time></trkpt><trkpt lat="44.74003" lon="10.1300167"><ele>117.0</ele><time>2026-04-30T14:09:02.597Z</time></trkpt><trkpt lat="44.7400783" lon="10.1300933"><ele>117.0</ele><time>2026-04-30T14:09:05.598Z</time></trkpt><trkpt lat="44.7401267" lon="10.1301517"><ele>116.83333333333333</ele><time>2026-04-30T14:09:07.592Z</time></trkpt><trkpt lat="44.7401983" lon="10.1301517"><ele>116.66666666666666</ele><time>2026-04-30T14:09:10.588Z</time></trkpt><trkpt lat="44.7402617" lon="10.13015"><ele>116.5</ele><time>2026-04-30T14:09:12.591Z</time></trkpt><trkpt lat="44.740325" lon="10.1301433"><ele>116.33333333333333</ele><time>2026-04-30T14:09:14.594Z</time></trkpt><trkpt lat="44.74039" lon="10.1301417"><ele>116.16666666666666</ele><time>2026-04-30T14:09:16.59Z</time></trkpt><trkpt lat="44.740505" lon="10.1301383"><ele>116.0</ele><time>2026-04-30T14:09:50.594Z</time></trkpt><trkpt lat="44.7405817" lon="10.13017"><ele>115.99999999999999</ele><time>2026-04-30T14:09:55.597Z</time></trkpt><trkpt lat="44.7406583" lon="10.130195"><ele>116.0</ele><time>2026-04-30T14:09:59.591Z</time></trkpt><trkpt lat="44.7407167" lon="10.1302283"><ele>116.0</ele><time>2026-04-30T14:10:02.591Z</time></trkpt><trkpt lat="44.740795" lon="10.13027"><ele>116.0</ele><time>2026-04-30T14:10:06.587Z</time></trkpt><trkpt lat="44.7408583" lon="10.1303167"><ele>115.99999999999999</ele><time>2026-04-30T14:10:09.588Z</time></trkpt><trkpt lat="44.740935" lon="10.1303683"><ele>116.0</ele><time>2026-04-30T14:10:13.588Z</time></trkpt><trkpt lat="44.741" lon="10.1304167"><ele>115.66666666666666</ele><time>2026-04-30T14:10:16.587Z</time></trkpt><trkpt lat="44.7410667" lon="10.1304683"><ele>115.33333333333333</ele><time>2026-04-30T14:10:19.594Z</time></trkpt><trkpt lat="44.7411417" lon="10.13053"><ele>115.0</ele><time>2026-04-30T14:10:22.59Z</time></trkpt><trkpt lat="44.7412017" lon="10.1305667"><ele>114.66666666666666</ele><time>2026-04-30T14:10:24.588Z</time></trkpt><trkpt lat="44.7412867" lon="10.1306183"><ele>114.33333333333333</ele><time>2026-04-30T14:10:27.584Z</time></trkpt><trkpt lat="44.741355" lon="10.1306733"><ele>114.0</ele><time>2026-04-30T14:10:30.588Z</time></trkpt><trkpt lat="44.7414283" lon="10.13074"><ele>114.0</ele><time>2026-04-30T14:10:33.591Z</time></trkpt><trkpt lat="44.741505" lon="10.1308017"><ele>114.0</ele><time>2026-04-30T14:10:36.588Z</time></trkpt><trkpt lat="44.7415833" lon="10.1308483"><ele>114.0</ele><time>2026-04-30T14:10:39.589Z</time></trkpt><trkpt lat="44.7416417" lon="10.1308967"><ele>114.0</ele><time>2026-04-30T14:10:42.587Z</time></trkpt><trkpt lat="44.7417067" lon="10.130945"><ele>114.0</ele><time>2026-04-30T14:10:45.591Z</time></trkpt><trkpt lat="44.7417817" lon="10.1310117"><ele>114.0</ele><time>2026-04-30T14:10:48.585Z</time></trkpt><trkpt lat="44.74186" lon="10.1310583"><ele>114.66666666666667</ele><time>2026-04-30T14:10:51.59Z</time></trkpt><trkpt lat="44.7419333" lon="10.1311133"><ele>115.33333333333334</ele><time>2026-04-30T14:10:54.591Z</time></trkpt><trkpt lat="44.74199" lon="10.1311933"><ele>116.0</ele><time>2026-04-30T14:10:57.585Z</time></trkpt><trkpt lat="44.7420167" lon="10.131295"><ele>116.66666666666667</ele><time>2026-04-30T14:11:00.588Z</time></trkpt><trkpt lat="44.742045" lon="10.1313867"><ele>117.33333333333334</ele><time>2026-04-30T14:11:03.586Z</time></trkpt><trkpt lat="44.7421267" lon="10.1314183"><ele>118.0</ele><time>2026-04-30T14:11:06.588Z</time></trkpt><trkpt lat="44.742215" lon="10.131425"><ele>118.00000000000001</ele><time>2026-04-30T14:11:09.587Z</time></trkpt><trkpt lat="44.7423" lon="10.1314617"><ele>118.0</ele><time>2026-04-30T14:11:12.586Z</time></trkpt><trkpt lat="44.7423833" lon="10.1315083"><ele>118.0</ele><time>2026-04-30T14:11:15.592Z</time></trkpt><trkpt lat="44.7424633" lon="10.1315667"><ele>118.0</ele><time>2026-04-30T14:11:18.597Z</time></trkpt><trkpt lat="44.7425183" lon="10.1316133"><ele>118.00000000000001</ele><time>2026-04-30T14:11:20.591Z</time></trkpt><trkpt lat="44.742575" lon="10.1316583"><ele>118.0</ele><time>2026-04-30T14:11:22.587Z</time></trkpt><trkpt lat="44.7426317" lon="10.1317017"><ele>118.28571428571428</ele><time>2026-04-30T14:11:24.587Z</time></trkpt><trkpt lat="44.74269" lon="10.131755"><ele>118.57142857142858</ele><time>2026-04-30T14:11:26.588Z</time></trkpt><trkpt lat="44.74275" lon="10.131815"><ele>118.85714285714286</ele><time>2026-04-30T14:11:28.584Z</time></trkpt><trkpt lat="44.742815" lon="10.1318667"><ele>119.14285714285714</ele><time>2026-04-30T14:11:30.593Z</time></trkpt><trkpt lat="44.7428817" lon="10.131915"><ele>119.42857142857142</ele><time>2026-04-30T14:11:32.586Z</time></trkpt><trkpt lat="44.7429433" lon="10.13196"><ele>119.71428571428572</ele><time>2026-04-30T14:11:34.592Z</time></trkpt><trkpt lat="44.74301" lon="10.1320067"><ele>120.0</ele><time>2026-04-30T14:11:36.59Z</time></trkpt><trkpt lat="44.74308" lon="10.1320533"><ele>120.0</ele><time>2026-04-30T14:11:38.589Z</time></trkpt><trkpt lat="44.74314" lon="10.1321083"><ele>120.0</ele><time>2026-04-30T14:11:40.586Z</time></trkpt><trkpt lat="44.7432033" lon="10.1321683"><ele>120.0</ele><time>2026-04-30T14:11:42.594Z</time></trkpt><trkpt lat="44.7432717" lon="10.1322233"><ele>120.0</ele><time>2026-04-30T14:11:44.585Z</time></trkpt><trkpt lat="44.7433383" lon="10.1322817"><ele>120.0</ele><time>2026-04-30T14:11:46.584Z</time></trkpt><trkpt lat="44.7434117" lon="10.1323383"><ele>120.0</ele><time>2026-04-30T14:11:48.587Z</time></trkpt><trkpt lat="44.7434817" lon="10.132395"><ele>120.0</ele><time>2026-04-30T14:11:50.591Z</time></trkpt><trkpt lat="44.7435517" lon="10.1324533"><ele>120.0</ele><time>2026-04-30T14:11:52.592Z</time></trkpt><trkpt lat="44.7436233" lon="10.1325067"><ele>120.0</ele><time>2026-04-30T14:11:54.588Z</time></trkpt><trkpt lat="44.7436917" lon="10.13256"><ele>120.0</ele><time>2026-04-30T14:11:56.589Z</time></trkpt><trkpt lat="44.7437617" lon="10.132615"><ele>120.0</ele><time>2026-04-30T14:11:58.59Z</time></trkpt><trkpt lat="44.7438317" lon="10.1326717"><ele>120.0</ele><time>2026-04-30T14:12:00.62Z</time></trkpt><trkpt lat="44.7439" lon="10.132725"><ele>120.0</ele><time>2026-04-30T14:12:02.596Z</time></trkpt><trkpt lat="44.743965" lon="10.1327767"><ele>120.0</ele><time>2026-04-30T14:12:04.593Z</time></trkpt><trkpt lat="44.74403" lon="10.1328267"><ele>120.0</ele><time>2026-04-30T14:12:06.587Z</time></trkpt><trkpt lat="44.7440867" lon="10.13288"><ele>120.0</ele><time>2026-04-30T14:12:08.59Z</time></trkpt><trkpt lat="44.7441467" lon="10.1329283"><ele>120.0</ele><time>2026-04-30T14:12:10.592Z</time></trkpt><trkpt lat="44.7442067" lon="10.1329783"><ele>120.0</ele><time>2026-04-30T14:12:12.595Z</time></trkpt><trkpt lat="44.7442733" lon="10.13303"><ele>120.0</ele><time>2026-04-30T14:12:14.586Z</time></trkpt><trkpt lat="44.7443433" lon="10.1330833"><ele>120.16666666666667</ele><time>2026-04-30T14:12:16.587Z</time></trkpt><trkpt lat="44.7444133" lon="10.1331417"><ele>120.33333333333334</ele><time>2026-04-30T14:12:18.586Z</time></trkpt><trkpt lat="44.7444783" lon="10.133195"><ele>120.5</ele><time>2026-04-30T14:12:20.59Z</time></trkpt><trkpt lat="44.744545" lon="10.1332583"><ele>120.66666666666667</ele><time>2026-04-30T14:12:22.591Z</time></trkpt><trkpt lat="44.7446117" lon="10.1333233"><ele>120.83333333333334</ele><time>2026-04-30T14:12:24.597Z</time></trkpt><trkpt lat="44.7446783" lon="10.1333817"><ele>121.0</ele><time>2026-04-30T14:12:26.596Z</time></trkpt><trkpt lat="44.744745" lon="10.13344"><ele>121.00000000000001</ele><time>2026-04-30T14:12:28.592Z</time></trkpt><trkpt lat="44.74481" lon="10.1334917"><ele>121.0</ele><time>2026-04-30T14:12:30.59Z</time></trkpt><trkpt lat="44.744865" lon="10.1335367"><ele>121.0</ele><time>2026-04-30T14:12:32.591Z</time></trkpt><trkpt lat="44.7449233" lon="10.133595"><ele>121.0</ele><time>2026-04-30T14:12:34.59Z</time></trkpt><trkpt lat="44.7449833" lon="10.13367"><ele>121.00000000000001</ele><time>2026-04-30T14:12:36.594Z</time></trkpt><trkpt lat="44.74505" lon="10.1337483"><ele>121.0</ele><time>2026-04-30T14:12:38.587Z</time></trkpt><trkpt lat="44.7451183" lon="10.1338133"><ele>121.00000000000001</ele><time>2026-04-30T14:12:40.591Z</time></trkpt><trkpt lat="44.745185" lon="10.133885"><ele>121.0</ele><time>2026-04-30T14:12:42.591Z</time></trkpt><trkpt lat="44.7452533" lon="10.1339583"><ele>121.0</ele><time>2026-04-30T14:12:44.586Z</time></trkpt><trkpt lat="44.7453183" lon="10.1340267"><ele>121.0</ele><time>2026-04-30T14:12:46.588Z</time></trkpt><trkpt lat="44.7453867" lon="10.1340933"><ele>121.00000000000001</ele><time>2026-04-30T14:12:48.585Z</time></trkpt><trkpt lat="44.745455" lon="10.1341583"><ele>121.0</ele><time>2026-04-30T14:12:50.585Z</time></trkpt><trkpt lat="44.7455183" lon="10.1342317"><ele>121.33333333333334</ele><time>2026-04-30T14:12:52.592Z</time></trkpt><trkpt lat="44.7455883" lon="10.13431"><ele>121.66666666666667</ele><time>2026-04-30T14:12:54.595Z</time></trkpt><trkpt lat="44.7456467" lon="10.1343817"><ele>122.0</ele><time>2026-04-30T14:12:56.589Z</time></trkpt><trkpt lat="44.7457067" lon="10.1344533"><ele>122.33333333333334</ele><time>2026-04-30T14:12:58.587Z</time></trkpt><trkpt lat="44.7457667" lon="10.134525"><ele>122.66666666666667</ele><time>2026-04-30T14:13:00.587Z</time></trkpt><trkpt lat="44.7458217" lon="10.1345917"><ele>123.0</ele><time>2026-04-30T14:13:02.588Z</time></trkpt><trkpt lat="44.745885" lon="10.1346633"><ele>123.0</ele><time>2026-04-30T14:13:04.622Z</time></trkpt><trkpt lat="44.74595" lon="10.1347333"><ele>123.0</ele><time>2026-04-30T14:13:06.591Z</time></trkpt><trkpt lat="44.74601" lon="10.1348033"><ele>123.0</ele><time>2026-04-30T14:13:08.594Z</time></trkpt><trkpt lat="44.74607" lon="10.1348817"><ele>123.0</ele><time>2026-04-30T14:13:10.581Z</time></trkpt><trkpt lat="44.7461367" lon="10.1349617"><ele>123.0</ele><time>2026-04-30T14:13:12.585Z</time></trkpt><trkpt lat="44.7461933" lon="10.1350433"><ele>123.0</ele><time>2026-04-30T14:13:14.591Z</time></trkpt><trkpt lat="44.7462517" lon="10.1351133"><ele>123.0</ele><time>2026-04-30T14:13:16.59Z</time></trkpt><trkpt lat="44.7463117" lon="10.13519"><ele>123.0</ele><time>2026-04-30T14:13:18.586Z</time></trkpt><trkpt lat="44.7463717" lon="10.135265"><ele>123.0</ele><time>2026-04-30T14:13:20.59Z</time></trkpt><trkpt lat="44.74643" lon="10.13534"><ele>123.0</ele><time>2026-04-30T14:13:22.588Z</time></trkpt><trkpt lat="44.74649" lon="10.1354167"><ele>123.0</ele><time>2026-04-30T14:13:24.59Z</time></trkpt><trkpt lat="44.746545" lon="10.1355033"><ele>123.0</ele><time>2026-04-30T14:13:26.584Z</time></trkpt><trkpt lat="44.7466083" lon="10.13558"><ele>123.00000000000001</ele><time>2026-04-30T14:13:28.583Z</time></trkpt><trkpt lat="44.746675" lon="10.1356533"><ele>123.0</ele><time>2026-04-30T14:13:30.589Z</time></trkpt><trkpt lat="44.7467317" lon="10.1357267"><ele>123.00000000000001</ele><time>2026-04-30T14:13:32.587Z</time></trkpt><trkpt lat="44.74679" lon="10.135795"><ele>123.00000000000001</ele><time>2026-04-30T14:13:34.588Z</time></trkpt><trkpt lat="44.7468367" lon="10.1358683"><ele>123.0</ele><time>2026-04-30T14:13:36.587Z</time></trkpt><trkpt lat="44.7468833" lon="10.1359333"><ele>123.00000000000001</ele><time>2026-04-30T14:13:38.586Z</time></trkpt><trkpt lat="44.7469383" lon="10.1360033"><ele>123.00000000000001</ele><time>2026-04-30T14:13:40.588Z</time></trkpt><trkpt lat="44.746995" lon="10.1360783"><ele>123.5</ele><time>2026-04-30T14:13:42.584Z</time></trkpt><trkpt lat="44.7470517" lon="10.136155"><ele>124.0</ele><time>2026-04-30T14:13:44.6Z</time></trkpt><trkpt lat="44.7471117" lon="10.136225"><ele>124.5</ele><time>2026-04-30T14:13:46.593Z</time></trkpt><trkpt lat="44.7471733" lon="10.1363017"><ele>125.0</ele><time>2026-04-30T14:13:48.586Z</time></trkpt><trkpt lat="44.7472317" lon="10.1363817"><ele>125.5</ele><time>2026-04-30T14:13:50.59Z</time></trkpt><trkpt lat="44.7472933" lon="10.1364617"><ele>126.0</ele><time>2026-04-30T14:13:52.585Z</time></trkpt><trkpt lat="44.747355" lon="10.1365417"><ele>126.33333333333333</ele><time>2026-04-30T14:13:54.584Z</time></trkpt><trkpt lat="44.7474217" lon="10.13662"><ele>126.66666666666666</ele><time>2026-04-30T14:13:56.588Z</time></trkpt><trkpt lat="44.7474883" lon="10.1366883"><ele>127.0</ele><time>2026-04-30T14:13:58.588Z</time></trkpt><trkpt lat="44.7475533" lon="10.1367533"><ele>127.33333333333333</ele><time>2026-04-30T14:14:00.587Z</time></trkpt><trkpt lat="44.7476083" lon="10.1368217"><ele>127.66666666666666</ele><time>2026-04-30T14:14:02.591Z</time></trkpt><trkpt lat="44.7476683" lon="10.1368767"><ele>128.0</ele><time>2026-04-30T14:14:04.589Z</time></trkpt><trkpt lat="44.7477183" lon="10.13694"><ele>127.99999999999999</ele><time>2026-04-30T14:14:06.587Z</time></trkpt><trkpt lat="44.7477767" lon="10.1370033"><ele>128.0</ele><time>2026-04-30T14:14:08.588Z</time></trkpt><trkpt lat="44.7478433" lon="10.1370817"><ele>128.0</ele><time>2026-04-30T14:14:10.593Z</time></trkpt><trkpt lat="44.7479083" lon="10.13716"><ele>128.0</ele><time>2026-04-30T14:14:12.593Z</time></trkpt><trkpt lat="44.7479783" lon="10.137245"><ele>127.99999999999999</ele><time>2026-04-30T14:14:14.595Z</time></trkpt><trkpt lat="44.7480533" lon="10.1373417"><ele>128.0</ele><time>2026-04-30T14:14:16.59Z</time></trkpt><trkpt lat="44.748125" lon="10.1374367"><ele>126.33333333333333</ele><time>2026-04-30T14:14:18.586Z</time></trkpt><trkpt lat="44.74819" lon="10.1375183"><ele>124.66666666666666</ele><time>2026-04-30T14:14:20.59Z</time></trkpt><trkpt lat="44.7482483" lon="10.1375933"><ele>123.0</ele><time>2026-04-30T14:14:22.586Z</time></trkpt><trkpt lat="44.748305" lon="10.1376717"><ele>121.33333333333334</ele><time>2026-04-30T14:14:24.588Z</time></trkpt><trkpt lat="44.7483633" lon="10.13774"><ele>119.66666666666667</ele><time>2026-04-30T14:14:26.592Z</time></trkpt><trkpt lat="44.748425" lon="10.13781"><ele>118.0</ele><time>2026-04-30T14:14:28.591Z</time></trkpt><trkpt lat="44.7484783" lon="10.137885"><ele>118.00000000000001</ele><time>2026-04-30T14:14:30.593Z</time></trkpt><trkpt lat="44.7485333" lon="10.1379733"><ele>118.0</ele><time>2026-04-30T14:14:32.598Z</time></trkpt><trkpt lat="44.7485917" lon="10.1380417"><ele>118.0</ele><time>2026-04-30T14:14:34.591Z</time></trkpt><trkpt lat="44.7486483" lon="10.1381133"><ele>118.0</ele><time>2026-04-30T14:14:36.584Z</time></trkpt><trkpt lat="44.7487183" lon="10.1381767"><ele>118.00000000000001</ele><time>2026-04-30T14:14:38.586Z</time></trkpt><trkpt lat="44.74878" lon="10.1382467"><ele>118.0</ele><time>2026-04-30T14:14:40.591Z</time></trkpt><trkpt lat="44.7488433" lon="10.1383183"><ele>118.16666666666667</ele><time>2026-04-30T14:14:42.592Z</time></trkpt><trkpt lat="44.7489067" lon="10.1383883"><ele>118.33333333333334</ele><time>2026-04-30T14:14:44.586Z</time></trkpt><trkpt lat="44.7489667" lon="10.13847"><ele>118.5</ele><time>2026-04-30T14:14:46.592Z</time></trkpt><trkpt lat="44.7490283" lon="10.13855"><ele>118.66666666666666</ele><time>2026-04-30T14:14:48.588Z</time></trkpt><trkpt lat="44.7490917" lon="10.1386317"><ele>118.83333333333333</ele><time>2026-04-30T14:14:50.591Z</time></trkpt><trkpt lat="44.7491567" lon="10.1387133"><ele>119.0</ele><time>2026-04-30T14:14:52.59Z</time></trkpt><trkpt lat="44.74922" lon="10.1387917"><ele>118.99999999999999</ele><time>2026-04-30T14:14:54.588Z</time></trkpt><trkpt lat="44.7492833" lon="10.13887"><ele>119.0</ele><time>2026-04-30T14:14:56.596Z</time></trkpt><trkpt lat="44.74934" lon="10.1389483"><ele>119.0</ele><time>2026-04-30T14:14:58.59Z</time></trkpt><trkpt lat="44.7493983" lon="10.13903"><ele>119.0</ele><time>2026-04-30T14:15:00.585Z</time></trkpt><trkpt lat="44.7494567" lon="10.1391117"><ele>118.99999999999999</ele><time>2026-04-30T14:15:02.584Z</time></trkpt><trkpt lat="44.7495117" lon="10.139205"><ele>119.0</ele><time>2026-04-30T14:15:04.587Z</time></trkpt><trkpt lat="44.7495567" lon="10.1393"><ele>119.33333333333333</ele><time>2026-04-30T14:15:06.589Z</time></trkpt><trkpt lat="44.7495917" lon="10.1393817"><ele>119.66666666666666</ele><time>2026-04-30T14:15:08.594Z</time></trkpt><trkpt lat="44.7496383" lon="10.1394967"><ele>120.0</ele><time>2026-04-30T14:15:11.585Z</time></trkpt><trkpt lat="44.7496917" lon="10.1395533"><ele>120.33333333333334</ele><time>2026-04-30T14:15:13.591Z</time></trkpt><trkpt lat="44.7497633" lon="10.139565"><ele>120.66666666666667</ele><time>2026-04-30T14:15:16.586Z</time></trkpt><trkpt lat="44.7498383" lon="10.1395783"><ele>121.0</ele><time>2026-04-30T14:15:20.592Z</time></trkpt><trkpt lat="44.7499017" lon="10.1395183"><ele>121.0</ele><time>2026-04-30T14:15:33.587Z</time></trkpt><trkpt lat="44.74999" lon="10.1395483"><ele>120.99999999999999</ele><time>2026-04-30T14:15:40.586Z</time></trkpt><trkpt lat="44.7500417" lon="10.139605"><ele>121.0</ele><time>2026-04-30T14:15:43.587Z</time></trkpt><trkpt lat="44.7500983" lon="10.139675"><ele>121.0</ele><time>2026-04-30T14:15:46.59Z</time></trkpt><trkpt lat="44.7501517" lon="10.1397417"><ele>120.99999999999999</ele><time>2026-04-30T14:15:49.593Z</time></trkpt><trkpt lat="44.7502033" lon="10.1398117"><ele>121.0</ele><time>2026-04-30T14:15:52.588Z</time></trkpt><trkpt lat="44.7502583" lon="10.1398767"><ele>121.0</ele><time>2026-04-30T14:15:55.584Z</time></trkpt><trkpt lat="44.7503183" lon="10.1399533"><ele>121.66666666666667</ele><time>2026-04-30T14:15:58.588Z</time></trkpt><trkpt lat="44.750385" lon="10.14003"><ele>122.33333333333334</ele><time>2026-04-30T14:16:01.595Z</time></trkpt><trkpt lat="44.750455" lon="10.1401167"><ele>123.0</ele><time>2026-04-30T14:16:04.591Z</time></trkpt><trkpt lat="44.7505283" lon="10.1401883"><ele>123.66666666666666</ele><time>2026-04-30T14:16:07.594Z</time></trkpt><trkpt lat="44.750605" lon="10.1402583"><ele>124.33333333333333</ele><time>2026-04-30T14:16:10.585Z</time></trkpt><trkpt lat="44.750675" lon="10.1403283"><ele>125.0</ele><time>2026-04-30T14:16:13.586Z</time></trkpt><trkpt lat="44.7507533" lon="10.1403917"><ele>124.99999999999999</ele><time>2026-04-30T14:16:16.586Z</time></trkpt><trkpt lat="44.7508267" lon="10.14045"><ele>125.0</ele><time>2026-04-30T14:16:19.591Z</time></trkpt><trkpt lat="44.7508917" lon="10.1405083"><ele>125.0</ele><time>2026-04-30T14:16:22.588Z</time></trkpt><trkpt lat="44.7509583" lon="10.140555"><ele>125.0</ele><time>2026-04-30T14:16:25.589Z</time></trkpt><trkpt lat="44.751025" lon="10.1406083"><ele>124.99999999999999</ele><time>2026-04-30T14:16:28.591Z</time></trkpt><trkpt lat="44.7510917" lon="10.14066"><ele>125.0</ele><time>2026-04-30T14:16:31.593Z</time></trkpt><trkpt lat="44.7511633" lon="10.1407083"><ele>124.49999999999999</ele><time>2026-04-30T14:16:34.586Z</time></trkpt><trkpt lat="44.751235" lon="10.1407717"><ele>124.0</ele><time>2026-04-30T14:16:37.598Z</time></trkpt><trkpt lat="44.7513167" lon="10.1408183"><ele>123.5</ele><time>2026-04-30T14:16:40.587Z</time></trkpt><trkpt lat="44.7513983" lon="10.1408667"><ele>123.0</ele><time>2026-04-30T14:16:43.59Z</time></trkpt><trkpt lat="44.7514767" lon="10.1409033"><ele>122.49999999999999</ele><time>2026-04-30T14:16:46.591Z</time></trkpt><trkpt lat="44.75155" lon="10.1409317"><ele>122.0</ele><time>2026-04-30T14:16:49.588Z</time></trkpt><trkpt lat="44.75162" lon="10.1409683"><ele>121.99999999999999</ele><time>2026-04-30T14:16:52.59Z</time></trkpt><trkpt lat="44.7516833" lon="10.1410017"><ele>122.0</ele><time>2026-04-30T14:16:55.596Z</time></trkpt><trkpt lat="44.7517567" lon="10.1410217"><ele>121.99999999999999</ele><time>2026-04-30T14:16:59.594Z</time></trkpt><trkpt lat="44.7518283" lon="10.14105"><ele>121.99999999999999</ele><time>2026-04-30T14:17:03.588Z</time></trkpt><trkpt lat="44.7518967" lon="10.1410817"><ele>122.0</ele><time>2026-04-30T14:17:07.59Z</time></trkpt><trkpt lat="44.7519633" lon="10.1411367"><ele>121.99999999999999</ele><time>2026-04-30T14:17:11.591Z</time></trkpt><trkpt lat="44.7520367" lon="10.141165"><ele>121.99999999999999</ele><time>2026-04-30T14:17:14.588Z</time></trkpt><trkpt lat="44.75211" lon="10.141205"><ele>121.42857142857142</ele><time>2026-04-30T14:17:17.588Z</time></trkpt><trkpt lat="44.7521817" lon="10.1412417"><ele>120.85714285714286</ele><time>2026-04-30T14:17:20.594Z</time></trkpt><trkpt lat="44.7522467" lon="10.1412767"><ele>120.28571428571428</ele><time>2026-04-30T14:17:23.59Z</time></trkpt><trkpt lat="44.7523083" lon="10.1413"><ele>119.71428571428571</ele><time>2026-04-30T14:17:26.593Z</time></trkpt><trkpt lat="44.7523917" lon="10.14132"><ele>119.14285714285714</ele><time>2026-04-30T14:17:30.595Z</time></trkpt><trkpt lat="44.7524583" lon="10.141345"><ele>118.57142857142857</ele><time>2026-04-30T14:17:33.595Z</time></trkpt><trkpt lat="44.7525217" lon="10.1413583"><ele>118.0</ele><time>2026-04-30T14:17:37.59Z</time></trkpt><trkpt lat="44.75259" lon="10.141375"><ele>118.0</ele><time>2026-04-30T14:17:41.594Z</time></trkpt><trkpt lat="44.7526583" lon="10.1413833"><ele>118.0</ele><time>2026-04-30T14:17:45.589Z</time></trkpt><trkpt lat="44.7527383" lon="10.1413917"><ele>118.0</ele><time>2026-04-30T14:17:49.592Z</time></trkpt><trkpt lat="44.7528017" lon="10.14139"><ele>118.0</ele><time>2026-04-30T14:17:52.584Z</time></trkpt><trkpt lat="44.7528667" lon="10.1413867"><ele>118.0</ele><time>2026-04-30T14:17:55.593Z</time></trkpt><trkpt lat="44.7529483" lon="10.1413717"><ele>118.0</ele><time>2026-04-30T14:17:59.593Z</time></trkpt><trkpt lat="44.7530167" lon="10.1413733"><ele>118.0</ele><time>2026-04-30T14:18:02.593Z</time></trkpt><trkpt lat="44.7530983" lon="10.1413783"><ele>117.57142857142857</ele><time>2026-04-30T14:18:06.586Z</time></trkpt><trkpt lat="44.7531767" lon="10.1413617"><ele>117.14285714285714</ele><time>2026-04-30T14:18:10.594Z</time></trkpt><trkpt lat="44.75324" lon="10.14135"><ele>116.71428571428571</ele><time>2026-04-30T14:18:13.589Z</time></trkpt><trkpt lat="44.7533067" lon="10.1413317"><ele>116.28571428571428</ele><time>2026-04-30T14:18:16.586Z</time></trkpt><trkpt lat="44.75337" lon="10.1413167"><ele>115.85714285714286</ele><time>2026-04-30T14:18:19.588Z</time></trkpt><trkpt lat="44.7534467" lon="10.1412717"><ele>115.42857142857142</ele><time>2026-04-30T14:18:23.59Z</time></trkpt><trkpt lat="44.75352" lon="10.141245"><ele>114.99999999999999</ele><time>2026-04-30T14:18:27.585Z</time></trkpt><trkpt lat="44.7535917" lon="10.1412217"><ele>117.14285714285712</ele><time>2026-04-30T14:18:31.582Z</time></trkpt><trkpt lat="44.7536533" lon="10.1412017"><ele>119.28571428571428</ele><time>2026-04-30T14:18:34.591Z</time></trkpt><trkpt lat="44.7537283" lon="10.1411717"><ele>121.42857142857143</ele><time>2026-04-30T14:18:38.594Z</time></trkpt><trkpt lat="44.75379" lon="10.14115"><ele>123.57142857142857</ele><time>2026-04-30T14:18:41.591Z</time></trkpt><trkpt lat="44.7538517" lon="10.14113"><ele>125.71428571428572</ele><time>2026-04-30T14:18:44.592Z</time></trkpt><trkpt lat="44.7539267" lon="10.141105"><ele>127.85714285714288</ele><time>2026-04-30T14:18:48.583Z</time></trkpt><trkpt lat="44.7539983" lon="10.14108"><ele>130.0</ele><time>2026-04-30T14:18:52.587Z</time></trkpt><trkpt lat="44.7540717" lon="10.1410567"><ele>130.0</ele><time>2026-04-30T14:18:56.585Z</time></trkpt><trkpt lat="44.7541483" lon="10.1410183"><ele>130.0</ele><time>2026-04-30T14:19:00.587Z</time></trkpt><trkpt lat="44.75421" lon="10.140995"><ele>130.0</ele><time>2026-04-30T14:19:03.591Z</time></trkpt><trkpt lat="44.754235" lon="10.1409"><ele>130.0</ele><time>2026-04-30T14:19:08.591Z</time></trkpt><trkpt lat="44.7541517" lon="10.1409183"><ele>130.0</ele><time>2026-04-30T14:19:11.588Z</time></trkpt><trkpt lat="44.7540517" lon="10.1409417"><ele>130.0</ele><time>2026-04-30T14:19:13.594Z</time></trkpt><trkpt lat="44.7539833" lon="10.1409517"><ele>130.0</ele><time>2026-04-30T14:19:14.585Z</time></trkpt><trkpt lat="44.753905" lon="10.1409633"><ele>130.0</ele><time>2026-04-30T14:19:15.593Z</time></trkpt><trkpt lat="44.7538217" lon="10.1409717"><ele>130.0</ele><time>2026-04-30T14:19:16.585Z</time></trkpt><trkpt lat="44.7537333" lon="10.14098"><ele>130.0</ele><time>2026-04-30T14:19:17.592Z</time></trkpt><trkpt lat="44.75364" lon="10.1409883"><ele>130.0</ele><time>2026-04-30T14:19:18.586Z</time></trkpt><trkpt lat="44.7535417" lon="10.1409983"><ele>130.0</ele><time>2026-04-30T14:19:19.592Z</time></trkpt><trkpt lat="44.7534433" lon="10.141"><ele>128.00000000000003</ele><time>2026-04-30T14:19:20.589Z</time></trkpt><trkpt lat="44.75336" lon="10.1410067"><ele>126.0</ele><time>2026-04-30T14:19:21.592Z</time></trkpt><trkpt lat="44.753285" lon="10.1410033"><ele>124.00000000000001</ele><time>2026-04-30T14:19:22.589Z</time></trkpt><trkpt lat="44.7532133" lon="10.1409883"><ele>122.00000000000001</ele><time>2026-04-30T14:19:23.595Z</time></trkpt><trkpt lat="44.753145" lon="10.1409617"><ele>120.0</ele><time>2026-04-30T14:19:24.596Z</time></trkpt><trkpt lat="44.75308" lon="10.1409183"><ele>118.00000000000001</ele><time>2026-04-30T14:19:25.59Z</time></trkpt><trkpt lat="44.753035" lon="10.140855"><ele>116.00000000000001</ele><time>2026-04-30T14:19:26.582Z</time></trkpt><trkpt lat="44.753035" lon="10.1406933"><ele>116.0</ele><time>2026-04-30T14:19:28.589Z</time></trkpt><trkpt lat="44.7530883" lon="10.14056"><ele>116.0</ele><time>2026-04-30T14:19:30.593Z</time></trkpt><trkpt lat="44.753125" lon="10.1404267"><ele>116.0</ele><time>2026-04-30T14:19:32.588Z</time></trkpt><trkpt lat="44.7531567" lon="10.1402933"><ele>116.0</ele><time>2026-04-30T14:19:34.584Z</time></trkpt><trkpt lat="44.7531867" lon="10.14016"><ele>116.0</ele><time>2026-04-30T14:19:36.594Z</time></trkpt><trkpt lat="44.7531867" lon="10.140025"><ele>116.0</ele><time>2026-04-30T14:19:38.594Z</time></trkpt><trkpt lat="44.7531617" lon="10.1398933"><ele>116.0</ele><time>2026-04-30T14:19:40.585Z</time></trkpt><trkpt lat="44.7531217" lon="10.13975"><ele>116.0</ele><time>2026-04-30T14:19:42.595Z</time></trkpt><trkpt lat="44.7530467" lon="10.139515"><ele>116.0</ele><time>2026-04-30T14:19:45.587Z</time></trkpt><trkpt lat="44.7530133" lon="10.139375"><ele>116.49999999999999</ele><time>2026-04-30T14:19:47.588Z</time></trkpt><trkpt lat="44.7529817" lon="10.139255"><ele>117.0</ele><time>2026-04-30T14:19:49.585Z</time></trkpt><trkpt lat="44.752955" lon="10.13915"><ele>117.5</ele><time>2026-04-30T14:19:51.583Z</time></trkpt><trkpt lat="44.7529333" lon="10.13905"><ele>118.0</ele><time>2026-04-30T14:19:53.591Z</time></trkpt><trkpt lat="44.7529183" lon="10.1389333"><ele>118.49999999999999</ele><time>2026-04-30T14:19:55.587Z</time></trkpt><trkpt lat="44.752915" lon="10.1388033"><ele>119.0</ele><time>2026-04-30T14:19:57.591Z</time></trkpt><trkpt lat="44.7529017" lon="10.1386767"><ele>119.16666666666666</ele><time>2026-04-30T14:19:59.587Z</time></trkpt><trkpt lat="44.7528867" lon="10.13856"><ele>119.33333333333333</ele><time>2026-04-30T14:20:01.592Z</time></trkpt><trkpt lat="44.7528733" lon="10.1384467"><ele>119.5</ele><time>2026-04-30T14:20:03.59Z</time></trkpt><trkpt lat="44.75286" lon="10.1383383"><ele>119.66666666666666</ele><time>2026-04-30T14:20:05.588Z</time></trkpt><trkpt lat="44.7528417" lon="10.1382383"><ele>119.83333333333333</ele><time>2026-04-30T14:20:07.589Z</time></trkpt><trkpt lat="44.7528183" lon="10.13815"><ele>120.0</ele><time>2026-04-30T14:20:09.589Z</time></trkpt><trkpt lat="44.7527817" lon="10.13806"><ele>120.85714285714286</ele><time>2026-04-30T14:20:11.588Z</time></trkpt><trkpt lat="44.7527383" lon="10.1379683"><ele>121.71428571428571</ele><time>2026-04-30T14:20:13.586Z</time></trkpt><trkpt lat="44.7526983" lon="10.137875"><ele>122.57142857142857</ele><time>2026-04-30T14:20:15.589Z</time></trkpt><trkpt lat="44.7526617" lon="10.137785"><ele>123.42857142857143</ele><time>2026-04-30T14:20:17.589Z</time></trkpt><trkpt lat="44.75262" lon="10.1377083"><ele>124.28571428571428</ele><time>2026-04-30T14:20:19.586Z</time></trkpt><trkpt lat="44.752575" lon="10.13764"><ele>125.14285714285714</ele><time>2026-04-30T14:20:21.585Z</time></trkpt><trkpt lat="44.7525233" lon="10.1375733"><ele>126.0</ele><time>2026-04-30T14:20:23.591Z</time></trkpt><trkpt lat="44.7524533" lon="10.137475"><ele>124.83333333333333</ele><time>2026-04-30T14:20:26.597Z</time></trkpt><trkpt lat="44.752405" lon="10.1374033"><ele>123.66666666666666</ele><time>2026-04-30T14:20:28.593Z</time></trkpt><trkpt lat="44.752365" lon="10.1373267"><ele>122.5</ele><time>2026-04-30T14:20:30.592Z</time></trkpt><trkpt lat="44.7523017" lon="10.137225"><ele>121.33333333333333</ele><time>2026-04-30T14:20:33.595Z</time></trkpt><trkpt lat="44.752245" lon="10.137125"><ele>120.16666666666666</ele><time>2026-04-30T14:20:36.591Z</time></trkpt><trkpt lat="44.7522" lon="10.137055"><ele>119.0</ele><time>2026-04-30T14:20:38.598Z</time></trkpt><trkpt lat="44.75215" lon="10.136965"><ele>118.99999999999999</ele><time>2026-04-30T14:20:40.585Z</time></trkpt><trkpt lat="44.7521033" lon="10.1368583"><ele>119.0</ele><time>2026-04-30T14:20:42.59Z</time></trkpt><trkpt lat="44.7520433" lon="10.13675"><ele>119.0</ele><time>2026-04-30T14:20:44.586Z</time></trkpt><trkpt lat="44.751985" lon="10.1366483"><ele>119.0</ele><time>2026-04-30T14:20:46.593Z</time></trkpt><trkpt lat="44.7519367" lon="10.13656"><ele>118.99999999999999</ele><time>2026-04-30T14:20:48.595Z</time></trkpt><trkpt lat="44.75189" lon="10.1364817"><ele>119.0</ele><time>2026-04-30T14:20:50.583Z</time></trkpt><trkpt lat="44.7518467" lon="10.13641"><ele>118.66666666666666</ele><time>2026-04-30T14:20:52.588Z</time></trkpt><trkpt lat="44.7517933" lon="10.1363117"><ele>118.33333333333333</ele><time>2026-04-30T14:20:55.588Z</time></trkpt><trkpt lat="44.7517417" lon="10.1362133"><ele>118.0</ele><time>2026-04-30T14:20:58.588Z</time></trkpt><trkpt lat="44.7516933" lon="10.1361267"><ele>117.66666666666666</ele><time>2026-04-30T14:21:01.587Z</time></trkpt><trkpt lat="44.7516383" lon="10.136035"><ele>117.33333333333333</ele><time>2026-04-30T14:21:04.584Z</time></trkpt><trkpt lat="44.7515917" lon="10.1359517"><ele>117.0</ele><time>2026-04-30T14:21:07.587Z</time></trkpt><trkpt lat="44.7515367" lon="10.13585"><ele>117.0</ele><time>2026-04-30T14:21:11.59Z</time></trkpt><trkpt lat="44.75148" lon="10.13578"><ele>117.0</ele><time>2026-04-30T14:21:14.589Z</time></trkpt><trkpt lat="44.7514183" lon="10.1356983"><ele>117.0</ele><time>2026-04-30T14:21:17.589Z</time></trkpt><trkpt lat="44.75136" lon="10.135615"><ele>117.0</ele><time>2026-04-30T14:21:20.588Z</time></trkpt><trkpt lat="44.7513067" lon="10.135535"><ele>117.0</ele><time>2026-04-30T14:21:23.585Z</time></trkpt><trkpt lat="44.7512583" lon="10.1354483"><ele>117.0</ele><time>2026-04-30T14:21:26.586Z</time></trkpt><trkpt lat="44.7512133" lon="10.13535"><ele>117.16666666666667</ele><time>2026-04-30T14:21:29.584Z</time></trkpt><trkpt lat="44.7511633" lon="10.1352617"><ele>117.33333333333334</ele><time>2026-04-30T14:21:32.589Z</time></trkpt><trkpt lat="44.75111" lon="10.1351767"><ele>117.5</ele><time>2026-04-30T14:21:35.595Z</time></trkpt><trkpt lat="44.7510467" lon="10.1350917"><ele>117.66666666666667</ele><time>2026-04-30T14:21:38.587Z</time></trkpt><trkpt lat="44.7509867" lon="10.1349933"><ele>117.83333333333334</ele><time>2026-04-30T14:21:41.59Z</time></trkpt><trkpt lat="44.75094" lon="10.13493"><ele>118.0</ele><time>2026-04-30T14:21:43.595Z</time></trkpt><trkpt lat="44.7508783" lon="10.134835"><ele>118.33333333333334</ele><time>2026-04-30T14:21:46.594Z</time></trkpt><trkpt lat="44.750815" lon="10.134755"><ele>118.66666666666667</ele><time>2026-04-30T14:21:49.589Z</time></trkpt><trkpt lat="44.7507633" lon="10.13467"><ele>119.0</ele><time>2026-04-30T14:21:52.583Z</time></trkpt><trkpt lat="44.7507267" lon="10.1345717"><ele>119.33333333333334</ele><time>2026-04-30T14:21:55.588Z</time></trkpt><trkpt lat="44.750745" lon="10.1346767"><ele>119.66666666666667</ele><time>2026-04-30T14:22:09.591Z</time></trkpt><trkpt lat="44.7507933" lon="10.13477"><ele>120.0</ele><time>2026-04-30T14:22:12.588Z</time></trkpt><trkpt lat="44.7508633" lon="10.1348267"><ele>120.0</ele><time>2026-04-30T14:22:35.587Z</time></trkpt><trkpt lat="44.7509133" lon="10.1348817"><ele>120.0</ele><time>2026-04-30T14:22:37.594Z</time></trkpt><trkpt lat="44.75096" lon="10.134955"><ele>120.0</ele><time>2026-04-30T14:22:39.586Z</time></trkpt><trkpt lat="44.7510117" lon="10.1350217"><ele>120.0</ele><time>2026-04-30T14:22:41.593Z</time></trkpt><trkpt lat="44.7510567" lon="10.1350917"><ele>120.0</ele><time>2026-04-30T14:22:43.594Z</time></trkpt><trkpt lat="44.751105" lon="10.1351583"><ele>120.0</ele><time>2026-04-30T14:22:45.59Z</time></trkpt><trkpt lat="44.7511583" lon="10.1352633"><ele>120.0</ele><time>2026-04-30T14:22:48.585Z</time></trkpt><trkpt lat="44.7512017" lon="10.135335"><ele>119.66666666666667</ele><time>2026-04-30T14:22:50.593Z</time></trkpt><trkpt lat="44.7512467" lon="10.13541"><ele>119.33333333333334</ele><time>2026-04-30T14:22:52.591Z</time></trkpt><trkpt lat="44.7512883" lon="10.13548"><ele>119.0</ele><time>2026-04-30T14:22:54.59Z</time></trkpt><trkpt lat="44.75134" lon="10.13557"><ele>118.66666666666667</ele><time>2026-04-30T14:22:57.583Z</time></trkpt><trkpt lat="44.7512283" lon="10.135675"><ele>118.33333333333334</ele><time>2026-04-30T14:24:05.586Z</time></trkpt><trkpt lat="44.751195" lon="10.1357567"><ele>118.0</ele><time>2026-04-30T14:26:18.593Z</time></trkpt><trkpt lat="44.751135" lon="10.1358283"><ele>117.83333333333334</ele><time>2026-04-30T14:26:24.59Z</time></trkpt><trkpt lat="44.7511633" lon="10.13596"><ele>117.66666666666667</ele><time>2026-04-30T14:26:31.592Z</time></trkpt><trkpt lat="44.7512017" lon="10.1360367"><ele>117.5</ele><time>2026-04-30T14:26:34.585Z</time></trkpt><trkpt lat="44.751225" lon="10.1361233"><ele>117.33333333333334</ele><time>2026-04-30T14:26:38.588Z</time></trkpt><trkpt lat="44.751245" lon="10.1362117"><ele>117.16666666666667</ele><time>2026-04-30T14:26:46.587Z</time></trkpt><trkpt lat="44.7511633" lon="10.136285"><ele>117.0</ele><time>2026-04-30T14:26:59.583Z</time></trkpt><trkpt lat="44.7510967" lon="10.1363567"><ele>119.5</ele><time>2026-04-30T14:27:07.595Z</time></trkpt><trkpt lat="44.7510317" lon="10.1363367"><ele>122.0</ele><time>2026-04-30T14:27:28.587Z</time></trkpt><trkpt lat="44.7509933" lon="10.136255"><ele>124.5</ele><time>2026-04-30T14:27:33.595Z</time></trkpt><trkpt lat="44.750955" lon="10.1361783"><ele>127.0</ele><time>2026-04-30T14:27:36.594Z</time></trkpt><trkpt lat="44.7509033" lon="10.13609"><ele>129.5</ele><time>2026-04-30T14:27:40.588Z</time></trkpt><trkpt lat="44.7508433" lon="10.1359917"><ele>132.0</ele><time>2026-04-30T14:27:43.586Z</time></trkpt><trkpt lat="44.7507867" lon="10.1358883"><ele>132.0</ele><time>2026-04-30T14:27:46.592Z</time></trkpt><trkpt lat="44.75074" lon="10.13582"><ele>132.0</ele><time>2026-04-30T14:27:48.593Z</time></trkpt><trkpt lat="44.750695" lon="10.1357517"><ele>132.0</ele><time>2026-04-30T14:27:51.598Z</time></trkpt><trkpt lat="44.7506517" lon="10.1356583"><ele>132.0</ele><time>2026-04-30T14:27:56.593Z</time></trkpt><trkpt lat="44.7506117" lon="10.135555"><ele>132.0</ele><time>2026-04-30T14:28:02.594Z</time></trkpt><trkpt lat="44.750615" lon="10.1354517"><ele>132.0</ele><time>2026-04-30T14:28:07.588Z</time></trkpt><trkpt lat="44.7506017" lon="10.13534"><ele>131.83333333333334</ele><time>2026-04-30T14:28:11.586Z</time></trkpt><trkpt lat="44.750555" lon="10.1352433"><ele>131.66666666666666</ele><time>2026-04-30T14:28:14.59Z</time></trkpt><trkpt lat="44.7505133" lon="10.135165"><ele>131.5</ele><time>2026-04-30T14:28:17.592Z</time></trkpt><trkpt lat="44.7504617" lon="10.1351067"><ele>131.33333333333331</ele><time>2026-04-30T14:28:22.59Z</time></trkpt><trkpt lat="44.750375" lon="10.13507"><ele>131.16666666666666</ele><time>2026-04-30T14:28:27.589Z</time></trkpt><trkpt lat="44.750285" lon="10.135"><ele>131.0</ele><time>2026-04-30T14:28:36.589Z</time></trkpt><trkpt lat="44.750195" lon="10.13488"><ele>131.0</ele><time>2026-04-30T14:28:51.597Z</time></trkpt><trkpt lat="44.7501367" lon="10.1348267"><ele>131.0</ele><time>2026-04-30T14:29:16.585Z</time></trkpt><trkpt lat="44.7501067" lon="10.1347467"><ele>131.0</ele><time>2026-04-30T14:29:21.593Z</time></trkpt><trkpt lat="44.7500717" lon="10.1346333"><ele>131.0</ele><time>2026-04-30T14:29:25.587Z</time></trkpt><trkpt lat="44.7500283" lon="10.1345583"><ele>131.0</ele><time>2026-04-30T14:29:27.595Z</time></trkpt><trkpt lat="44.7499767" lon="10.1344783"><ele>131.0</ele><time>2026-04-30T14:29:29.59Z</time></trkpt><trkpt lat="44.7499233" lon="10.1343933"><ele>131.0</ele><time>2026-04-30T14:29:31.584Z</time></trkpt><trkpt lat="44.7498533" lon="10.134295"><ele>131.0</ele><time>2026-04-30T14:29:34.594Z</time></trkpt><trkpt lat="44.7498067" lon="10.1342333"><ele>131.0</ele><time>2026-04-30T14:29:37.586Z</time></trkpt><trkpt lat="44.74974" lon="10.13418"><ele>131.0</ele><time>2026-04-30T14:29:42.583Z</time></trkpt><trkpt lat="44.7496733" lon="10.1341467"><ele>131.0</ele><time>2026-04-30T14:29:46.586Z</time></trkpt><trkpt lat="44.749605" lon="10.1341217"><ele>131.0</ele><time>2026-04-30T14:29:49.592Z</time></trkpt><trkpt lat="44.7495283" lon="10.1341267"><ele>131.0</ele><time>2026-04-30T14:29:53.591Z</time></trkpt><trkpt lat="44.7494417" lon="10.1341283"><ele>131.0</ele><time>2026-04-30T14:29:59.589Z</time></trkpt><trkpt lat="44.74937" lon="10.1340733"><ele>131.83333333333331</ele><time>2026-04-30T14:30:04.59Z</time></trkpt><trkpt lat="44.7493117" lon="10.1340217"><ele>132.66666666666666</ele><time>2026-04-30T14:30:09.591Z</time></trkpt><trkpt lat="44.7492533" lon="10.133935"><ele>133.5</ele><time>2026-04-30T14:30:15.592Z</time></trkpt><trkpt lat="44.7492067" lon="10.1338667"><ele>134.33333333333334</ele><time>2026-04-30T14:30:17.587Z</time></trkpt><trkpt lat="44.7491533" lon="10.1337683"><ele>135.16666666666669</ele><time>2026-04-30T14:30:20.588Z</time></trkpt><trkpt lat="44.7491217" lon="10.1336817"><ele>136.0</ele><time>2026-04-30T14:30:23.598Z</time></trkpt><trkpt lat="44.7490833" lon="10.133595"><ele>136.0</ele><time>2026-04-30T14:30:27.586Z</time></trkpt><trkpt lat="44.74899" lon="10.1334617"><ele>136.0</ele><time>2026-04-30T14:30:40.587Z</time></trkpt><trkpt lat="44.7488617" lon="10.1333467"><ele>136.0</ele><time>2026-04-30T14:31:06.586Z</time></trkpt><trkpt lat="44.74876" lon="10.1334"><ele>136.0</ele><time>2026-04-30T14:32:29.586Z</time></trkpt><trkpt lat="44.748765" lon="10.1335267"><ele>136.0</ele><time>2026-04-30T14:34:01.588Z</time></trkpt><trkpt lat="44.7486533" lon="10.133475"><ele>136.0</ele><time>2026-04-30T14:35:15.589Z</time></trkpt><trkpt lat="44.7485633" lon="10.1334183"><ele>136.0</ele><time>2026-04-30T14:36:05.596Z</time></trkpt><trkpt lat="44.7485383" lon="10.1333317"><ele>136.0</ele><time>2026-04-30T14:36:09.589Z</time></trkpt><trkpt lat="44.7485283" lon="10.1332283"><ele>136.0</ele><time>2026-04-30T14:36:14.596Z</time></trkpt><trkpt lat="44.7485" lon="10.133135"><ele>136.0</ele><time>2026-04-30T14:36:18.592Z</time></trkpt><trkpt lat="44.7484717" lon="10.133035"><ele>137.42857142857142</ele><time>2026-04-30T14:36:22.588Z</time></trkpt><trkpt lat="44.748435" lon="10.13294"><ele>138.85714285714286</ele><time>2026-04-30T14:36:26.599Z</time></trkpt><trkpt lat="44.7483917" lon="10.1328567"><ele>140.28571428571428</ele><time>2026-04-30T14:36:30.589Z</time></trkpt><trkpt lat="44.7483467" lon="10.1327717"><ele>141.71428571428572</ele><time>2026-04-30T14:36:34.588Z</time></trkpt><trkpt lat="44.7483067" lon="10.1326867"><ele>143.14285714285714</ele><time>2026-04-30T14:36:38.593Z</time></trkpt><trkpt lat="44.7482483" lon="10.1326233"><ele>144.57142857142856</ele><time>2026-04-30T14:36:41.584Z</time></trkpt><trkpt lat="44.7481967" lon="10.1325633"><ele>146.0</ele><time>2026-04-30T14:36:44.593Z</time></trkpt><trkpt lat="44.7481383" lon="10.1325067"><ele>146.0</ele><time>2026-04-30T14:36:47.589Z</time></trkpt><trkpt lat="44.74807" lon="10.1324883"><ele>146.0</ele><time>2026-04-30T14:36:50.592Z</time></trkpt><trkpt lat="44.748" lon="10.13248"><ele>146.0</ele><time>2026-04-30T14:36:53.585Z</time></trkpt><trkpt lat="44.74792" lon="10.132455"><ele>146.0</ele><time>2026-04-30T14:36:56.591Z</time></trkpt><trkpt lat="44.7478467" lon="10.1324017"><ele>146.0</ele><time>2026-04-30T14:36:59.596Z</time></trkpt><trkpt lat="44.74778" lon="10.13235"><ele>146.0</ele><time>2026-04-30T14:37:02.59Z</time></trkpt><trkpt lat="44.747715" lon="10.1322983"><ele>146.33333333333331</ele><time>2026-04-30T14:37:05.587Z</time></trkpt><trkpt lat="44.7476517" lon="10.13226"><ele>146.66666666666666</ele><time>2026-04-30T14:37:08.591Z</time></trkpt><trkpt lat="44.747585" lon="10.13221"><ele>147.0</ele><time>2026-04-30T14:37:11.59Z</time></trkpt><trkpt lat="44.7475117" lon="10.1321583"><ele>147.33333333333334</ele><time>2026-04-30T14:37:14.592Z</time></trkpt><trkpt lat="44.7474467" lon="10.1321"><ele>147.66666666666669</ele><time>2026-04-30T14:37:17.591Z</time></trkpt><trkpt lat="44.747385" lon="10.1320267"><ele>148.0</ele><time>2026-04-30T14:37:21.595Z</time></trkpt><trkpt lat="44.7473267" lon="10.131945"><ele>148.0</ele><time>2026-04-30T14:37:25.592Z</time></trkpt><trkpt lat="44.7472683" lon="10.1318567"><ele>148.0</ele><time>2026-04-30T14:37:28.588Z</time></trkpt><trkpt lat="44.7472183" lon="10.131775"><ele>148.0</ele><time>2026-04-30T14:37:31.583Z</time></trkpt><trkpt lat="44.7471683" lon="10.1316833"><ele>148.0</ele><time>2026-04-30T14:37:35.593Z</time></trkpt><trkpt lat="44.7471267" lon="10.1316117"><ele>148.0</ele><time>2026-04-30T14:37:38.596Z</time></trkpt><trkpt lat="44.747085" lon="10.1315167"><ele>148.0</ele><time>2026-04-30T14:37:41.591Z</time></trkpt><trkpt lat="44.7470483" lon="10.131425"><ele>148.66666666666669</ele><time>2026-04-30T14:37:44.596Z</time></trkpt><trkpt lat="44.7470083" lon="10.1313233"><ele>149.33333333333334</ele><time>2026-04-30T14:37:48.591Z</time></trkpt><trkpt lat="44.7469667" lon="10.1312517"><ele>150.0</ele><time>2026-04-30T14:37:51.592Z</time></trkpt><trkpt lat="44.7469" lon="10.1311783"><ele>150.66666666666666</ele><time>2026-04-30T14:37:54.596Z</time></trkpt><trkpt lat="44.74684" lon="10.1311167"><ele>151.33333333333331</ele><time>2026-04-30T14:37:57.592Z</time></trkpt><trkpt lat="44.7467767" lon="10.1310583"><ele>152.0</ele><time>2026-04-30T14:38:00.592Z</time></trkpt><trkpt lat="44.7467067" lon="10.1309917"><ele>152.0</ele><time>2026-04-30T14:38:03.591Z</time></trkpt><trkpt lat="44.746635" lon="10.1309417"><ele>152.0</ele><time>2026-04-30T14:38:06.588Z</time></trkpt><trkpt lat="44.7465717" lon="10.1308617"><ele>152.0</ele><time>2026-04-30T14:38:09.59Z</time></trkpt><trkpt lat="44.74652" lon="10.1307733"><ele>152.0</ele><time>2026-04-30T14:38:12.589Z</time></trkpt><trkpt lat="44.746475" lon="10.1306667"><ele>152.0</ele><time>2026-04-30T14:38:16.595Z</time></trkpt><trkpt lat="44.74645" lon="10.130585"><ele>152.0</ele><time>2026-04-30T14:38:19.586Z</time></trkpt><trkpt lat="44.7464233" lon="10.1305017"><ele>151.28571428571428</ele><time>2026-04-30T14:38:22.591Z</time></trkpt><trkpt lat="44.7463867" lon="10.1304217"><ele>150.57142857142858</ele><time>2026-04-30T14:38:25.591Z</time></trkpt><trkpt lat="44.7463483" lon="10.1303467"><ele>149.85714285714286</ele><time>2026-04-30T14:38:28.592Z</time></trkpt><trkpt lat="44.7463033" lon="10.130265"><ele>149.14285714285714</ele><time>2026-04-30T14:38:32.593Z</time></trkpt><trkpt lat="44.7462483" lon="10.1301867"><ele>148.42857142857144</ele><time>2026-04-30T14:38:36.593Z</time></trkpt><trkpt lat="44.746195" lon="10.1301"><ele>147.71428571428572</ele><time>2026-04-30T14:38:40.59Z</time></trkpt><trkpt lat="44.7461517" lon="10.130035"><ele>147.0</ele><time>2026-04-30T14:38:43.595Z</time></trkpt><trkpt lat="44.746105" lon="10.1299617"><ele>147.57142857142858</ele><time>2026-04-30T14:38:46.593Z</time></trkpt><trkpt lat="44.7460533" lon="10.1298917"><ele>148.14285714285714</ele><time>2026-04-30T14:38:49.589Z</time></trkpt><trkpt lat="44.7460017" lon="10.129815"><ele>148.71428571428572</ele><time>2026-04-30T14:38:52.595Z</time></trkpt><trkpt lat="44.745955" lon="10.129745"><ele>149.28571428571428</ele><time>2026-04-30T14:38:55.592Z</time></trkpt><trkpt lat="44.7459133" lon="10.1296683"><ele>149.85714285714286</ele><time>2026-04-30T14:38:58.587Z</time></trkpt><trkpt lat="44.7458633" lon="10.1295767"><ele>150.42857142857144</ele><time>2026-04-30T14:39:02.591Z</time></trkpt><trkpt lat="44.7458283" lon="10.1294983"><ele>151.0</ele><time>2026-04-30T14:39:05.584Z</time></trkpt><trkpt lat="44.7457933" lon="10.129405"><ele>151.00000000000003</ele><time>2026-04-30T14:39:08.591Z</time></trkpt><trkpt lat="44.7457633" lon="10.1293167"><ele>151.0</ele><time>2026-04-30T14:39:11.594Z</time></trkpt><trkpt lat="44.7457367" lon="10.129235"><ele>151.0</ele><time>2026-04-30T14:39:14.591Z</time></trkpt><trkpt lat="44.74571" lon="10.1291383"><ele>151.0</ele><time>2026-04-30T14:39:17.585Z</time></trkpt><trkpt lat="44.74568" lon="10.1290333"><ele>151.0</ele><time>2026-04-30T14:39:20.593Z</time></trkpt><trkpt lat="44.7456483" lon="10.1289433"><ele>151.00000000000003</ele><time>2026-04-30T14:39:23.592Z</time></trkpt><trkpt lat="44.745625" lon="10.1288517"><ele>151.0</ele><time>2026-04-30T14:39:26.589Z</time></trkpt><trkpt lat="44.74559" lon="10.1287683"><ele>150.2857142857143</ele><time>2026-04-30T14:39:29.599Z</time></trkpt><trkpt lat="44.7455483" lon="10.1286833"><ele>149.57142857142858</ele><time>2026-04-30T14:39:32.587Z</time></trkpt><trkpt lat="44.7455083" lon="10.128585"><ele>148.85714285714286</ele><time>2026-04-30T14:39:35.59Z</time></trkpt><trkpt lat="44.74547" lon="10.1285"><ele>148.14285714285717</ele><time>2026-04-30T14:39:38.589Z</time></trkpt><trkpt lat="44.7454233" lon="10.128425"><ele>147.42857142857144</ele><time>2026-04-30T14:39:41.596Z</time></trkpt><trkpt lat="44.7453817" lon="10.128345"><ele>146.71428571428572</ele><time>2026-04-30T14:39:44.597Z</time></trkpt><trkpt lat="44.7453667" lon="10.1282417"><ele>146.0</ele><time>2026-04-30T14:39:48.589Z</time></trkpt><trkpt lat="44.7453217" lon="10.1281617"><ele>145.14285714285714</ele><time>2026-04-30T14:39:51.591Z</time></trkpt><trkpt lat="44.74528" lon="10.1280933"><ele>144.28571428571428</ele><time>2026-04-30T14:39:54.592Z</time></trkpt><trkpt lat="44.7452367" lon="10.1279967"><ele>143.42857142857144</ele><time>2026-04-30T14:39:58.589Z</time></trkpt><trkpt lat="44.7452117" lon="10.1278833"><ele>142.57142857142856</ele><time>2026-04-30T14:40:02.589Z</time></trkpt><trkpt lat="44.7451783" lon="10.1277833"><ele>141.71428571428572</ele><time>2026-04-30T14:40:05.599Z</time></trkpt><trkpt lat="44.7451417" lon="10.1277083"><ele>140.85714285714286</ele><time>2026-04-30T14:40:08.591Z</time></trkpt><trkpt lat="44.745105" lon="10.127625"><ele>140.0</ele><time>2026-04-30T14:40:13.594Z</time></trkpt><trkpt lat="44.74508" lon="10.1275233"><ele>142.33333333333331</ele><time>2026-04-30T14:40:19.596Z</time></trkpt><trkpt lat="44.7450367" lon="10.1274217"><ele>144.66666666666666</ele><time>2026-04-30T14:40:23.591Z</time></trkpt><trkpt lat="44.744995" lon="10.127285"><ele>147.0</ele><time>2026-04-30T14:40:28.59Z</time></trkpt><trkpt lat="44.7449567" lon="10.127185"><ele>149.33333333333334</ele><time>2026-04-30T14:40:32.594Z</time></trkpt><trkpt lat="44.744915" lon="10.1271017"><ele>151.66666666666669</ele><time>2026-04-30T14:40:35.6Z</time></trkpt><trkpt lat="44.74487" lon="10.1270383"><ele>154.0</ele><time>2026-04-30T14:40:38.596Z</time></trkpt><trkpt lat="44.7448217" lon="10.1269083"><ele>154.28571428571428</ele><time>2026-04-30T14:41:02.592Z</time></trkpt><trkpt lat="44.74479" lon="10.1268283"><ele>154.57142857142856</ele><time>2026-04-30T14:41:05.587Z</time></trkpt><trkpt lat="44.744765" lon="10.1267433"><ele>154.85714285714286</ele><time>2026-04-30T14:41:09.591Z</time></trkpt><trkpt lat="44.744735" lon="10.1266433"><ele>155.14285714285714</ele><time>2026-04-30T14:41:14.59Z</time></trkpt><trkpt lat="44.7447" lon="10.1265683"><ele>155.42857142857142</ele><time>2026-04-30T14:41:18.592Z</time></trkpt><trkpt lat="44.744655" lon="10.1264933"><ele>155.71428571428572</ele><time>2026-04-30T14:41:22.593Z</time></trkpt><trkpt lat="44.744605" lon="10.1264167"><ele>156.0</ele><time>2026-04-30T14:41:26.588Z</time></trkpt><trkpt lat="44.7445567" lon="10.126355"><ele>155.42857142857144</ele><time>2026-04-30T14:41:29.592Z</time></trkpt><trkpt lat="44.7444967" lon="10.1262717"><ele>154.85714285714283</ele><time>2026-04-30T14:41:33.585Z</time></trkpt><trkpt lat="44.74445" lon="10.126195"><ele>154.28571428571428</ele><time>2026-04-30T14:41:37.588Z</time></trkpt><trkpt lat="44.7444" lon="10.1261217"><ele>153.71428571428572</ele><time>2026-04-30T14:41:41.588Z</time></trkpt><trkpt lat="44.7443433" lon="10.126045"><ele>153.14285714285717</ele><time>2026-04-30T14:41:45.586Z</time></trkpt><trkpt lat="44.7443" lon="10.12598"><ele>152.57142857142856</ele><time>2026-04-30T14:41:48.59Z</time></trkpt><trkpt lat="44.744275" lon="10.12589"><ele>152.0</ele><time>2026-04-30T14:41:52.591Z</time></trkpt><trkpt lat="44.7442483" lon="10.1258"><ele>154.0</ele><time>2026-04-30T14:41:56.592Z</time></trkpt><trkpt lat="44.7442083" lon="10.125725"><ele>156.0</ele><time>2026-04-30T14:42:00.589Z</time></trkpt><trkpt lat="44.7441733" lon="10.1256483"><ele>158.0</ele><time>2026-04-30T14:42:05.584Z</time></trkpt><trkpt lat="44.7441433" lon="10.1255667"><ele>160.0</ele><time>2026-04-30T14:42:10.588Z</time></trkpt><trkpt lat="44.7440967" lon="10.1254817"><ele>162.0</ele><time>2026-04-30T14:42:16.588Z</time></trkpt><trkpt lat="44.7440567" lon="10.1254033"><ele>164.0</ele><time>2026-04-30T14:42:21.586Z</time></trkpt><trkpt lat="44.7440133" lon="10.1253367"><ele>166.0</ele><time>2026-04-30T14:42:26.587Z</time></trkpt><trkpt lat="44.74398" lon="10.1252467"><ele>166.0</ele><time>2026-04-30T14:42:32.592Z</time></trkpt><trkpt lat="44.7438767" lon="10.1250533"><ele>166.0</ele><time>2026-04-30T14:43:42.592Z</time></trkpt><trkpt lat="44.74384" lon="10.12498"><ele>166.0</ele><time>2026-04-30T14:43:48.59Z</time></trkpt><trkpt lat="44.7437783" lon="10.1248233"><ele>166.0</ele><time>2026-04-30T14:44:22.59Z</time></trkpt><trkpt lat="44.74374" lon="10.1247167"><ele>166.0</ele><time>2026-04-30T14:45:00.594Z</time></trkpt><trkpt lat="44.7437933" lon="10.1246017"><ele>166.14285714285714</ele><time>2026-04-30T14:45:13.593Z</time></trkpt><trkpt lat="44.7437633" lon="10.1244933"><ele>166.2857142857143</ele><time>2026-04-30T14:45:32.591Z</time></trkpt><trkpt lat="44.74372" lon="10.1244017"><ele>166.42857142857144</ele><time>2026-04-30T14:45:37.591Z</time></trkpt><trkpt lat="44.7436717" lon="10.124325"><ele>166.57142857142856</ele><time>2026-04-30T14:45:42.59Z</time></trkpt><trkpt lat="44.743635" lon="10.1242367"><ele>166.71428571428572</ele><time>2026-04-30T14:45:48.592Z</time></trkpt><trkpt lat="44.7435717" lon="10.124215"><ele>166.85714285714286</ele><time>2026-04-30T14:45:53.593Z</time></trkpt><trkpt lat="44.7435017" lon="10.124185"><ele>167.0</ele><time>2026-04-30T14:45:58.592Z</time></trkpt><trkpt lat="44.7435217" lon="10.124095"><ele>172.0</ele><time>2026-04-30T14:46:03.593Z</time></trkpt><trkpt lat="44.7435467" lon="10.124005"><ele>177.0</ele><time>2026-04-30T14:46:09.595Z</time></trkpt><trkpt lat="44.743475" lon="10.1239117"><ele>182.0</ele><time>2026-04-30T14:47:54.595Z</time></trkpt><trkpt lat="44.7433283" lon="10.123745"><ele>187.0</ele><time>2026-04-30T14:48:24.596Z</time></trkpt><trkpt lat="44.7432467" lon="10.1236417"><ele>187.0</ele><time>2026-04-30T14:48:54.59Z</time></trkpt><trkpt lat="44.7432283" lon="10.12355"><ele>187.0</ele><time>2026-04-30T14:49:01.59Z</time></trkpt><trkpt lat="44.7432783" lon="10.1234733"><ele>187.0</ele><time>2026-04-30T14:49:06.59Z</time></trkpt><trkpt lat="44.7433217" lon="10.1233017"><ele>187.0</ele><time>2026-04-30T14:49:39.597Z</time></trkpt><trkpt lat="44.7433433" lon="10.1232017"><ele>187.0</ele><time>2026-04-30T14:49:51.589Z</time></trkpt><trkpt lat="44.7433583" lon="10.1230867"><ele>187.0</ele><time>2026-04-30T14:49:57.592Z</time></trkpt><trkpt lat="44.7434033" lon="10.123"><ele>187.28571428571428</ele><time>2026-04-30T14:50:02.59Z</time></trkpt><trkpt lat="44.7434467" lon="10.122935"><ele>187.57142857142858</ele><time>2026-04-30T14:50:07.586Z</time></trkpt><trkpt lat="44.743485" lon="10.12286"><ele>187.85714285714286</ele><time>2026-04-30T14:50:12.591Z</time></trkpt><trkpt lat="44.7435333" lon="10.122795"><ele>188.14285714285714</ele><time>2026-04-30T14:50:17.589Z</time></trkpt><trkpt lat="44.743525" lon="10.1226883"><ele>188.42857142857144</ele><time>2026-04-30T14:53:24.592Z</time></trkpt><trkpt lat="44.7434683" lon="10.1226433"><ele>188.71428571428572</ele><time>2026-04-30T14:53:28.586Z</time></trkpt><trkpt lat="44.7434183" lon="10.1225783"><ele>189.0</ele><time>2026-04-30T14:53:33.592Z</time></trkpt><trkpt lat="44.74336" lon="10.1225083"><ele>189.0</ele><time>2026-04-30T14:53:38.594Z</time></trkpt><trkpt lat="44.74331" lon="10.12244"><ele>189.0</ele><time>2026-04-30T14:53:43.597Z</time></trkpt><trkpt lat="44.74325" lon="10.1223767"><ele>189.0</ele><time>2026-04-30T14:53:49.587Z</time></trkpt><trkpt lat="44.7432083" lon="10.1223033"><ele>189.0</ele><time>2026-04-30T14:53:54.591Z</time></trkpt><trkpt lat="44.7431517" lon="10.122245"><ele>189.0</ele><time>2026-04-30T14:53:59.592Z</time></trkpt><trkpt lat="44.7431083" lon="10.1221767"><ele>189.0</ele><time>2026-04-30T14:54:04.586Z</time></trkpt><trkpt lat="44.7430517" lon="10.1221083"><ele>189.0</ele><time>2026-04-30T14:54:09.586Z</time></trkpt><trkpt lat="44.7429917" lon="10.122045"><ele>188.42857142857142</ele><time>2026-04-30T14:54:14.594Z</time></trkpt><trkpt lat="44.7429333" lon="10.12198"><ele>187.85714285714286</ele><time>2026-04-30T14:54:19.591Z</time></trkpt><trkpt lat="44.7428717" lon="10.1219267"><ele>187.28571428571428</ele><time>2026-04-30T14:54:23.583Z</time></trkpt><trkpt lat="44.742795" lon="10.121905"><ele>186.71428571428572</ele><time>2026-04-30T14:54:28.585Z</time></trkpt><trkpt lat="44.7427317" lon="10.1219467"><ele>186.14285714285714</ele><time>2026-04-30T14:54:35.584Z</time></trkpt><trkpt lat="44.7426933" lon="10.1220333"><ele>185.57142857142856</ele><time>2026-04-30T14:54:41.584Z</time></trkpt><trkpt lat="44.7426367" lon="10.1221017"><ele>185.0</ele><time>2026-04-30T14:54:47.585Z</time></trkpt><trkpt lat="44.742595" lon="10.122215"><ele>186.0</ele><time>2026-04-30T14:54:51.583Z</time></trkpt><trkpt lat="44.7425617" lon="10.1223083"><ele>187.0</ele><time>2026-04-30T14:54:53.584Z</time></trkpt><trkpt lat="44.7425238" lon="10.1224164"><ele>188.0</ele><time>2026-04-30T14:54:55.585Z</time></trkpt><trkpt lat="44.7424672" lon="10.1224863"><ele>189.0</ele><time>2026-04-30T14:54:57.064Z</time></trkpt><trkpt lat="44.7423703" lon="10.122502"><ele>190.0</ele><time>2026-04-30T14:54:59.589Z</time></trkpt><trkpt lat="44.7423145" lon="10.1224366"><ele>191.0</ele><time>2026-04-30T14:55:01.588Z</time></trkpt><trkpt lat="44.7422666" lon="10.1223685"><ele>191.57142857142858</ele><time>2026-04-30T14:55:06.593Z</time></trkpt><trkpt lat="44.7422218" lon="10.1222957"><ele>192.14285714285714</ele><time>2026-04-30T14:55:13.607Z</time></trkpt><trkpt lat="44.7421745" lon="10.1222366"><ele>192.71428571428572</ele><time>2026-04-30T14:55:23.594Z</time></trkpt><trkpt lat="44.7421284" lon="10.1221613"><ele>193.28571428571428</ele><time>2026-04-30T14:55:27.587Z</time></trkpt><trkpt lat="44.7420627" lon="10.1220855"><ele>193.85714285714283</ele><time>2026-04-30T14:55:30.6Z</time></trkpt><trkpt lat="44.7420096" lon="10.1220086"><ele>194.42857142857142</ele><time>2026-04-30T14:55:32.589Z</time></trkpt><trkpt lat="44.7419536" lon="10.1219646"><ele>195.0</ele><time>2026-04-30T14:55:35.595Z</time></trkpt><trkpt lat="44.7419037" lon="10.1218894"><ele>195.14285714285714</ele><time>2026-04-30T14:55:40.587Z</time></trkpt><trkpt lat="44.741865" lon="10.1218117"><ele>195.28571428571428</ele><time>2026-04-30T14:55:44.595Z</time></trkpt><trkpt lat="44.7418" lon="10.12174"><ele>195.42857142857144</ele><time>2026-04-30T14:55:49.591Z</time></trkpt><trkpt lat="44.7417383" lon="10.121675"><ele>195.57142857142856</ele><time>2026-04-30T14:55:53.589Z</time></trkpt><trkpt lat="44.7416883" lon="10.121605"><ele>195.71428571428572</ele><time>2026-04-30T14:55:57.588Z</time></trkpt><trkpt lat="44.74163" lon="10.121525"><ele>195.85714285714286</ele><time>2026-04-30T14:56:02.59Z</time></trkpt><trkpt lat="44.7415883" lon="10.121445"><ele>196.0</ele><time>2026-04-30T14:56:06.594Z</time></trkpt><trkpt lat="44.741535" lon="10.12138"><ele>196.42857142857142</ele><time>2026-04-30T14:56:10.587Z</time></trkpt><trkpt lat="44.7414833" lon="10.1213117"><ele>196.85714285714286</ele><time>2026-04-30T14:56:14.59Z</time></trkpt><trkpt lat="44.7414417" lon="10.121245"><ele>197.28571428571428</ele><time>2026-04-30T14:56:18.596Z</time></trkpt><trkpt lat="44.7414017" lon="10.12117"><ele>197.71428571428572</ele><time>2026-04-30T14:56:22.589Z</time></trkpt><trkpt lat="44.741415" lon="10.121065"><ele>198.14285714285714</ele><time>2026-04-30T14:56:27.591Z</time></trkpt><trkpt lat="44.7414017" lon="10.12097"><ele>198.57142857142856</ele><time>2026-04-30T14:56:31.595Z</time></trkpt><trkpt lat="44.7414133" lon="10.120875"><ele>199.0</ele><time>2026-04-30T14:56:36.589Z</time></trkpt><trkpt lat="44.7414167" lon="10.12076"><ele>198.42857142857142</ele><time>2026-04-30T14:56:41.591Z</time></trkpt><trkpt lat="44.7414283" lon="10.1206583"><ele>197.85714285714286</ele><time>2026-04-30T14:56:45.594Z</time></trkpt><trkpt lat="44.7414367" lon="10.1205667"><ele>197.28571428571428</ele><time>2026-04-30T14:56:49.594Z</time></trkpt><trkpt lat="44.7414417" lon="10.1204667"><ele>196.71428571428572</ele><time>2026-04-30T14:56:53.59Z</time></trkpt><trkpt lat="44.7414467" lon="10.120375"><ele>196.14285714285714</ele><time>2026-04-30T14:56:57.591Z</time></trkpt><trkpt lat="44.7414533" lon="10.1202767"><ele>195.57142857142856</ele><time>2026-04-30T14:57:01.587Z</time></trkpt><trkpt lat="44.7414583" lon="10.1201817"><ele>195.0</ele><time>2026-04-30T14:57:04.589Z</time></trkpt><trkpt lat="44.7414517" lon="10.1200767"><ele>195.0</ele><time>2026-04-30T14:57:07.589Z</time></trkpt><trkpt lat="44.74143" lon="10.1199683"><ele>195.0</ele><time>2026-04-30T14:57:10.594Z</time></trkpt><trkpt lat="44.7413833" lon="10.1198733"><ele>195.0</ele><time>2026-04-30T14:57:13.587Z</time></trkpt><trkpt lat="44.74134" lon="10.1198017"><ele>195.0</ele><time>2026-04-30T14:57:16.596Z</time></trkpt><trkpt lat="44.7412967" lon="10.1197367"><ele>195.0</ele><time>2026-04-30T14:57:20.59Z</time></trkpt><trkpt lat="44.7412433" lon="10.1196733"><ele>195.0</ele><time>2026-04-30T14:57:24.586Z</time></trkpt><trkpt lat="44.741175" lon="10.1195817"><ele>195.71428571428572</ele><time>2026-04-30T14:58:14.595Z</time></trkpt><trkpt lat="44.7411267" lon="10.1195083"><ele>196.42857142857142</ele><time>2026-04-30T14:58:17.589Z</time></trkpt><trkpt lat="44.741075" lon="10.1194367"><ele>197.14285714285717</ele><time>2026-04-30T14:58:20.596Z</time></trkpt><trkpt lat="44.7410267" lon="10.1193667"><ele>197.85714285714286</ele><time>2026-04-30T14:58:23.591Z</time></trkpt><trkpt lat="44.7409767" lon="10.1193017"><ele>198.57142857142858</ele><time>2026-04-30T14:58:27.592Z</time></trkpt><trkpt lat="44.7409117" lon="10.119245"><ele>199.2857142857143</ele><time>2026-04-30T14:58:32.589Z</time></trkpt><trkpt lat="44.7408633" lon="10.1191717"><ele>200.0</ele><time>2026-04-30T14:58:37.594Z</time></trkpt><trkpt lat="44.7408167" lon="10.1191067"><ele>199.2857142857143</ele><time>2026-04-30T14:58:41.6Z</time></trkpt><trkpt lat="44.74077" lon="10.11904"><ele>198.57142857142858</ele><time>2026-04-30T14:58:45.588Z</time></trkpt><trkpt lat="44.7407183" lon="10.1189733"><ele>197.85714285714286</ele><time>2026-04-30T14:58:49.596Z</time></trkpt><trkpt lat="44.7406683" lon="10.1189117"><ele>197.14285714285717</ele><time>2026-04-30T14:58:54.595Z</time></trkpt><trkpt lat="44.7406133" lon="10.1188517"><ele>196.42857142857142</ele><time>2026-04-30T14:59:00.591Z</time></trkpt><trkpt lat="44.74056" lon="10.118785"><ele>195.71428571428572</ele><time>2026-04-30T14:59:05.585Z</time></trkpt><trkpt lat="44.7405083" lon="10.1187133"><ele>195.0</ele><time>2026-04-30T14:59:10.587Z</time></trkpt><trkpt lat="44.74046" lon="10.1186483"><ele>195.0</ele><time>2026-04-30T14:59:14.588Z</time></trkpt><trkpt lat="44.74041" lon="10.11859"><ele>195.0</ele><time>2026-04-30T14:59:17.591Z</time></trkpt><trkpt lat="44.74036" lon="10.118535"><ele>195.0</ele><time>2026-04-30T14:59:20.592Z</time></trkpt><trkpt lat="44.7403017" lon="10.1184683"><ele>195.0</ele><time>2026-04-30T14:59:24.593Z</time></trkpt><trkpt lat="44.7402483" lon="10.1184"><ele>195.0</ele><time>2026-04-30T14:59:50.6Z</time></trkpt><trkpt lat="44.740195" lon="10.1183333"><ele>195.0</ele><time>2026-04-30T14:59:54.594Z</time></trkpt><trkpt lat="44.740135" lon="10.11826"><ele>195.0</ele><time>2026-04-30T14:59:58.587Z</time></trkpt><trkpt lat="44.7400833" lon="10.1182017"><ele>196.0</ele><time>2026-04-30T15:00:01.586Z</time></trkpt><trkpt lat="44.74003" lon="10.1181483"><ele>197.0</ele><time>2026-04-30T15:00:04.593Z</time></trkpt><trkpt lat="44.7399633" lon="10.1180933"><ele>198.0</ele><time>2026-04-30T15:00:08.595Z</time></trkpt><trkpt lat="44.7399" lon="10.1180467"><ele>199.0</ele><time>2026-04-30T15:00:12.593Z</time></trkpt><trkpt lat="44.7398367" lon="10.117995"><ele>200.0</ele><time>2026-04-30T15:00:18.587Z</time></trkpt><trkpt lat="44.739775" lon="10.1179233"><ele>201.0</ele><time>2026-04-30T15:00:24.595Z</time></trkpt><trkpt lat="44.7397117" lon="10.1178367"><ele>201.0</ele><time>2026-04-30T15:00:32.589Z</time></trkpt><trkpt lat="44.7396567" lon="10.1177683"><ele>201.0</ele><time>2026-04-30T15:00:36.59Z</time></trkpt><trkpt lat="44.73961" lon="10.1177083"><ele>201.0</ele><time>2026-04-30T15:00:39.594Z</time></trkpt><trkpt lat="44.7395567" lon="10.1176483"><ele>201.0</ele><time>2026-04-30T15:00:42.585Z</time></trkpt><trkpt lat="44.7395017" lon="10.11758"><ele>201.0</ele><time>2026-04-30T15:00:45.586Z</time></trkpt><trkpt lat="44.7394417" lon="10.1175117"><ele>201.0</ele><time>2026-04-30T15:00:48.591Z</time></trkpt><trkpt lat="44.73937" lon="10.117425"><ele>202.0</ele><time>2026-04-30T15:00:51.595Z</time></trkpt><trkpt lat="44.739315" lon="10.1173633"><ele>203.0</ele><time>2026-04-30T15:00:53.595Z</time></trkpt><trkpt lat="44.739245" lon="10.1172917"><ele>204.0</ele><time>2026-04-30T15:00:56.597Z</time></trkpt><trkpt lat="44.7391883" lon="10.1172267"><ele>205.0</ele><time>2026-04-30T15:00:59.587Z</time></trkpt><trkpt lat="44.7391233" lon="10.117165"><ele>206.0</ele><time>2026-04-30T15:01:02.595Z</time></trkpt><trkpt lat="44.7390583" lon="10.1170817"><ele>207.0</ele><time>2026-04-30T15:01:05.597Z</time></trkpt><trkpt lat="44.7389983" lon="10.1170033"><ele>207.0</ele><time>2026-04-30T15:01:08.596Z</time></trkpt><trkpt lat="44.7389333" lon="10.1169233"><ele>207.0</ele><time>2026-04-30T15:01:12.586Z</time></trkpt><trkpt lat="44.7388683" lon="10.1168533"><ele>207.0</ele><time>2026-04-30T15:01:16.592Z</time></trkpt><trkpt lat="44.7388083" lon="10.116785"><ele>207.0</ele><time>2026-04-30T15:01:20.592Z</time></trkpt><trkpt lat="44.73876" lon="10.1167183"><ele>207.0</ele><time>2026-04-30T15:01:24.583Z</time></trkpt><trkpt lat="44.738705" lon="10.116665"><ele>207.0</ele><time>2026-04-30T15:01:28.596Z</time></trkpt><trkpt lat="44.7386567" lon="10.1165867"><ele>207.33333333333334</ele><time>2026-04-30T15:01:33.594Z</time></trkpt><trkpt lat="44.7386" lon="10.1165117"><ele>207.66666666666669</ele><time>2026-04-30T15:01:37.594Z</time></trkpt><trkpt lat="44.7385533" lon="10.1164417"><ele>208.0</ele><time>2026-04-30T15:01:41.59Z</time></trkpt><trkpt lat="44.738475" lon="10.1163917"><ele>208.33333333333334</ele><time>2026-04-30T15:02:10.594Z</time></trkpt><trkpt lat="44.7384217" lon="10.1163083"><ele>208.66666666666669</ele><time>2026-04-30T15:02:13.595Z</time></trkpt><trkpt lat="44.738375" lon="10.11623"><ele>209.0</ele><time>2026-04-30T15:02:18.628Z</time></trkpt><trkpt lat="44.7383183" lon="10.1161683"><ele>209.14285714285714</ele><time>2026-04-30T15:02:35.589Z</time></trkpt><trkpt lat="44.7382617" lon="10.11611"><ele>209.28571428571428</ele><time>2026-04-30T15:02:39.589Z</time></trkpt><trkpt lat="44.7382017" lon="10.1160433"><ele>209.42857142857144</ele><time>2026-04-30T15:02:44.597Z</time></trkpt><trkpt lat="44.7381517" lon="10.1159767"><ele>209.57142857142856</ele><time>2026-04-30T15:02:50.593Z</time></trkpt><trkpt lat="44.7380983" lon="10.1159033"><ele>209.71428571428572</ele><time>2026-04-30T15:02:55.592Z</time></trkpt><trkpt lat="44.73805" lon="10.115845"><ele>209.85714285714286</ele><time>2026-04-30T15:03:00.59Z</time></trkpt><trkpt lat="44.73798" lon="10.1157683"><ele>210.0</ele><time>2026-04-30T15:03:21.59Z</time></trkpt><trkpt lat="44.73792" lon="10.11571"><ele>210.71428571428572</ele><time>2026-04-30T15:03:25.589Z</time></trkpt><trkpt lat="44.7378733" lon="10.1156417"><ele>211.42857142857144</ele><time>2026-04-30T15:03:28.587Z</time></trkpt><trkpt lat="44.7378083" lon="10.11557"><ele>212.14285714285714</ele><time>2026-04-30T15:03:32.594Z</time></trkpt><trkpt lat="44.7377567" lon="10.1155183"><ele>212.85714285714286</ele><time>2026-04-30T15:03:35.596Z</time></trkpt><trkpt lat="44.7377033" lon="10.1154533"><ele>213.57142857142858</ele><time>2026-04-30T15:03:38.589Z</time></trkpt><trkpt lat="44.7376483" lon="10.115385"><ele>214.28571428571428</ele><time>2026-04-30T15:03:41.588Z</time></trkpt><trkpt lat="44.7376033" lon="10.1153167"><ele>215.0</ele><time>2026-04-30T15:03:44.586Z</time></trkpt><trkpt lat="44.737545" lon="10.1152483"><ele>215.00000000000003</ele><time>2026-04-30T15:03:48.587Z</time></trkpt><trkpt lat="44.737515" lon="10.11517"><ele>215.0</ele><time>2026-04-30T15:03:53.589Z</time></trkpt><trkpt lat="44.7374183" lon="10.1150467"><ele>215.0</ele><time>2026-04-30T15:04:16.587Z</time></trkpt><trkpt lat="44.7373617" lon="10.1149817"><ele>215.0</ele><time>2026-04-30T15:04:20.596Z</time></trkpt><trkpt lat="44.7373" lon="10.1149117"><ele>215.00000000000003</ele><time>2026-04-30T15:04:25.586Z</time></trkpt><trkpt lat="44.7372433" lon="10.114835"><ele>215.0</ele><time>2026-04-30T15:04:29.587Z</time></trkpt><trkpt lat="44.7371867" lon="10.1147817"><ele>215.0</ele><time>2026-04-30T15:04:33.587Z</time></trkpt><trkpt lat="44.7371417" lon="10.1147183"><ele>215.0</ele><time>2026-04-30T15:04:37.592Z</time></trkpt><trkpt lat="44.73709" lon="10.1146567"><ele>215.0</ele><time>2026-04-30T15:04:41.593Z</time></trkpt><trkpt lat="44.7370333" lon="10.1146017"><ele>215.0</ele><time>2026-04-30T15:04:45.585Z</time></trkpt><trkpt lat="44.736965" lon="10.1145433"><ele>215.0</ele><time>2026-04-30T15:04:50.6Z</time></trkpt><trkpt lat="44.736895" lon="10.114495"><ele>215.0</ele><time>2026-04-30T15:04:54.59Z</time></trkpt><trkpt lat="44.736835" lon="10.114445"><ele>215.0</ele><time>2026-04-30T15:04:58.586Z</time></trkpt><trkpt lat="44.7367767" lon="10.114395"><ele>215.28571428571428</ele><time>2026-04-30T15:05:02.596Z</time></trkpt><trkpt lat="44.7367167" lon="10.1143533"><ele>215.57142857142858</ele><time>2026-04-30T15:05:06.596Z</time></trkpt><trkpt lat="44.7366533" lon="10.114325"><ele>215.85714285714286</ele><time>2026-04-30T15:05:11.594Z</time></trkpt><trkpt lat="44.7365867" lon="10.11426"><ele>216.14285714285714</ele><time>2026-04-30T15:05:19.593Z</time></trkpt><trkpt lat="44.7365183" lon="10.114215"><ele>216.42857142857144</ele><time>2026-04-30T15:05:23.598Z</time></trkpt><trkpt lat="44.73645" lon="10.11419"><ele>216.71428571428572</ele><time>2026-04-30T15:05:27.589Z</time></trkpt><trkpt lat="44.7363867" lon="10.11415"><ele>217.0</ele><time>2026-04-30T15:05:32.593Z</time></trkpt><trkpt lat="44.7363217" lon="10.11413"><ele>217.0</ele><time>2026-04-30T15:05:36.598Z</time></trkpt><trkpt lat="44.736255" lon="10.1141033"><ele>217.0</ele><time>2026-04-30T15:05:40.587Z</time></trkpt><trkpt lat="44.7361767" lon="10.1140783"><ele>217.0</ele><time>2026-04-30T15:05:44.593Z</time></trkpt><trkpt lat="44.7361083" lon="10.1140467"><ele>217.0</ele><time>2026-04-30T15:05:48.592Z</time></trkpt><trkpt lat="44.7360383" lon="10.11402"><ele>217.0</ele><time>2026-04-30T15:05:52.586Z</time></trkpt><trkpt lat="44.7359717" lon="10.1139867"><ele>217.0</ele><time>2026-04-30T15:05:56.591Z</time></trkpt><trkpt lat="44.7359117" lon="10.1139533"><ele>217.0</ele><time>2026-04-30T15:06:00.588Z</time></trkpt><trkpt lat="44.7358517" lon="10.1139033"><ele>217.42857142857142</ele><time>2026-04-30T15:06:05.591Z</time></trkpt><trkpt lat="44.7357783" lon="10.113865"><ele>217.85714285714286</ele><time>2026-04-30T15:06:10.582Z</time></trkpt><trkpt lat="44.73572" lon="10.11381"><ele>218.28571428571428</ele><time>2026-04-30T15:06:14.59Z</time></trkpt><trkpt lat="44.7356617" lon="10.113765"><ele>218.71428571428572</ele><time>2026-04-30T15:06:18.594Z</time></trkpt><trkpt lat="44.735595" lon="10.1137233"><ele>219.14285714285714</ele><time>2026-04-30T15:06:22.588Z</time></trkpt><trkpt lat="44.7355317" lon="10.1136817"><ele>219.57142857142856</ele><time>2026-04-30T15:06:26.593Z</time></trkpt><trkpt lat="44.7354717" lon="10.1136367"><ele>220.0</ele><time>2026-04-30T15:06:30.59Z</time></trkpt><trkpt lat="44.7354083" lon="10.113595"><ele>219.99999999999997</ele><time>2026-04-30T15:06:34.593Z</time></trkpt><trkpt lat="44.7353383" lon="10.1135467"><ele>220.0</ele><time>2026-04-30T15:06:39.592Z</time></trkpt><trkpt lat="44.7352717" lon="10.1135"><ele>220.0</ele><time>2026-04-30T15:06:43.592Z</time></trkpt><trkpt lat="44.7352033" lon="10.1134467"><ele>220.0</ele><time>2026-04-30T15:06:47.588Z</time></trkpt><trkpt lat="44.7351317" lon="10.1133917"><ele>219.99999999999997</ele><time>2026-04-30T15:06:51.587Z</time></trkpt><trkpt lat="44.735075" lon="10.1133517"><ele>220.0</ele><time>2026-04-30T15:06:54.588Z</time></trkpt><trkpt lat="44.7350067" lon="10.1133"><ele>219.99999999999997</ele><time>2026-04-30T15:06:58.588Z</time></trkpt><trkpt lat="44.7349383" lon="10.1132583"><ele>220.0</ele><time>2026-04-30T15:07:02.589Z</time></trkpt><trkpt lat="44.7348683" lon="10.1131933"><ele>220.0</ele><time>2026-04-30T15:07:06.586Z</time></trkpt><trkpt lat="44.7348" lon="10.1131533"><ele>220.0</ele><time>2026-04-30T15:07:09.593Z</time></trkpt><trkpt lat="44.7347417" lon="10.1131083"><ele>220.0</ele><time>2026-04-30T15:07:12.588Z</time></trkpt><trkpt lat="44.7346833" lon="10.1130583"><ele>219.99999999999997</ele><time>2026-04-30T15:07:15.587Z</time></trkpt><trkpt lat="44.73462" lon="10.113015"><ele>220.0</ele><time>2026-04-30T15:07:18.59Z</time></trkpt><trkpt lat="44.7345633" lon="10.1129667"><ele>219.7142857142857</ele><time>2026-04-30T15:07:21.588Z</time></trkpt><trkpt lat="44.7345" lon="10.1129083"><ele>219.42857142857142</ele><time>2026-04-30T15:07:25.591Z</time></trkpt><trkpt lat="44.734435" lon="10.1128517"><ele>219.14285714285714</ele><time>2026-04-30T15:07:29.588Z</time></trkpt><trkpt lat="44.73437" lon="10.112805"><ele>218.85714285714283</ele><time>2026-04-30T15:07:33.591Z</time></trkpt><trkpt lat="44.7343033" lon="10.1127817"><ele>218.57142857142858</ele><time>2026-04-30T15:07:37.595Z</time></trkpt><trkpt lat="44.7342383" lon="10.1127817"><ele>218.28571428571428</ele><time>2026-04-30T15:07:41.589Z</time></trkpt><trkpt lat="44.7341783" lon="10.1128467"><ele>218.0</ele><time>2026-04-30T15:07:45.587Z</time></trkpt><trkpt lat="44.7341483" lon="10.1129433"><ele>218.85714285714286</ele><time>2026-04-30T15:07:49.588Z</time></trkpt><trkpt lat="44.7341117" lon="10.11303"><ele>219.71428571428572</ele><time>2026-04-30T15:07:53.59Z</time></trkpt><trkpt lat="44.7340517" lon="10.11306"><ele>220.57142857142856</ele><time>2026-04-30T15:07:57.592Z</time></trkpt><trkpt lat="44.7339817" lon="10.11303"><ele>221.42857142857144</ele><time>2026-04-30T15:08:01.587Z</time></trkpt><trkpt lat="44.7339217" lon="10.1129733"><ele>222.28571428571428</ele><time>2026-04-30T15:08:05.591Z</time></trkpt><trkpt lat="44.73386" lon="10.1129033"><ele>223.14285714285714</ele><time>2026-04-30T15:08:09.592Z</time></trkpt><trkpt lat="44.7338017" lon="10.1128333"><ele>224.0</ele><time>2026-04-30T15:08:13.591Z</time></trkpt><trkpt lat="44.7337333" lon="10.1127767"><ele>224.0</ele><time>2026-04-30T15:08:17.59Z</time></trkpt><trkpt lat="44.7336817" lon="10.112725"><ele>224.0</ele><time>2026-04-30T15:08:20.589Z</time></trkpt><trkpt lat="44.7336267" lon="10.1126783"><ele>224.0</ele><time>2026-04-30T15:08:23.603Z</time></trkpt><trkpt lat="44.7335717" lon="10.11262"><ele>224.0</ele><time>2026-04-30T15:08:27.59Z</time></trkpt><trkpt lat="44.733505" lon="10.112565"><ele>224.0</ele><time>2026-04-30T15:08:31.587Z</time></trkpt><trkpt lat="44.7334367" lon="10.1125117"><ele>224.0</ele><time>2026-04-30T15:08:35.588Z</time></trkpt><trkpt lat="44.7333683" lon="10.1124517"><ele>224.0</ele><time>2026-04-30T15:08:39.587Z</time></trkpt><trkpt lat="44.733305" lon="10.1123983"><ele>223.85714285714286</ele><time>2026-04-30T15:08:43.582Z</time></trkpt><trkpt lat="44.73323" lon="10.11236"><ele>223.71428571428572</ele><time>2026-04-30T15:08:47.593Z</time></trkpt><trkpt lat="44.7331533" lon="10.1123233"><ele>223.57142857142856</ele><time>2026-04-30T15:08:51.588Z</time></trkpt><trkpt lat="44.7330833" lon="10.112295"><ele>223.42857142857144</ele><time>2026-04-30T15:08:55.59Z</time></trkpt><trkpt lat="44.733015" lon="10.1122617"><ele>223.28571428571428</ele><time>2026-04-30T15:09:00.589Z</time></trkpt><trkpt lat="44.73295" lon="10.1122217"><ele>223.14285714285714</ele><time>2026-04-30T15:09:04.587Z</time></trkpt><trkpt lat="44.732885" lon="10.11218"><ele>223.0</ele><time>2026-04-30T15:09:08.599Z</time></trkpt><trkpt lat="44.7328233" lon="10.1121433"><ele>223.0</ele><time>2026-04-30T15:09:12.59Z</time></trkpt><trkpt lat="44.73276" lon="10.1121083"><ele>223.0</ele><time>2026-04-30T15:09:16.588Z</time></trkpt><trkpt lat="44.732695" lon="10.112075"><ele>223.0</ele><time>2026-04-30T15:09:20.596Z</time></trkpt><trkpt lat="44.7326267" lon="10.1120267"><ele>223.0</ele><time>2026-04-30T15:09:24.593Z</time></trkpt><trkpt lat="44.7325617" lon="10.111995"><ele>223.0</ele><time>2026-04-30T15:09:28.591Z</time></trkpt><trkpt lat="44.73248" lon="10.1119567"><ele>223.0</ele><time>2026-04-30T15:09:32.59Z</time></trkpt><trkpt lat="44.7324133" lon="10.1119167"><ele>223.0</ele><time>2026-04-30T15:09:35.594Z</time></trkpt><trkpt lat="44.7323433" lon="10.1118683"><ele>223.71428571428572</ele><time>2026-04-30T15:09:39.589Z</time></trkpt><trkpt lat="44.73228" lon="10.1118467"><ele>224.42857142857142</ele><time>2026-04-30T15:09:43.591Z</time></trkpt><trkpt lat="44.7321983" lon="10.1118133"><ele>225.14285714285714</ele><time>2026-04-30T15:09:47.601Z</time></trkpt><trkpt lat="44.7321383" lon="10.1117767"><ele>225.85714285714283</ele><time>2026-04-30T15:09:50.596Z</time></trkpt><trkpt lat="44.7320767" lon="10.1117383"><ele>226.57142857142856</ele><time>2026-04-30T15:09:53.591Z</time></trkpt><trkpt lat="44.7320033" lon="10.1116933"><ele>227.28571428571428</ele><time>2026-04-30T15:09:57.596Z</time></trkpt><trkpt lat="44.7319433" lon="10.1116583"><ele>228.0</ele><time>2026-04-30T15:10:00.591Z</time></trkpt><trkpt lat="44.7318767" lon="10.111605"><ele>228.14285714285714</ele><time>2026-04-30T15:10:04.592Z</time></trkpt><trkpt lat="44.7318167" lon="10.1115717"><ele>228.28571428571428</ele><time>2026-04-30T15:10:07.591Z</time></trkpt><trkpt lat="44.7317383" lon="10.1115433"><ele>228.42857142857142</ele><time>2026-04-30T15:10:10.589Z</time></trkpt><trkpt lat="44.7316767" lon="10.11152"><ele>228.57142857142856</ele><time>2026-04-30T15:10:12.591Z</time></trkpt><trkpt lat="44.7316117" lon="10.1115083"><ele>228.71428571428572</ele><time>2026-04-30T15:10:14.589Z</time></trkpt><trkpt lat="44.7315483" lon="10.1115167"><ele>228.85714285714283</ele><time>2026-04-30T15:10:16.586Z</time></trkpt><trkpt lat="44.7314617" lon="10.1115283"><ele>229.0</ele><time>2026-04-30T15:10:19.589Z</time></trkpt><trkpt lat="44.7313783" lon="10.1115533"><ele>228.99999999999997</ele><time>2026-04-30T15:10:22.594Z</time></trkpt><trkpt lat="44.7313067" lon="10.1115767"><ele>229.0</ele><time>2026-04-30T15:10:25.583Z</time></trkpt><trkpt lat="44.731235" lon="10.11155"><ele>229.0</ele><time>2026-04-30T15:10:30.592Z</time></trkpt><trkpt lat="44.7311867" lon="10.1114783"><ele>229.0</ele><time>2026-04-30T15:10:34.59Z</time></trkpt><trkpt lat="44.73114" lon="10.111405"><ele>228.99999999999997</ele><time>2026-04-30T15:10:37.588Z</time></trkpt><trkpt lat="44.73108" lon="10.111315"><ele>229.0</ele><time>2026-04-30T15:10:40.593Z</time></trkpt><trkpt lat="44.7310183" lon="10.1112317"><ele>229.66666666666666</ele><time>2026-04-30T15:10:43.587Z</time></trkpt><trkpt lat="44.730955" lon="10.111145"><ele>230.33333333333331</ele><time>2026-04-30T15:10:46.591Z</time></trkpt><trkpt lat="44.7308883" lon="10.111065"><ele>231.0</ele><time>2026-04-30T15:10:49.59Z</time></trkpt><trkpt lat="44.730825" lon="10.11099"><ele>231.66666666666669</ele><time>2026-04-30T15:10:52.592Z</time></trkpt><trkpt lat="44.7307667" lon="10.1109167"><ele>232.33333333333334</ele><time>2026-04-30T15:10:55.593Z</time></trkpt><trkpt lat="44.7307" lon="10.1108433"><ele>233.0</ele><time>2026-04-30T15:10:58.59Z</time></trkpt><trkpt lat="44.73066" lon="10.1107633"><ele>232.66666666666669</ele><time>2026-04-30T15:11:01.587Z</time></trkpt><trkpt lat="44.7306283" lon="10.11065"><ele>232.33333333333334</ele><time>2026-04-30T15:11:05.597Z</time></trkpt><trkpt lat="44.7306017" lon="10.1105467"><ele>232.0</ele><time>2026-04-30T15:11:08.589Z</time></trkpt><trkpt lat="44.7305833" lon="10.11044"><ele>231.66666666666669</ele><time>2026-04-30T15:11:11.591Z</time></trkpt><trkpt lat="44.7305617" lon="10.11034"><ele>231.33333333333334</ele><time>2026-04-30T15:11:14.594Z</time></trkpt><trkpt lat="44.730545" lon="10.1102333"><ele>231.0</ele><time>2026-04-30T15:11:17.591Z</time></trkpt><trkpt lat="44.7305217" lon="10.1101267"><ele>231.0</ele><time>2026-04-30T15:11:20.592Z</time></trkpt><trkpt lat="44.7305017" lon="10.1100317"><ele>231.0</ele><time>2026-04-30T15:11:23.598Z</time></trkpt><trkpt lat="44.730485" lon="10.109935"><ele>231.0</ele><time>2026-04-30T15:11:26.593Z</time></trkpt><trkpt lat="44.7304683" lon="10.1098267"><ele>231.0</ele><time>2026-04-30T15:11:29.593Z</time></trkpt><trkpt lat="44.7304583" lon="10.109725"><ele>231.0</ele><time>2026-04-30T15:11:32.588Z</time></trkpt><trkpt lat="44.73045" lon="10.1096217"><ele>231.0</ele><time>2026-04-30T15:11:35.591Z</time></trkpt><trkpt lat="44.7304367" lon="10.109535"><ele>231.0</ele><time>2026-04-30T15:11:38.595Z</time></trkpt><trkpt lat="44.7304333" lon="10.10943"><ele>231.42857142857144</ele><time>2026-04-30T15:11:41.593Z</time></trkpt><trkpt lat="44.7304217" lon="10.109335"><ele>231.85714285714286</ele><time>2026-04-30T15:11:44.59Z</time></trkpt><trkpt lat="44.730405" lon="10.1092217"><ele>232.28571428571428</ele><time>2026-04-30T15:11:48.595Z</time></trkpt><trkpt lat="44.7303933" lon="10.1091283"><ele>232.71428571428572</ele><time>2026-04-30T15:11:52.586Z</time></trkpt><trkpt lat="44.7303783" lon="10.1090233"><ele>233.14285714285717</ele><time>2026-04-30T15:11:55.591Z</time></trkpt><trkpt lat="44.73036" lon="10.108915"><ele>233.57142857142858</ele><time>2026-04-30T15:11:58.593Z</time></trkpt><trkpt lat="44.7303533" lon="10.108815"><ele>234.0</ele><time>2026-04-30T15:12:02.591Z</time></trkpt><trkpt lat="44.7303367" lon="10.1087217"><ele>234.57142857142858</ele><time>2026-04-30T15:12:05.594Z</time></trkpt><trkpt lat="44.7303233" lon="10.1086233"><ele>235.14285714285717</ele><time>2026-04-30T15:12:08.592Z</time></trkpt><trkpt lat="44.7303067" lon="10.108535"><ele>235.71428571428572</ele><time>2026-04-30T15:12:11.59Z</time></trkpt><trkpt lat="44.730275" lon="10.1084517"><ele>236.28571428571428</ele><time>2026-04-30T15:12:14.596Z</time></trkpt><trkpt lat="44.73027" lon="10.1083617"><ele>236.85714285714286</ele><time>2026-04-30T15:12:17.591Z</time></trkpt><trkpt lat="44.7302617" lon="10.1082733"><ele>237.42857142857144</ele><time>2026-04-30T15:12:20.601Z</time></trkpt><trkpt lat="44.7302517" lon="10.10815"><ele>238.0</ele><time>2026-04-30T15:12:28.588Z</time></trkpt><trkpt lat="44.730235" lon="10.1080233"><ele>238.49999999999997</ele><time>2026-04-30T15:12:31.585Z</time></trkpt><trkpt lat="44.7302283" lon="10.1079317"><ele>239.0</ele><time>2026-04-30T15:12:34.588Z</time></trkpt><trkpt lat="44.7302283" lon="10.1078183"><ele>239.5</ele><time>2026-04-30T15:12:38.592Z</time></trkpt><trkpt lat="44.7302083" lon="10.1077167"><ele>240.0</ele><time>2026-04-30T15:12:42.595Z</time></trkpt><trkpt lat="44.7301867" lon="10.1076183"><ele>240.49999999999997</ele><time>2026-04-30T15:12:45.592Z</time></trkpt><trkpt lat="44.7301683" lon="10.1075333"><ele>241.0</ele><time>2026-04-30T15:12:48.589Z</time></trkpt><trkpt lat="44.7301233" lon="10.1073367"><ele>241.99999999999997</ele><time>2026-04-30T15:13:04.597Z</time></trkpt><trkpt lat="44.7300733" lon="10.107205"><ele>243.0</ele><time>2026-04-30T15:13:14.59Z</time></trkpt><trkpt lat="44.7300483" lon="10.107105"><ele>244.0</ele><time>2026-04-30T15:13:17.591Z</time></trkpt><trkpt lat="44.730025" lon="10.1070117"><ele>245.0</ele><time>2026-04-30T15:13:20.589Z</time></trkpt><trkpt lat="44.7300067" lon="10.1069083"><ele>245.99999999999997</ele><time>2026-04-30T15:13:24.591Z</time></trkpt><trkpt lat="44.72999" lon="10.1068033"><ele>247.0</ele><time>2026-04-30T15:13:28.591Z</time></trkpt><trkpt lat="44.7299883" lon="10.1067083"><ele>247.0</ele><time>2026-04-30T15:13:33.583Z</time></trkpt><trkpt lat="44.72998" lon="10.1066083"><ele>247.0</ele><time>2026-04-30T15:13:38.589Z</time></trkpt><trkpt lat="44.72995" lon="10.1065017"><ele>247.0</ele><time>2026-04-30T15:13:44.586Z</time></trkpt><trkpt lat="44.7299467" lon="10.106405"><ele>247.0</ele><time>2026-04-30T15:13:51.597Z</time></trkpt><trkpt lat="44.7299533" lon="10.1063167"><ele>247.0</ele><time>2026-04-30T15:13:56.594Z</time></trkpt><trkpt lat="44.7299517" lon="10.1062183"><ele>247.0</ele><time>2026-04-30T15:14:01.586Z</time></trkpt><trkpt lat="44.7299467" lon="10.1061167"><ele>247.0</ele><time>2026-04-30T15:14:06.587Z</time></trkpt><trkpt lat="44.7299417" lon="10.1060233"><ele>247.66666666666666</ele><time>2026-04-30T15:14:11.603Z</time></trkpt><trkpt lat="44.7299733" lon="10.1059317"><ele>248.33333333333331</ele><time>2026-04-30T15:15:28.589Z</time></trkpt><trkpt lat="44.7299867" lon="10.10584"><ele>249.0</ele><time>2026-04-30T15:15:34.596Z</time></trkpt><trkpt lat="44.7300033" lon="10.1056717"><ele>249.66666666666669</ele><time>2026-04-30T15:15:59.586Z</time></trkpt><trkpt lat="44.730005" lon="10.1055817"><ele>250.33333333333334</ele><time>2026-04-30T15:16:04.589Z</time></trkpt><trkpt lat="44.7300183" lon="10.1054933"><ele>251.0</ele><time>2026-04-30T15:16:09.587Z</time></trkpt><trkpt lat="44.7300267" lon="10.105395"><ele>251.33333333333334</ele><time>2026-04-30T15:16:15.597Z</time></trkpt><trkpt lat="44.7300267" lon="10.1053"><ele>251.66666666666669</ele><time>2026-04-30T15:16:20.591Z</time></trkpt><trkpt lat="44.7300317" lon="10.1051967"><ele>252.0</ele><time>2026-04-30T15:16:25.589Z</time></trkpt><trkpt lat="44.73003" lon="10.10506"><ele>252.33333333333331</ele><time>2026-04-30T15:17:24.593Z</time></trkpt><trkpt lat="44.7300433" lon="10.10496"><ele>252.66666666666666</ele><time>2026-04-30T15:17:29.592Z</time></trkpt><trkpt lat="44.7300417" lon="10.10486"><ele>253.0</ele><time>2026-04-30T15:17:34.59Z</time></trkpt><trkpt lat="44.730055" lon="10.10476"><ele>253.28571428571433</ele><time>2026-04-30T15:17:39.591Z</time></trkpt><trkpt lat="44.730065" lon="10.1046667"><ele>253.57142857142858</ele><time>2026-04-30T15:17:43.586Z</time></trkpt><trkpt lat="44.73008" lon="10.104575"><ele>253.8571428571429</ele><time>2026-04-30T15:17:48.594Z</time></trkpt><trkpt lat="44.7301017" lon="10.104455"><ele>254.14285714285717</ele><time>2026-04-30T15:20:22.589Z</time></trkpt><trkpt lat="44.730115" lon="10.1043467"><ele>254.42857142857144</ele><time>2026-04-30T15:20:40.591Z</time></trkpt><trkpt lat="44.7301233" lon="10.1042417"><ele>254.71428571428572</ele><time>2026-04-30T15:20:45.588Z</time></trkpt><trkpt lat="44.730125" lon="10.1041383"><ele>255.0</ele><time>2026-04-30T15:20:51.592Z</time></trkpt><trkpt lat="44.7301283" lon="10.10403"><ele>255.2857142857143</ele><time>2026-04-30T15:21:03.589Z</time></trkpt><trkpt lat="44.7301317" lon="10.10394"><ele>255.5714285714286</ele><time>2026-04-30T15:21:07.591Z</time></trkpt><trkpt lat="44.7301333" lon="10.10385"><ele>255.85714285714286</ele><time>2026-04-30T15:21:12.587Z</time></trkpt><trkpt lat="44.7301533" lon="10.1037517"><ele>256.14285714285717</ele><time>2026-04-30T15:21:17.593Z</time></trkpt><trkpt lat="44.7301583" lon="10.1036517"><ele>256.42857142857144</ele><time>2026-04-30T15:21:22.594Z</time></trkpt><trkpt lat="44.7301633" lon="10.103545"><ele>256.7142857142857</ele><time>2026-04-30T15:21:28.587Z</time></trkpt><trkpt lat="44.7301683" lon="10.103445"><ele>257.0</ele><time>2026-04-30T15:21:33.588Z</time></trkpt><trkpt lat="44.7301667" lon="10.1033533"><ele>257.0</ele><time>2026-04-30T15:21:38.592Z</time></trkpt><trkpt lat="44.7301783" lon="10.1032567"><ele>257.0</ele><time>2026-04-30T15:21:42.59Z</time></trkpt><trkpt lat="44.7301783" lon="10.10313"><ele>257.0</ele><time>2026-04-30T15:21:46.586Z</time></trkpt><trkpt lat="44.73018" lon="10.10302"><ele>257.0</ele><time>2026-04-30T15:21:49.591Z</time></trkpt><trkpt lat="44.73018" lon="10.102915"><ele>257.0</ele><time>2026-04-30T15:21:52.59Z</time></trkpt><trkpt lat="44.730185" lon="10.102805"><ele>257.0</ele><time>2026-04-30T15:21:55.587Z</time></trkpt><trkpt lat="44.7301883" lon="10.1026967"><ele>257.1666666666667</ele><time>2026-04-30T15:21:58.59Z</time></trkpt><trkpt lat="44.7301917" lon="10.1025833"><ele>257.33333333333337</ele><time>2026-04-30T15:22:01.586Z</time></trkpt><trkpt lat="44.7301933" lon="10.1024817"><ele>257.5</ele><time>2026-04-30T15:22:04.59Z</time></trkpt><trkpt lat="44.7301933" lon="10.102375"><ele>257.6666666666667</ele><time>2026-04-30T15:22:07.585Z</time></trkpt><trkpt lat="44.730195" lon="10.102265"><ele>257.8333333333333</ele><time>2026-04-30T15:22:10.591Z</time></trkpt><trkpt lat="44.7302" lon="10.1021517"><ele>258.0</ele><time>2026-04-30T15:22:13.591Z</time></trkpt><trkpt lat="44.7302017" lon="10.10204"><ele>257.99999999999994</ele><time>2026-04-30T15:22:16.6Z</time></trkpt><trkpt lat="44.730205" lon="10.101935"><ele>258.0</ele><time>2026-04-30T15:22:19.589Z</time></trkpt><trkpt lat="44.730205" lon="10.1018317"><ele>258.0</ele><time>2026-04-30T15:22:22.592Z</time></trkpt><trkpt lat="44.7302083" lon="10.10173"><ele>258.0</ele><time>2026-04-30T15:22:25.595Z</time></trkpt><trkpt lat="44.730205" lon="10.1016267"><ele>258.0</ele><time>2026-04-30T15:22:28.59Z</time></trkpt><trkpt lat="44.7302017" lon="10.1015217"><ele>257.99999999999994</ele><time>2026-04-30T15:22:31.587Z</time></trkpt><trkpt lat="44.7301983" lon="10.10142"><ele>258.0</ele><time>2026-04-30T15:22:34.587Z</time></trkpt><trkpt lat="44.730188" lon="10.1013198"><ele>258.2857142857143</ele><time>2026-04-30T15:22:37.586Z</time></trkpt><trkpt lat="44.7301836" lon="10.1012237"><ele>258.57142857142856</ele><time>2026-04-30T15:22:40.527Z</time></trkpt><trkpt lat="44.7301783" lon="10.1011133"><ele>258.8571428571429</ele><time>2026-04-30T15:22:43.587Z</time></trkpt><trkpt lat="44.7301683" lon="10.1009983"><ele>259.1428571428571</ele><time>2026-04-30T15:22:47.59Z</time></trkpt><trkpt lat="44.7301617" lon="10.1008967"><ele>259.42857142857144</ele><time>2026-04-30T15:22:50.595Z</time></trkpt><trkpt lat="44.730155" lon="10.1007867"><ele>259.7142857142857</ele><time>2026-04-30T15:22:53.601Z</time></trkpt><trkpt lat="44.73016" lon="10.1006967"><ele>260.0</ele><time>2026-04-30T15:22:56.592Z</time></trkpt><trkpt lat="44.7301617" lon="10.100575"><ele>260.7142857142857</ele><time>2026-04-30T15:23:00.588Z</time></trkpt><trkpt lat="44.7301467" lon="10.1004833"><ele>261.42857142857144</ele><time>2026-04-30T15:23:03.584Z</time></trkpt><trkpt lat="44.730145" lon="10.100385"><ele>262.1428571428571</ele><time>2026-04-30T15:23:07.585Z</time></trkpt><trkpt lat="44.7301417" lon="10.100295"><ele>262.8571428571429</ele><time>2026-04-30T15:23:10.591Z</time></trkpt><trkpt lat="44.7301367" lon="10.100195"><ele>263.57142857142856</ele><time>2026-04-30T15:23:13.593Z</time></trkpt><trkpt lat="44.7301433" lon="10.1000833"><ele>264.2857142857143</ele><time>2026-04-30T15:23:16.588Z</time></trkpt><trkpt lat="44.7301467" lon="10.099975"><ele>265.0</ele><time>2026-04-30T15:23:19.591Z</time></trkpt><trkpt lat="44.7301517" lon="10.0998767"><ele>266.1428571428571</ele><time>2026-04-30T15:23:22.588Z</time></trkpt><trkpt lat="44.7301467" lon="10.0997733"><ele>267.2857142857143</ele><time>2026-04-30T15:23:25.585Z</time></trkpt><trkpt lat="44.730125" lon="10.099665"><ele>268.42857142857144</ele><time>2026-04-30T15:23:29.588Z</time></trkpt><trkpt lat="44.73011" lon="10.0995583"><ele>269.57142857142856</ele><time>2026-04-30T15:23:33.586Z</time></trkpt><trkpt lat="44.7300917" lon="10.0994533"><ele>270.7142857142857</ele><time>2026-04-30T15:23:37.587Z</time></trkpt><trkpt lat="44.730075" lon="10.0993667"><ele>271.85714285714283</ele><time>2026-04-30T15:23:41.59Z</time></trkpt><trkpt lat="44.7300533" lon="10.0992733"><ele>273.0</ele><time>2026-04-30T15:23:45.586Z</time></trkpt><trkpt lat="44.730035" lon="10.099175"><ele>273.3333333333333</ele><time>2026-04-30T15:23:49.585Z</time></trkpt><trkpt lat="44.7300267" lon="10.0990667"><ele>273.6666666666667</ele><time>2026-04-30T15:23:54.591Z</time></trkpt><trkpt lat="44.73004" lon="10.0989417"><ele>274.0</ele><time>2026-04-30T15:24:06.587Z</time></trkpt><trkpt lat="44.7300217" lon="10.09879"><ele>274.33333333333337</ele><time>2026-04-30T15:24:16.586Z</time></trkpt><trkpt lat="44.73" lon="10.0987067"><ele>274.6666666666667</ele><time>2026-04-30T15:24:20.591Z</time></trkpt><trkpt lat="44.7299783" lon="10.09861"><ele>275.0</ele><time>2026-04-30T15:24:25.587Z</time></trkpt><trkpt lat="44.7299783" lon="10.0985083"><ele>275.0</ele><time>2026-04-30T15:24:30.586Z</time></trkpt><trkpt lat="44.72997" lon="10.0984083"><ele>275.0</ele><time>2026-04-30T15:24:34.592Z</time></trkpt><trkpt lat="44.7299667" lon="10.098315"><ele>275.0</ele><time>2026-04-30T15:24:38.596Z</time></trkpt><trkpt lat="44.7299583" lon="10.098215"><ele>275.0</ele><time>2026-04-30T15:24:43.594Z</time></trkpt><trkpt lat="44.729955" lon="10.09811"><ele>275.0</ele><time>2026-04-30T15:24:49.6Z</time></trkpt><trkpt lat="44.72995" lon="10.0980183"><ele>275.0</ele><time>2026-04-30T15:24:53.587Z</time></trkpt><trkpt lat="44.729955" lon="10.0979233"><ele>275.0</ele><time>2026-04-30T15:24:57.59Z</time></trkpt><trkpt lat="44.7299533" lon="10.0978283"><ele>275.42857142857144</ele><time>2026-04-30T15:25:01.592Z</time></trkpt><trkpt lat="44.729955" lon="10.097735"><ele>275.85714285714283</ele><time>2026-04-30T15:25:05.594Z</time></trkpt><trkpt lat="44.7299467" lon="10.0976317"><ele>276.2857142857143</ele><time>2026-04-30T15:25:10.587Z</time></trkpt><trkpt lat="44.7299483" lon="10.0975233"><ele>276.7142857142857</ele><time>2026-04-30T15:25:16.587Z</time></trkpt><trkpt lat="44.7299517" lon="10.0974217"><ele>277.14285714285717</ele><time>2026-04-30T15:25:21.583Z</time></trkpt><trkpt lat="44.729955" lon="10.0973133"><ele>277.57142857142856</ele><time>2026-04-30T15:25:26.581Z</time></trkpt><trkpt lat="44.7299817" lon="10.0972233"><ele>278.0</ele><time>2026-04-30T15:25:32.584Z</time></trkpt><trkpt lat="44.7299667" lon="10.0971217"><ele>278.42857142857144</ele><time>2026-04-30T15:25:36.588Z</time></trkpt><trkpt lat="44.7299633" lon="10.0970267"><ele>278.8571428571429</ele><time>2026-04-30T15:25:40.585Z</time></trkpt><trkpt lat="44.7299717" lon="10.0969233"><ele>279.28571428571433</ele><time>2026-04-30T15:25:45.591Z</time></trkpt><trkpt lat="44.729975" lon="10.0968283"><ele>279.7142857142857</ele><time>2026-04-30T15:25:50.59Z</time></trkpt><trkpt lat="44.7299867" lon="10.0967317"><ele>280.14285714285717</ele><time>2026-04-30T15:25:53.589Z</time></trkpt><trkpt lat="44.7300067" lon="10.0966283"><ele>280.5714285714286</ele><time>2026-04-30T15:25:56.592Z</time></trkpt><trkpt lat="44.730035" lon="10.0965217"><ele>281.0</ele><time>2026-04-30T15:25:59.592Z</time></trkpt><trkpt lat="44.730055" lon="10.0964083"><ele>281.0</ele><time>2026-04-30T15:26:02.595Z</time></trkpt><trkpt lat="44.7300867" lon="10.0962967"><ele>281.0</ele><time>2026-04-30T15:26:05.597Z</time></trkpt><trkpt lat="44.7301167" lon="10.0962"><ele>281.0</ele><time>2026-04-30T15:26:08.592Z</time></trkpt><trkpt lat="44.730135" lon="10.096115"><ele>281.0</ele><time>2026-04-30T15:26:11.591Z</time></trkpt><trkpt lat="44.7301533" lon="10.0960217"><ele>281.0</ele><time>2026-04-30T15:26:14.601Z</time></trkpt><trkpt lat="44.7301783" lon="10.0959133"><ele>281.0</ele><time>2026-04-30T15:26:17.586Z</time></trkpt><trkpt lat="44.730205" lon="10.0958067"><ele>283.0</ele><time>2026-04-30T15:26:20.595Z</time></trkpt><trkpt lat="44.73023" lon="10.0956933"><ele>285.0</ele><time>2026-04-30T15:26:23.6Z</time></trkpt><trkpt lat="44.730255" lon="10.0955833"><ele>287.0</ele><time>2026-04-30T15:26:26.595Z</time></trkpt><trkpt lat="44.730275" lon="10.0954767"><ele>289.0</ele><time>2026-04-30T15:26:29.59Z</time></trkpt><trkpt lat="44.7303033" lon="10.0953733"><ele>291.0</ele><time>2026-04-30T15:26:32.59Z</time></trkpt><trkpt lat="44.7303283" lon="10.0952633"><ele>293.0</ele><time>2026-04-30T15:26:35.586Z</time></trkpt><trkpt lat="44.7303617" lon="10.0951767"><ele>293.0</ele><time>2026-04-30T15:26:39.599Z</time></trkpt><trkpt lat="44.7303883" lon="10.09508"><ele>293.0</ele><time>2026-04-30T15:26:43.589Z</time></trkpt><trkpt lat="44.7304183" lon="10.0949733"><ele>293.0</ele><time>2026-04-30T15:26:47.593Z</time></trkpt><trkpt lat="44.7304517" lon="10.0948833"><ele>293.0</ele><time>2026-04-30T15:26:50.59Z</time></trkpt><trkpt lat="44.7304783" lon="10.0947783"><ele>293.0</ele><time>2026-04-30T15:26:53.589Z</time></trkpt><trkpt lat="44.730505" lon="10.09465"><ele>293.0</ele><time>2026-04-30T15:26:56.588Z</time></trkpt><trkpt lat="44.73053" lon="10.0945583"><ele>292.83333333333337</ele><time>2026-04-30T15:26:58.591Z</time></trkpt><trkpt lat="44.7305517" lon="10.09447"><ele>292.6666666666667</ele><time>2026-04-30T15:27:00.582Z</time></trkpt><trkpt lat="44.7305817" lon="10.0943717"><ele>292.5</ele><time>2026-04-30T15:27:02.599Z</time></trkpt><trkpt lat="44.7306083" lon="10.0942567"><ele>292.3333333333333</ele><time>2026-04-30T15:27:04.586Z</time></trkpt><trkpt lat="44.7306383" lon="10.0941567"><ele>292.16666666666663</ele><time>2026-04-30T15:27:06.589Z</time></trkpt><trkpt lat="44.7306617" lon="10.0940567"><ele>292.0</ele><time>2026-04-30T15:27:08.594Z</time></trkpt><trkpt lat="44.73069" lon="10.0939333"><ele>291.3333333333333</ele><time>2026-04-30T15:27:11.592Z</time></trkpt><trkpt lat="44.730715" lon="10.093805"><ele>290.66666666666663</ele><time>2026-04-30T15:27:14.589Z</time></trkpt><trkpt lat="44.730745" lon="10.0937167"><ele>290.0</ele><time>2026-04-30T15:27:16.599Z</time></trkpt><trkpt lat="44.7307633" lon="10.0936217"><ele>289.3333333333333</ele><time>2026-04-30T15:27:18.59Z</time></trkpt><trkpt lat="44.730775" lon="10.0935233"><ele>288.6666666666667</ele><time>2026-04-30T15:27:20.595Z</time></trkpt><trkpt lat="44.730785" lon="10.093425"><ele>288.0</ele><time>2026-04-30T15:27:22.59Z</time></trkpt><trkpt lat="44.7307883" lon="10.0933167"><ele>286.8333333333333</ele><time>2026-04-30T15:27:24.591Z</time></trkpt><trkpt lat="44.7307883" lon="10.0932067"><ele>285.6666666666667</ele><time>2026-04-30T15:27:26.591Z</time></trkpt><trkpt lat="44.7308067" lon="10.0931167"><ele>284.5</ele><time>2026-04-30T15:27:28.59Z</time></trkpt><trkpt lat="44.730815" lon="10.0930267"><ele>283.33333333333337</ele><time>2026-04-30T15:27:30.594Z</time></trkpt><trkpt lat="44.7308183" lon="10.092935"><ele>282.1666666666667</ele><time>2026-04-30T15:27:32.59Z</time></trkpt><trkpt lat="44.7308167" lon="10.0928067"><ele>281.0</ele><time>2026-04-30T15:27:35.593Z</time></trkpt><trkpt lat="44.7308267" lon="10.0926783"><ele>281.0</ele><time>2026-04-30T15:27:38.592Z</time></trkpt><trkpt lat="44.73084" lon="10.0925483"><ele>281.0</ele><time>2026-04-30T15:27:41.595Z</time></trkpt><trkpt lat="44.7308533" lon="10.0924433"><ele>281.0</ele><time>2026-04-30T15:27:43.601Z</time></trkpt><trkpt lat="44.7308683" lon="10.0923267"><ele>281.0</ele><time>2026-04-30T15:27:45.599Z</time></trkpt><trkpt lat="44.73087" lon="10.0921983"><ele>281.0</ele><time>2026-04-30T15:27:47.591Z</time></trkpt><trkpt lat="44.7308883" lon="10.09207"><ele>281.0</ele><time>2026-04-30T15:27:49.588Z</time></trkpt><trkpt lat="44.7309267" lon="10.0919517"><ele>279.0</ele><time>2026-04-30T15:27:51.591Z</time></trkpt><trkpt lat="44.731" lon="10.0918483"><ele>277.0</ele><time>2026-04-30T15:27:53.596Z</time></trkpt><trkpt lat="44.73109" lon="10.0917333"><ele>275.0</ele><time>2026-04-30T15:27:55.597Z</time></trkpt><trkpt lat="44.7311283" lon="10.09166"><ele>273.0</ele><time>2026-04-30T15:27:56.592Z</time></trkpt><trkpt lat="44.73116" lon="10.0915783"><ele>271.0</ele><time>2026-04-30T15:27:57.59Z</time></trkpt><trkpt lat="44.731175" lon="10.09149"><ele>269.0</ele><time>2026-04-30T15:27:58.586Z</time></trkpt><trkpt lat="44.731175" lon="10.0913967"><ele>268.2</ele><time>2026-04-30T15:27:59.586Z</time></trkpt><trkpt lat="44.731165" lon="10.0913017"><ele>267.4</ele><time>2026-04-30T15:28:00.588Z</time></trkpt><trkpt lat="44.7311517" lon="10.09121"><ele>266.6</ele><time>2026-04-30T15:28:01.587Z</time></trkpt><trkpt lat="44.731135" lon="10.091035"><ele>265.8</ele><time>2026-04-30T15:28:03.587Z</time></trkpt><trkpt lat="44.731125" lon="10.090875"><ele>265.0</ele><time>2026-04-30T15:28:05.589Z</time></trkpt><trkpt lat="44.7311317" lon="10.09075"><ele>264.8333333333333</ele><time>2026-04-30T15:28:07.583Z</time></trkpt><trkpt lat="44.7311583" lon="10.090655"><ele>264.66666666666663</ele><time>2026-04-30T15:28:09.587Z</time></trkpt><trkpt lat="44.731195" lon="10.090565"><ele>264.5</ele><time>2026-04-30T15:28:11.589Z</time></trkpt><trkpt lat="44.7312417" lon="10.0904767"><ele>264.3333333333333</ele><time>2026-04-30T15:28:13.595Z</time></trkpt><trkpt lat="44.7312817" lon="10.09036"><ele>264.1666666666667</ele><time>2026-04-30T15:28:15.598Z</time></trkpt><trkpt lat="44.7313133" lon="10.09022"><ele>264.0</ele><time>2026-04-30T15:28:17.591Z</time></trkpt><trkpt lat="44.7313617" lon="10.0900633"><ele>264.0</ele><time>2026-04-30T15:28:19.595Z</time></trkpt><trkpt lat="44.7313983" lon="10.0899883"><ele>264.0</ele><time>2026-04-30T15:28:20.597Z</time></trkpt><trkpt lat="44.7314433" lon="10.0899167"><ele>264.0</ele><time>2026-04-30T15:28:21.584Z</time></trkpt><trkpt lat="44.7315" lon="10.08985"><ele>264.0</ele><time>2026-04-30T15:28:22.586Z</time></trkpt><trkpt lat="44.7315617" lon="10.0897867"><ele>264.0</ele><time>2026-04-30T15:28:23.587Z</time></trkpt><trkpt lat="44.731625" lon="10.0897217"><ele>264.0</ele><time>2026-04-30T15:28:24.588Z</time></trkpt><trkpt lat="44.7316867" lon="10.0896533"><ele>264.0</ele><time>2026-04-30T15:28:25.595Z</time></trkpt><trkpt lat="44.7317383" lon="10.0895767"><ele>264.3333333333333</ele><time>2026-04-30T15:28:26.59Z</time></trkpt><trkpt lat="44.7317783" lon="10.0894933"><ele>264.6666666666667</ele><time>2026-04-30T15:28:27.591Z</time></trkpt><trkpt lat="44.7318117" lon="10.0894017"><ele>265.0</ele><time>2026-04-30T15:28:28.586Z</time></trkpt><trkpt lat="44.7318317" lon="10.089315"><ele>265.33333333333337</ele><time>2026-04-30T15:28:29.59Z</time></trkpt><trkpt lat="44.731855" lon="10.0891567"><ele>265.6666666666667</ele><time>2026-04-30T15:28:31.585Z</time></trkpt><trkpt lat="44.7318633" lon="10.0890433"><ele>266.0</ele><time>2026-04-30T15:28:33.587Z</time></trkpt><trkpt lat="44.7318717" lon="10.08895"><ele>267.33333333333337</ele><time>2026-04-30T15:28:35.587Z</time></trkpt><trkpt lat="44.73188" lon="10.0888433"><ele>268.6666666666667</ele><time>2026-04-30T15:28:38.595Z</time></trkpt><trkpt lat="44.7319017" lon="10.08874"><ele>270.0</ele><time>2026-04-30T15:28:41.594Z</time></trkpt><trkpt lat="44.7319017" lon="10.0886433"><ele>271.3333333333333</ele><time>2026-04-30T15:28:45.587Z</time></trkpt><trkpt lat="44.731835" lon="10.08862"><ele>272.66666666666663</ele><time>2026-04-30T15:28:48.596Z</time></trkpt><trkpt lat="44.7317667" lon="10.0886"><ele>274.0</ele><time>2026-04-30T15:28:50.589Z</time></trkpt><trkpt lat="44.731675" lon="10.0885617"><ele>274.5</ele><time>2026-04-30T15:28:52.586Z</time></trkpt><trkpt lat="44.7315717" lon="10.0885033"><ele>275.0</ele><time>2026-04-30T15:28:54.587Z</time></trkpt><trkpt lat="44.7314667" lon="10.0884183"><ele>275.5</ele><time>2026-04-30T15:28:56.589Z</time></trkpt><trkpt lat="44.7314033" lon="10.088385"><ele>276.0</ele><time>2026-04-30T15:28:57.588Z</time></trkpt><trkpt lat="44.7313367" lon="10.08835"><ele>276.5</ele><time>2026-04-30T15:28:58.59Z</time></trkpt><trkpt lat="44.7312683" lon="10.0883167"><ele>277.0</ele><time>2026-04-30T15:28:59.59Z</time></trkpt><trkpt lat="44.7311967" lon="10.0882967"><ele>277.0</ele><time>2026-04-30T15:29:00.59Z</time></trkpt><trkpt lat="44.73113" lon="10.0882783"><ele>277.0</ele><time>2026-04-30T15:29:01.586Z</time></trkpt><trkpt lat="44.731065" lon="10.0882567"><ele>277.0</ele><time>2026-04-30T15:29:02.592Z</time></trkpt><trkpt lat="44.7309983" lon="10.0882317"><ele>277.0</ele><time>2026-04-30T15:29:03.595Z</time></trkpt><trkpt lat="44.730935" lon="10.0882017"><ele>277.0</ele><time>2026-04-30T15:29:04.595Z</time></trkpt><trkpt lat="44.7308717" lon="10.0881667"><ele>277.0</ele><time>2026-04-30T15:29:05.587Z</time></trkpt><trkpt lat="44.73081" lon="10.08814"><ele>277.0</ele><time>2026-04-30T15:29:06.587Z</time></trkpt><trkpt lat="44.7307433" lon="10.0881167"><ele>278.8</ele><time>2026-04-30T15:29:07.587Z</time></trkpt><trkpt lat="44.73068" lon="10.0880867"><ele>280.6</ele><time>2026-04-30T15:29:08.594Z</time></trkpt><trkpt lat="44.730615" lon="10.0880617"><ele>282.40000000000003</ele><time>2026-04-30T15:29:09.589Z</time></trkpt><trkpt lat="44.7304933" lon="10.0880317"><ele>284.2</ele><time>2026-04-30T15:29:11.586Z</time></trkpt><trkpt lat="44.730375" lon="10.08801"><ele>286.0</ele><time>2026-04-30T15:29:13.589Z</time></trkpt><trkpt lat="44.730265" lon="10.087995"><ele>283.0</ele><time>2026-04-30T15:29:15.593Z</time></trkpt><trkpt lat="44.7301517" lon="10.088"><ele>280.0</ele><time>2026-04-30T15:29:17.588Z</time></trkpt><trkpt lat="44.73005" lon="10.0879883"><ele>277.0</ele><time>2026-04-30T15:29:19.585Z</time></trkpt><trkpt lat="44.7299417" lon="10.0879917"><ele>274.0</ele><time>2026-04-30T15:29:21.585Z</time></trkpt><trkpt lat="44.7298767" lon="10.088015"><ele>271.0</ele><time>2026-04-30T15:29:22.597Z</time></trkpt><trkpt lat="44.7298167" lon="10.0880617"><ele>271.0</ele><time>2026-04-30T15:29:23.594Z</time></trkpt><trkpt lat="44.72981" lon="10.08816"><ele>271.0</ele><time>2026-04-30T15:29:24.587Z</time></trkpt><trkpt lat="44.7298317" lon="10.0882467"><ele>271.0</ele><time>2026-04-30T15:29:25.586Z</time></trkpt><trkpt lat="44.7299533" lon="10.0883167"><ele>271.0</ele><time>2026-04-30T15:29:27.594Z</time></trkpt><trkpt lat="44.73005" lon="10.0883033"><ele>271.0</ele><time>2026-04-30T15:29:28.593Z</time></trkpt><trkpt lat="44.730145" lon="10.088305"><ele>270.40000000000003</ele><time>2026-04-30T15:29:29.586Z</time></trkpt><trkpt lat="44.73024" lon="10.0883133"><ele>269.8</ele><time>2026-04-30T15:29:30.587Z</time></trkpt><trkpt lat="44.7303417" lon="10.08833"><ele>269.20000000000005</ele><time>2026-04-30T15:29:31.585Z</time></trkpt><trkpt lat="44.730445" lon="10.0883517"><ele>268.6</ele><time>2026-04-30T15:29:32.586Z</time></trkpt><trkpt lat="44.7305383" lon="10.0883817"><ele>268.0</ele><time>2026-04-30T15:29:33.585Z</time></trkpt><trkpt lat="44.73062" lon="10.08842"><ele>268.0</ele><time>2026-04-30T15:29:34.585Z</time></trkpt><trkpt lat="44.7306883" lon="10.0884667"><ele>268.0</ele><time>2026-04-30T15:29:35.588Z</time></trkpt><trkpt lat="44.7307317" lon="10.0885433"><ele>268.0</ele><time>2026-04-30T15:29:36.59Z</time></trkpt><trkpt lat="44.730685" lon="10.088665"><ele>268.0</ele><time>2026-04-30T15:29:38.593Z</time></trkpt><trkpt lat="44.730615" lon="10.0886667"><ele>268.0</ele><time>2026-04-30T15:29:39.59Z</time></trkpt><trkpt lat="44.7305433" lon="10.0886383"><ele>268.0</ele><time>2026-04-30T15:29:40.588Z</time></trkpt><trkpt lat="44.7304717" lon="10.0886033"><ele>268.0</ele><time>2026-04-30T15:29:41.588Z</time></trkpt><trkpt lat="44.73039" lon="10.0885883"><ele>268.0</ele><time>2026-04-30T15:29:42.589Z</time></trkpt><trkpt lat="44.7303067" lon="10.0885983"><ele>268.0</ele><time>2026-04-30T15:29:43.594Z</time></trkpt><trkpt lat="44.7302167" lon="10.08863"><ele>268.0</ele><time>2026-04-30T15:29:44.591Z</time></trkpt><trkpt lat="44.7301233" lon="10.0886633"><ele>268.0</ele><time>2026-04-30T15:29:45.59Z</time></trkpt><trkpt lat="44.7300317" lon="10.0886983"><ele>266.8</ele><time>2026-04-30T15:29:46.588Z</time></trkpt><trkpt lat="44.7299367" lon="10.0887233"><ele>265.6</ele><time>2026-04-30T15:29:47.592Z</time></trkpt><trkpt lat="44.729845" lon="10.0887283"><ele>264.4</ele><time>2026-04-30T15:29:48.591Z</time></trkpt><trkpt lat="44.7297517" lon="10.088735"><ele>263.2</ele><time>2026-04-30T15:29:49.591Z</time></trkpt><trkpt lat="44.729665" lon="10.0887317"><ele>262.0</ele><time>2026-04-30T15:29:50.589Z</time></trkpt><trkpt lat="44.7295783" lon="10.0887233"><ele>262.0</ele><time>2026-04-30T15:29:51.589Z</time></trkpt><trkpt lat="44.7294917" lon="10.08871"><ele>262.0</ele><time>2026-04-30T15:29:52.588Z</time></trkpt><trkpt lat="44.7294033" lon="10.0887033"><ele>262.0</ele><time>2026-04-30T15:29:53.596Z</time></trkpt><trkpt lat="44.7293167" lon="10.088715"><ele>262.0</ele><time>2026-04-30T15:29:54.598Z</time></trkpt><trkpt lat="44.729245" lon="10.0887533"><ele>262.0</ele><time>2026-04-30T15:29:55.589Z</time></trkpt><trkpt lat="44.72925" lon="10.0888417"><ele>262.0</ele><time>2026-04-30T15:29:56.589Z</time></trkpt><trkpt lat="44.72931" lon="10.088915"><ele>262.0</ele><time>2026-04-30T15:29:57.592Z</time></trkpt><trkpt lat="44.7293833" lon="10.088965"><ele>262.0</ele><time>2026-04-30T15:29:58.585Z</time></trkpt><trkpt lat="44.7294617" lon="10.089"><ele>262.0</ele><time>2026-04-30T15:29:59.588Z</time></trkpt><trkpt lat="44.72955" lon="10.0890167"><ele>262.0</ele><time>2026-04-30T15:30:00.59Z</time></trkpt><trkpt lat="44.7296417" lon="10.0890317"><ele>262.0</ele><time>2026-04-30T15:30:01.586Z</time></trkpt><trkpt lat="44.7297333" lon="10.0890483"><ele>262.0</ele><time>2026-04-30T15:30:02.593Z</time></trkpt><trkpt lat="44.72983" lon="10.0890667"><ele>262.0</ele><time>2026-04-30T15:30:03.588Z</time></trkpt><trkpt lat="44.729925" lon="10.0890833"><ele>262.0</ele><time>2026-04-30T15:30:04.59Z</time></trkpt><trkpt lat="44.730025" lon="10.089105"><ele>262.0</ele><time>2026-04-30T15:30:05.593Z</time></trkpt><trkpt lat="44.730105" lon="10.0891467"><ele>262.0</ele><time>2026-04-30T15:30:06.59Z</time></trkpt><trkpt lat="44.7301617" lon="10.0892233"><ele>262.0</ele><time>2026-04-30T15:30:07.589Z</time></trkpt><trkpt lat="44.7301533" lon="10.0893267"><ele>262.0</ele><time>2026-04-30T15:30:08.591Z</time></trkpt><trkpt lat="44.7301017" lon="10.0893817"><ele>258.8333333333333</ele><time>2026-04-30T15:30:09.589Z</time></trkpt><trkpt lat="44.73003" lon="10.0894083"><ele>255.66666666666666</ele><time>2026-04-30T15:30:10.595Z</time></trkpt><trkpt lat="44.7299433" lon="10.0893767"><ele>252.5</ele><time>2026-04-30T15:30:11.586Z</time></trkpt><trkpt lat="44.7298633" lon="10.089345"><ele>249.33333333333331</ele><time>2026-04-30T15:30:12.588Z</time></trkpt><trkpt lat="44.729775" lon="10.08932"><ele>246.16666666666666</ele><time>2026-04-30T15:30:13.587Z</time></trkpt><trkpt lat="44.729685" lon="10.0893183"><ele>243.0</ele><time>2026-04-30T15:30:14.596Z</time></trkpt><trkpt lat="44.7295883" lon="10.0893283"><ele>243.0</ele><time>2026-04-30T15:30:15.594Z</time></trkpt><trkpt lat="44.7294917" lon="10.089345"><ele>243.0</ele><time>2026-04-30T15:30:16.598Z</time></trkpt><trkpt lat="44.7293917" lon="10.0893633"><ele>243.0</ele><time>2026-04-30T15:30:17.587Z</time></trkpt><trkpt lat="44.729295" lon="10.08938"><ele>243.0</ele><time>2026-04-30T15:30:18.595Z</time></trkpt><trkpt lat="44.7291967" lon="10.0893867"><ele>243.0</ele><time>2026-04-30T15:30:19.593Z</time></trkpt><trkpt lat="44.7290933" lon="10.0893733"><ele>242.2</ele><time>2026-04-30T15:30:20.592Z</time></trkpt><trkpt lat="44.7289917" lon="10.08935"><ele>241.4</ele><time>2026-04-30T15:30:21.596Z</time></trkpt><trkpt lat="44.7288817" lon="10.08932"><ele>240.59999999999997</ele><time>2026-04-30T15:30:22.59Z</time></trkpt><trkpt lat="44.7287833" lon="10.0892717"><ele>239.79999999999998</ele><time>2026-04-30T15:30:23.596Z</time></trkpt><trkpt lat="44.7286917" lon="10.08921"><ele>239.0</ele><time>2026-04-30T15:30:24.587Z</time></trkpt><trkpt lat="44.7286033" lon="10.0891467"><ele>236.79999999999998</ele><time>2026-04-30T15:30:25.589Z</time></trkpt><trkpt lat="44.7285167" lon="10.0890783"><ele>234.59999999999997</ele><time>2026-04-30T15:30:26.592Z</time></trkpt><trkpt lat="44.728435" lon="10.0890017"><ele>232.4</ele><time>2026-04-30T15:30:27.587Z</time></trkpt><trkpt lat="44.7283567" lon="10.0889133"><ele>230.2</ele><time>2026-04-30T15:30:28.594Z</time></trkpt><trkpt lat="44.7282817" lon="10.0888233"><ele>228.0</ele><time>2026-04-30T15:30:29.59Z</time></trkpt><trkpt lat="44.7282017" lon="10.0887467"><ele>228.0</ele><time>2026-04-30T15:30:30.586Z</time></trkpt><trkpt lat="44.7281117" lon="10.08869"><ele>228.0</ele><time>2026-04-30T15:30:31.586Z</time></trkpt><trkpt lat="44.72801" lon="10.0886767"><ele>228.0</ele><time>2026-04-30T15:30:32.588Z</time></trkpt><trkpt lat="44.727905" lon="10.0887167"><ele>228.0</ele><time>2026-04-30T15:30:33.588Z</time></trkpt><trkpt lat="44.7278283" lon="10.0888017"><ele>228.0</ele><time>2026-04-30T15:30:34.588Z</time></trkpt><trkpt lat="44.7277767" lon="10.0889067"><ele>228.0</ele><time>2026-04-30T15:30:35.584Z</time></trkpt><trkpt lat="44.7277583" lon="10.089015"><ele>228.0</ele><time>2026-04-30T15:30:36.586Z</time></trkpt><trkpt lat="44.7278433" lon="10.0891317"><ele>228.0</ele><time>2026-04-30T15:30:37.588Z</time></trkpt><trkpt lat="44.727915" lon="10.089215"><ele>228.0</ele><time>2026-04-30T15:30:38.583Z</time></trkpt><trkpt lat="44.727995" lon="10.0892633"><ele>228.0</ele><time>2026-04-30T15:30:39.588Z</time></trkpt><trkpt lat="44.728075" lon="10.0893133"><ele>227.4</ele><time>2026-04-30T15:30:40.589Z</time></trkpt><trkpt lat="44.7281583" lon="10.0893783"><ele>226.8</ele><time>2026-04-30T15:30:41.589Z</time></trkpt><trkpt lat="44.7282333" lon="10.0894617"><ele>226.2</ele><time>2026-04-30T15:30:42.589Z</time></trkpt><trkpt lat="44.7283067" lon="10.0895517"><ele>225.6</ele><time>2026-04-30T15:30:43.588Z</time></trkpt><trkpt lat="44.7283767" lon="10.08965"><ele>225.0</ele><time>2026-04-30T15:30:44.59Z</time></trkpt><trkpt lat="44.7284517" lon="10.089745"><ele>225.0</ele><time>2026-04-30T15:30:45.588Z</time></trkpt><trkpt lat="44.7285283" lon="10.08984"><ele>225.0</ele><time>2026-04-30T15:30:46.587Z</time></trkpt><trkpt lat="44.728605" lon="10.08993"><ele>225.0</ele><time>2026-04-30T15:30:47.595Z</time></trkpt><trkpt lat="44.7286867" lon="10.0900033"><ele>225.0</ele><time>2026-04-30T15:30:48.588Z</time></trkpt><trkpt lat="44.72877" lon="10.0900633"><ele>225.0</ele><time>2026-04-30T15:30:49.594Z</time></trkpt><trkpt lat="44.7288583" lon="10.0901067"><ele>224.0</ele><time>2026-04-30T15:30:50.588Z</time></trkpt><trkpt lat="44.72894" lon="10.0901533"><ele>223.0</ele><time>2026-04-30T15:30:51.587Z</time></trkpt><trkpt lat="44.7290117" lon="10.0902117"><ele>222.0</ele><time>2026-04-30T15:30:52.587Z</time></trkpt><trkpt lat="44.7290233" lon="10.0903167"><ele>221.0</ele><time>2026-04-30T15:30:53.592Z</time></trkpt><trkpt lat="44.7290067" lon="10.0904067"><ele>220.0</ele><time>2026-04-30T15:30:54.588Z</time></trkpt><trkpt lat="44.7289167" lon="10.0904267"><ele>219.0</ele><time>2026-04-30T15:30:55.585Z</time></trkpt><trkpt lat="44.7288233" lon="10.0904133"><ele>219.0</ele><time>2026-04-30T15:30:56.586Z</time></trkpt><trkpt lat="44.7287383" lon="10.0903667"><ele>218.99999999999997</ele><time>2026-04-30T15:30:57.59Z</time></trkpt><trkpt lat="44.7286583" lon="10.0903033"><ele>218.99999999999997</ele><time>2026-04-30T15:30:58.587Z</time></trkpt><trkpt lat="44.7285717" lon="10.0902467"><ele>219.0</ele><time>2026-04-30T15:30:59.59Z</time></trkpt><trkpt lat="44.7284817" lon="10.0902017"><ele>219.0</ele><time>2026-04-30T15:31:00.585Z</time></trkpt><trkpt lat="44.7283917" lon="10.09018"><ele>217.39999999999998</ele><time>2026-04-30T15:31:01.59Z</time></trkpt><trkpt lat="44.7282967" lon="10.0901733"><ele>215.79999999999998</ele><time>2026-04-30T15:31:02.597Z</time></trkpt><trkpt lat="44.7282" lon="10.0901617"><ele>214.2</ele><time>2026-04-30T15:31:03.587Z</time></trkpt><trkpt lat="44.7281017" lon="10.09014"><ele>212.60000000000002</ele><time>2026-04-30T15:31:04.588Z</time></trkpt><trkpt lat="44.7280133" lon="10.0900983"><ele>211.0</ele><time>2026-04-30T15:31:05.587Z</time></trkpt><trkpt lat="44.7279383" lon="10.0900283"><ele>210.99999999999997</ele><time>2026-04-30T15:31:06.591Z</time></trkpt><trkpt lat="44.7278817" lon="10.0899417"><ele>211.0</ele><time>2026-04-30T15:31:07.591Z</time></trkpt><trkpt lat="44.7278267" lon="10.0898617"><ele>211.0</ele><time>2026-04-30T15:31:08.587Z</time></trkpt><trkpt lat="44.72777" lon="10.0898067"><ele>211.0</ele><time>2026-04-30T15:31:09.587Z</time></trkpt><trkpt lat="44.7277117" lon="10.0898517"><ele>210.99999999999997</ele><time>2026-04-30T15:31:10.586Z</time></trkpt><trkpt lat="44.72769" lon="10.0900117"><ele>211.0</ele><time>2026-04-30T15:31:12.589Z</time></trkpt><trkpt lat="44.7277383" lon="10.0901183"><ele>210.99999999999997</ele><time>2026-04-30T15:31:13.593Z</time></trkpt><trkpt lat="44.72779" lon="10.0902167"><ele>211.0</ele><time>2026-04-30T15:31:14.59Z</time></trkpt><trkpt lat="44.7278667" lon="10.0903117"><ele>211.0</ele><time>2026-04-30T15:31:15.592Z</time></trkpt><trkpt lat="44.7279433" lon="10.0903967"><ele>211.0</ele><time>2026-04-30T15:31:16.587Z</time></trkpt><trkpt lat="44.7280033" lon="10.0904717"><ele>210.99999999999997</ele><time>2026-04-30T15:31:17.593Z</time></trkpt><trkpt lat="44.7280433" lon="10.0905683"><ele>211.0</ele><time>2026-04-30T15:31:18.595Z</time></trkpt><trkpt lat="44.7280083" lon="10.0906567"><ele>210.99999999999997</ele><time>2026-04-30T15:31:19.593Z</time></trkpt><trkpt lat="44.7279283" lon="10.090685"><ele>211.0</ele><time>2026-04-30T15:31:20.587Z</time></trkpt><trkpt lat="44.7278517" lon="10.0906483"><ele>211.0</ele><time>2026-04-30T15:31:21.596Z</time></trkpt><trkpt lat="44.7277783" lon="10.09058"><ele>211.0</ele><time>2026-04-30T15:31:22.588Z</time></trkpt><trkpt lat="44.7277133" lon="10.0904933"><ele>210.99999999999997</ele><time>2026-04-30T15:31:23.591Z</time></trkpt><trkpt lat="44.72765" lon="10.09041"><ele>211.0</ele><time>2026-04-30T15:31:24.587Z</time></trkpt><trkpt lat="44.727585" lon="10.0903283"><ele>208.83333333333331</ele><time>2026-04-30T15:31:25.594Z</time></trkpt><trkpt lat="44.7275183" lon="10.09025"><ele>206.66666666666666</ele><time>2026-04-30T15:31:26.593Z</time></trkpt><trkpt lat="44.7274533" lon="10.0901683"><ele>204.5</ele><time>2026-04-30T15:31:27.587Z</time></trkpt><trkpt lat="44.7273867" lon="10.090095"><ele>202.33333333333331</ele><time>2026-04-30T15:31:28.59Z</time></trkpt><trkpt lat="44.727315" lon="10.0900417"><ele>200.16666666666666</ele><time>2026-04-30T15:31:29.59Z</time></trkpt><trkpt lat="44.7272467" lon="10.09001"><ele>198.0</ele><time>2026-04-30T15:31:30.599Z</time></trkpt><trkpt lat="44.7271517" lon="10.09011"><ele>198.0</ele><time>2026-04-30T15:31:32.595Z</time></trkpt><trkpt lat="44.7271267" lon="10.090285"><ele>198.0</ele><time>2026-04-30T15:31:34.591Z</time></trkpt><trkpt lat="44.7271517" lon="10.0903783"><ele>198.0</ele><time>2026-04-30T15:31:35.591Z</time></trkpt><trkpt lat="44.7272083" lon="10.0904683"><ele>198.0</ele><time>2026-04-30T15:31:36.591Z</time></trkpt><trkpt lat="44.7272767" lon="10.0905417"><ele>198.0</ele><time>2026-04-30T15:31:37.593Z</time></trkpt><trkpt lat="44.7273633" lon="10.0905867"><ele>198.0</ele><time>2026-04-30T15:31:38.588Z</time></trkpt><trkpt lat="44.7274367" lon="10.0906383"><ele>198.0</ele><time>2026-04-30T15:31:39.595Z</time></trkpt><trkpt lat="44.727495" lon="10.0907033"><ele>198.0</ele><time>2026-04-30T15:31:40.597Z</time></trkpt><trkpt lat="44.727535" lon="10.0907867"><ele>198.0</ele><time>2026-04-30T15:31:41.593Z</time></trkpt><trkpt lat="44.72742" lon="10.09084"><ele>198.0</ele><time>2026-04-30T15:31:43.596Z</time></trkpt><trkpt lat="44.72735" lon="10.0908283"><ele>198.0</ele><time>2026-04-30T15:31:44.598Z</time></trkpt><trkpt lat="44.727265" lon="10.0907817"><ele>198.0</ele><time>2026-04-30T15:31:45.592Z</time></trkpt><trkpt lat="44.72719" lon="10.09073"><ele>198.0</ele><time>2026-04-30T15:31:46.589Z</time></trkpt><trkpt lat="44.7271083" lon="10.09067"><ele>198.0</ele><time>2026-04-30T15:31:47.595Z</time></trkpt><trkpt lat="44.727035" lon="10.0906"><ele>198.0</ele><time>2026-04-30T15:31:48.591Z</time></trkpt><trkpt lat="44.7269667" lon="10.09051"><ele>198.0</ele><time>2026-04-30T15:31:49.588Z</time></trkpt><trkpt lat="44.7269033" lon="10.0904117"><ele>198.0</ele><time>2026-04-30T15:31:50.597Z</time></trkpt><trkpt lat="44.726845" lon="10.090305"><ele>198.0</ele><time>2026-04-30T15:31:51.592Z</time></trkpt><trkpt lat="44.726775" lon="10.0902"><ele>198.0</ele><time>2026-04-30T15:31:52.589Z</time></trkpt><trkpt lat="44.726695" lon="10.0900983"><ele>198.0</ele><time>2026-04-30T15:31:53.589Z</time></trkpt><trkpt lat="44.7266117" lon="10.0900083"><ele>198.0</ele><time>2026-04-30T15:31:54.59Z</time></trkpt><trkpt lat="44.726525" lon="10.089925"><ele>198.0</ele><time>2026-04-30T15:31:55.598Z</time></trkpt><trkpt lat="44.7264417" lon="10.08984"><ele>198.0</ele><time>2026-04-30T15:31:56.589Z</time></trkpt><trkpt lat="44.7263567" lon="10.0897517"><ele>198.0</ele><time>2026-04-30T15:31:57.591Z</time></trkpt><trkpt lat="44.7262717" lon="10.0896667"><ele>198.0</ele><time>2026-04-30T15:31:58.599Z</time></trkpt><trkpt lat="44.7261933" lon="10.0895883"><ele>198.0</ele><time>2026-04-30T15:31:59.586Z</time></trkpt><trkpt lat="44.7261083" lon="10.0895333"><ele>193.2</ele><time>2026-04-30T15:32:00.6Z</time></trkpt><trkpt lat="44.7260233" lon="10.0894967"><ele>188.4</ele><time>2026-04-30T15:32:01.591Z</time></trkpt><trkpt lat="44.7259467" lon="10.0895467"><ele>183.6</ele><time>2026-04-30T15:32:02.596Z</time></trkpt><trkpt lat="44.7258667" lon="10.08962"><ele>178.79999999999998</ele><time>2026-04-30T15:32:03.59Z</time></trkpt><trkpt lat="44.72579" lon="10.0896833"><ele>174.0</ele><time>2026-04-30T15:32:04.593Z</time></trkpt><trkpt lat="44.7256967" lon="10.0897317"><ele>174.0</ele><time>2026-04-30T15:32:05.591Z</time></trkpt><trkpt lat="44.7256" lon="10.0897583"><ele>174.0</ele><time>2026-04-30T15:32:06.588Z</time></trkpt><trkpt lat="44.7255117" lon="10.089765"><ele>174.0</ele><time>2026-04-30T15:32:07.592Z</time></trkpt><trkpt lat="44.7254233" lon="10.0897633"><ele>174.0</ele><time>2026-04-30T15:32:08.588Z</time></trkpt><trkpt lat="44.725345" lon="10.0897633"><ele>174.0</ele><time>2026-04-30T15:32:09.599Z</time></trkpt><trkpt lat="44.725265" lon="10.089765"><ele>174.0</ele><time>2026-04-30T15:32:10.592Z</time></trkpt><trkpt lat="44.7251883" lon="10.0897583"><ele>173.0</ele><time>2026-04-30T15:32:11.591Z</time></trkpt><trkpt lat="44.7251117" lon="10.0897617"><ele>172.0</ele><time>2026-04-30T15:32:12.591Z</time></trkpt><trkpt lat="44.7250417" lon="10.089765"><ele>171.0</ele><time>2026-04-30T15:32:13.592Z</time></trkpt><trkpt lat="44.7249733" lon="10.089775"><ele>170.0</ele><time>2026-04-30T15:32:14.591Z</time></trkpt><trkpt lat="44.72491" lon="10.0897933"><ele>169.0</ele><time>2026-04-30T15:32:15.585Z</time></trkpt><trkpt lat="44.72485" lon="10.0898233"><ele>168.0</ele><time>2026-04-30T15:32:16.59Z</time></trkpt><trkpt lat="44.72476" lon="10.0899133"><ele>168.0</ele><time>2026-04-30T15:32:18.595Z</time></trkpt><trkpt lat="44.724715" lon="10.0900117"><ele>168.0</ele><time>2026-04-30T15:32:20.587Z</time></trkpt><trkpt lat="44.7246783" lon="10.0901183"><ele>168.0</ele><time>2026-04-30T15:32:23.592Z</time></trkpt><trkpt lat="44.7246583" lon="10.0902167"><ele>168.0</ele><time>2026-04-30T15:32:26.592Z</time></trkpt><trkpt lat="44.7247083" lon="10.0900617"><ele>168.0</ele><time>2026-04-30T15:32:32.593Z</time></trkpt><trkpt lat="44.724725" lon="10.089965"><ele>168.0</ele><time>2026-04-30T15:32:33.587Z</time></trkpt><trkpt lat="44.7247367" lon="10.0898733"><ele>168.0</ele><time>2026-04-30T15:32:34.59Z</time></trkpt><trkpt lat="44.7247517" lon="10.0897667"><ele>168.0</ele><time>2026-04-30T15:32:35.591Z</time></trkpt><trkpt lat="44.72476" lon="10.0896533"><ele>168.0</ele><time>2026-04-30T15:32:36.586Z</time></trkpt><trkpt lat="44.72477" lon="10.089535"><ele>168.0</ele><time>2026-04-30T15:32:37.586Z</time></trkpt><trkpt lat="44.72477" lon="10.0894067"><ele>168.0</ele><time>2026-04-30T15:32:38.591Z</time></trkpt><trkpt lat="44.724775" lon="10.089285"><ele>168.0</ele><time>2026-04-30T15:32:39.59Z</time></trkpt><trkpt lat="44.7247717" lon="10.0891883"><ele>168.0</ele><time>2026-04-30T15:32:40.588Z</time></trkpt><trkpt lat="44.72477" lon="10.089095"><ele>168.0</ele><time>2026-04-30T15:32:41.587Z</time></trkpt><trkpt lat="44.72473" lon="10.0889617"><ele>168.0</ele><time>2026-04-30T15:32:43.586Z</time></trkpt><trkpt lat="44.7246733" lon="10.08883"><ele>168.0</ele><time>2026-04-30T15:32:45.587Z</time></trkpt><trkpt lat="44.7245733" lon="10.0887883"><ele>168.0</ele><time>2026-04-30T15:32:47.586Z</time></trkpt><trkpt lat="44.7244583" lon="10.0888083"><ele>168.8</ele><time>2026-04-30T15:32:49.586Z</time></trkpt><trkpt lat="44.7243533" lon="10.0888133"><ele>169.60000000000002</ele><time>2026-04-30T15:32:51.592Z</time></trkpt><trkpt lat="44.724245" lon="10.0888217"><ele>170.39999999999998</ele><time>2026-04-30T15:32:53.593Z</time></trkpt><trkpt lat="44.7241383" lon="10.0888167"><ele>171.2</ele><time>2026-04-30T15:32:55.59Z</time></trkpt><trkpt lat="44.7240333" lon="10.0888067"><ele>172.0</ele><time>2026-04-30T15:32:57.592Z</time></trkpt><trkpt lat="44.723945" lon="10.0888183"><ele>172.0</ele><time>2026-04-30T15:32:59.588Z</time></trkpt><trkpt lat="44.7238483" lon="10.0888183"><ele>172.0</ele><time>2026-04-30T15:33:01.59Z</time></trkpt><trkpt lat="44.7237433" lon="10.0888333"><ele>172.0</ele><time>2026-04-30T15:33:03.588Z</time></trkpt><trkpt lat="44.72364" lon="10.0888333"><ele>172.0</ele><time>2026-04-30T15:33:05.588Z</time></trkpt><trkpt lat="44.7235617" lon="10.088835"><ele>172.0</ele><time>2026-04-30T15:33:07.588Z</time></trkpt><trkpt lat="44.7234983" lon="10.0888333"><ele>172.0</ele><time>2026-04-30T15:33:08.585Z</time></trkpt><trkpt lat="44.7234117" lon="10.0888417"><ele>170.8</ele><time>2026-04-30T15:33:10.585Z</time></trkpt><trkpt lat="44.72331" lon="10.0888683"><ele>169.6</ele><time>2026-04-30T15:33:12.583Z</time></trkpt><trkpt lat="44.7232083" lon="10.088885"><ele>168.4</ele><time>2026-04-30T15:33:14.587Z</time></trkpt><trkpt lat="44.7231033" lon="10.0889033"><ele>167.20000000000002</ele><time>2026-04-30T15:33:16.59Z</time></trkpt><trkpt lat="44.723005" lon="10.0889517"><ele>166.0</ele><time>2026-04-30T15:33:18.591Z</time></trkpt><trkpt lat="44.7229117" lon="10.0889817"><ele>166.0</ele><time>2026-04-30T15:33:20.59Z</time></trkpt><trkpt lat="44.7228217" lon="10.089"><ele>166.0</ele><time>2026-04-30T15:33:22.589Z</time></trkpt><trkpt lat="44.7227433" lon="10.0890267"><ele>166.0</ele><time>2026-04-30T15:33:24.592Z</time></trkpt><trkpt lat="44.7226783" lon="10.08901"><ele>166.0</ele><time>2026-04-30T15:33:26.587Z</time></trkpt><trkpt lat="44.722605" lon="10.08903"><ele>166.0</ele><time>2026-04-30T15:33:30.594Z</time></trkpt><trkpt lat="44.7224833" lon="10.0891267"><ele>164.66666666666669</ele><time>2026-04-30T15:33:45.593Z</time></trkpt><trkpt lat="44.722455" lon="10.089245"><ele>163.33333333333334</ele><time>2026-04-30T15:33:50.594Z</time></trkpt><trkpt lat="44.7224667" lon="10.08936"><ele>162.0</ele><time>2026-04-30T15:33:53.596Z</time></trkpt><trkpt lat="44.722465" lon="10.0894867"><ele>160.66666666666666</ele><time>2026-04-30T15:33:56.589Z</time></trkpt><trkpt lat="44.7224667" lon="10.0895767"><ele>159.33333333333331</ele><time>2026-04-30T15:33:58.589Z</time></trkpt><trkpt lat="44.722475" lon="10.0897017"><ele>158.0</ele><time>2026-04-30T15:34:01.593Z</time></trkpt><trkpt lat="44.72248" lon="10.0898333"><ele>157.66666666666666</ele><time>2026-04-30T15:34:04.592Z</time></trkpt><trkpt lat="44.7224833" lon="10.0899283"><ele>157.33333333333331</ele><time>2026-04-30T15:34:06.594Z</time></trkpt><trkpt lat="44.7224983" lon="10.090025"><ele>157.0</ele><time>2026-04-30T15:34:08.591Z</time></trkpt><trkpt lat="44.722505" lon="10.09013"><ele>156.66666666666666</ele><time>2026-04-30T15:34:10.587Z</time></trkpt><trkpt lat="44.7224983" lon="10.09023"><ele>156.33333333333334</ele><time>2026-04-30T15:34:12.588Z</time></trkpt><trkpt lat="44.722495" lon="10.090355"><ele>156.0</ele><time>2026-04-30T15:34:15.585Z</time></trkpt><trkpt lat="44.7224833" lon="10.0904683"><ele>156.0</ele><time>2026-04-30T15:34:18.593Z</time></trkpt><trkpt lat="44.7225033" lon="10.0905867"><ele>156.0</ele><time>2026-04-30T15:34:21.589Z</time></trkpt><trkpt lat="44.72252" lon="10.0906767"><ele>156.0</ele><time>2026-04-30T15:34:23.589Z</time></trkpt><trkpt lat="44.722535" lon="10.0907733"><ele>156.0</ele><time>2026-04-30T15:34:25.592Z</time></trkpt><trkpt lat="44.72255" lon="10.0908883"><ele>156.0</ele><time>2026-04-30T15:34:28.587Z</time></trkpt><trkpt lat="44.7225517" lon="10.0909933"><ele>156.0</ele><time>2026-04-30T15:34:31.583Z</time></trkpt><trkpt lat="44.722565" lon="10.0911167"><ele>155.66666666666666</ele><time>2026-04-30T15:34:34.587Z</time></trkpt><trkpt lat="44.7225767" lon="10.09124"><ele>155.33333333333334</ele><time>2026-04-30T15:34:38.588Z</time></trkpt><trkpt lat="44.7225867" lon="10.0913333"><ele>155.0</ele><time>2026-04-30T15:34:40.594Z</time></trkpt><trkpt lat="44.722595" lon="10.0914533"><ele>154.66666666666669</ele><time>2026-04-30T15:34:43.591Z</time></trkpt><trkpt lat="44.7226" lon="10.0915667"><ele>154.33333333333334</ele><time>2026-04-30T15:34:46.599Z</time></trkpt><trkpt lat="44.7226017" lon="10.0916733"><ele>154.0</ele><time>2026-04-30T15:34:49.589Z</time></trkpt><trkpt lat="44.7226167" lon="10.0917933"><ele>153.66666666666669</ele><time>2026-04-30T15:34:52.589Z</time></trkpt><trkpt lat="44.7226283" lon="10.0919167"><ele>153.33333333333334</ele><time>2026-04-30T15:34:55.592Z</time></trkpt><trkpt lat="44.722635" lon="10.0920317"><ele>153.0</ele><time>2026-04-30T15:34:58.587Z</time></trkpt><trkpt lat="44.7226417" lon="10.09212"><ele>152.66666666666666</ele><time>2026-04-30T15:35:00.595Z</time></trkpt><trkpt lat="44.72266" lon="10.0922217"><ele>152.33333333333331</ele><time>2026-04-30T15:35:03.594Z</time></trkpt><trkpt lat="44.7226783" lon="10.0923383"><ele>152.0</ele><time>2026-04-30T15:35:06.591Z</time></trkpt><trkpt lat="44.7227" lon="10.0924233"><ele>152.0</ele><time>2026-04-30T15:35:08.598Z</time></trkpt><trkpt lat="44.7227183" lon="10.0925133"><ele>152.0</ele><time>2026-04-30T15:35:11.593Z</time></trkpt><trkpt lat="44.7227517" lon="10.0925967"><ele>152.0</ele><time>2026-04-30T15:35:14.591Z</time></trkpt><trkpt lat="44.7227817" lon="10.0926967"><ele>152.0</ele><time>2026-04-30T15:35:17.59Z</time></trkpt><trkpt lat="44.722815" lon="10.0928083"><ele>152.0</ele><time>2026-04-30T15:35:20.584Z</time></trkpt><trkpt lat="44.72284" lon="10.092895"><ele>152.0</ele><time>2026-04-30T15:35:22.584Z</time></trkpt><trkpt lat="44.722875" lon="10.09298"><ele>152.0</ele><time>2026-04-30T15:35:24.584Z</time></trkpt><trkpt lat="44.7229067" lon="10.09306"><ele>152.16666666666666</ele><time>2026-04-30T15:35:26.591Z</time></trkpt><trkpt lat="44.7229367" lon="10.0931483"><ele>152.33333333333331</ele><time>2026-04-30T15:35:28.592Z</time></trkpt><trkpt lat="44.7229683" lon="10.0932467"><ele>152.5</ele><time>2026-04-30T15:35:30.594Z</time></trkpt><trkpt lat="44.7230133" lon="10.0933483"><ele>152.66666666666666</ele><time>2026-04-30T15:35:32.592Z</time></trkpt><trkpt lat="44.7230433" lon="10.0934333"><ele>152.83333333333334</ele><time>2026-04-30T15:35:34.591Z</time></trkpt><trkpt lat="44.7230917" lon="10.093545"><ele>153.0</ele><time>2026-04-30T15:35:37.583Z</time></trkpt><trkpt lat="44.7231267" lon="10.09364"><ele>153.0</ele><time>2026-04-30T15:35:40.596Z</time></trkpt><trkpt lat="44.7231517" lon="10.0937233"><ele>153.0</ele><time>2026-04-30T15:35:43.593Z</time></trkpt><trkpt lat="44.7231867" lon="10.0938283"><ele>153.0</ele><time>2026-04-30T15:35:46.59Z</time></trkpt><trkpt lat="44.723225" lon="10.0939217"><ele>153.0</ele><time>2026-04-30T15:35:49.594Z</time></trkpt><trkpt lat="44.72327" lon="10.0940217"><ele>153.0</ele><time>2026-04-30T15:35:52.591Z</time></trkpt><trkpt lat="44.7233" lon="10.0941133"><ele>153.0</ele><time>2026-04-30T15:35:55.589Z</time></trkpt><trkpt lat="44.723305" lon="10.0942183"><ele>152.83333333333334</ele><time>2026-04-30T15:35:59.593Z</time></trkpt><trkpt lat="44.7233383" lon="10.0943283"><ele>152.66666666666666</ele><time>2026-04-30T15:39:02.596Z</time></trkpt><trkpt lat="44.7233683" lon="10.0944183"><ele>152.5</ele><time>2026-04-30T15:39:06.586Z</time></trkpt><trkpt lat="44.7233967" lon="10.0945167"><ele>152.33333333333331</ele><time>2026-04-30T15:39:09.594Z</time></trkpt><trkpt lat="44.7234183" lon="10.09462"><ele>152.16666666666666</ele><time>2026-04-30T15:39:12.587Z</time></trkpt><trkpt lat="44.723425" lon="10.0947267"><ele>152.0</ele><time>2026-04-30T15:39:15.59Z</time></trkpt><trkpt lat="44.7234267" lon="10.09484"><ele>152.0</ele><time>2026-04-30T15:39:18.593Z</time></trkpt><trkpt lat="44.72342" lon="10.094975"><ele>152.0</ele><time>2026-04-30T15:39:21.592Z</time></trkpt><trkpt lat="44.7234167" lon="10.0950683"><ele>152.0</ele><time>2026-04-30T15:39:23.602Z</time></trkpt><trkpt lat="44.72342" lon="10.0951583"><ele>152.0</ele><time>2026-04-30T15:39:25.596Z</time></trkpt><trkpt lat="44.7234183" lon="10.0952517"><ele>152.0</ele><time>2026-04-30T15:39:27.591Z</time></trkpt><trkpt lat="44.7234183" lon="10.09535"><ele>152.0</ele><time>2026-04-30T15:39:29.592Z</time></trkpt><trkpt lat="44.7234217" lon="10.0954683"><ele>152.0</ele><time>2026-04-30T15:39:31.588Z</time></trkpt><trkpt lat="44.7234283" lon="10.0955933"><ele>152.0</ele><time>2026-04-30T15:39:33.597Z</time></trkpt><trkpt lat="44.723425" lon="10.0957133"><ele>152.0</ele><time>2026-04-30T15:39:35.593Z</time></trkpt><trkpt lat="44.7234117" lon="10.0958283"><ele>152.0</ele><time>2026-04-30T15:39:37.589Z</time></trkpt><trkpt lat="44.7233983" lon="10.095945"><ele>152.0</ele><time>2026-04-30T15:39:39.589Z</time></trkpt><trkpt lat="44.7233917" lon="10.09605"><ele>152.0</ele><time>2026-04-30T15:39:41.592Z</time></trkpt><trkpt lat="44.7233883" lon="10.09615"><ele>152.0</ele><time>2026-04-30T15:39:43.588Z</time></trkpt><trkpt lat="44.723385" lon="10.0962567"><ele>151.83333333333331</ele><time>2026-04-30T15:39:45.588Z</time></trkpt><trkpt lat="44.72339" lon="10.0963633"><ele>151.66666666666666</ele><time>2026-04-30T15:39:47.588Z</time></trkpt><trkpt lat="44.723395" lon="10.0964667"><ele>151.5</ele><time>2026-04-30T15:39:49.593Z</time></trkpt><trkpt lat="44.723415" lon="10.0965867"><ele>151.33333333333334</ele><time>2026-04-30T15:39:51.587Z</time></trkpt><trkpt lat="44.7234267" lon="10.0966933"><ele>151.16666666666669</ele><time>2026-04-30T15:39:53.591Z</time></trkpt><trkpt lat="44.72344" lon="10.0967983"><ele>151.0</ele><time>2026-04-30T15:39:55.59Z</time></trkpt><trkpt lat="44.7234583" lon="10.0969117"><ele>150.33333333333334</ele><time>2026-04-30T15:39:58.596Z</time></trkpt><trkpt lat="44.7234767" lon="10.0970017"><ele>149.66666666666669</ele><time>2026-04-30T15:40:00.588Z</time></trkpt><trkpt lat="44.7235017" lon="10.0971233"><ele>149.0</ele><time>2026-04-30T15:40:02.592Z</time></trkpt><trkpt lat="44.723525" lon="10.0972583"><ele>148.33333333333334</ele><time>2026-04-30T15:40:04.588Z</time></trkpt><trkpt lat="44.7235467" lon="10.0973983"><ele>147.66666666666666</ele><time>2026-04-30T15:40:06.59Z</time></trkpt><trkpt lat="44.7235583" lon="10.097525"><ele>147.0</ele><time>2026-04-30T15:40:08.592Z</time></trkpt><trkpt lat="44.7235817" lon="10.097655"><ele>146.5</ele><time>2026-04-30T15:40:10.592Z</time></trkpt><trkpt lat="44.7236083" lon="10.09777"><ele>146.0</ele><time>2026-04-30T15:40:12.595Z</time></trkpt><trkpt lat="44.7236367" lon="10.0978767"><ele>145.5</ele><time>2026-04-30T15:40:14.592Z</time></trkpt><trkpt lat="44.7236567" lon="10.0979783"><ele>145.0</ele><time>2026-04-30T15:40:16.591Z</time></trkpt><trkpt lat="44.7236767" lon="10.0981017"><ele>144.5</ele><time>2026-04-30T15:40:19.59Z</time></trkpt><trkpt lat="44.72369" lon="10.0982033"><ele>144.0</ele><time>2026-04-30T15:40:22.588Z</time></trkpt><trkpt lat="44.7237083" lon="10.0983067"><ele>143.4</ele><time>2026-04-30T15:40:25.588Z</time></trkpt><trkpt lat="44.7237133" lon="10.0984083"><ele>142.8</ele><time>2026-04-30T15:40:27.596Z</time></trkpt><trkpt lat="44.7237233" lon="10.0985317"><ele>142.2</ele><time>2026-04-30T15:40:29.59Z</time></trkpt><trkpt lat="44.7237467" lon="10.0986767"><ele>141.6</ele><time>2026-04-30T15:40:31.596Z</time></trkpt><trkpt lat="44.7237667" lon="10.098835"><ele>141.0</ele><time>2026-04-30T15:40:33.585Z</time></trkpt><trkpt lat="44.7237867" lon="10.0989883"><ele>141.0</ele><time>2026-04-30T15:40:35.591Z</time></trkpt><trkpt lat="44.723815" lon="10.099135"><ele>141.0</ele><time>2026-04-30T15:40:37.591Z</time></trkpt><trkpt lat="44.7238333" lon="10.0992783"><ele>141.0</ele><time>2026-04-30T15:40:39.586Z</time></trkpt><trkpt lat="44.7238517" lon="10.0994067"><ele>141.0</ele><time>2026-04-30T15:40:41.596Z</time></trkpt><trkpt lat="44.7238733" lon="10.099535"><ele>141.0</ele><time>2026-04-30T15:40:43.589Z</time></trkpt><trkpt lat="44.723895" lon="10.0996817"><ele>141.0</ele><time>2026-04-30T15:40:45.588Z</time></trkpt><trkpt lat="44.723915" lon="10.0998317"><ele>141.0</ele><time>2026-04-30T15:40:47.596Z</time></trkpt><trkpt lat="44.72394" lon="10.0999833"><ele>141.0</ele><time>2026-04-30T15:40:49.593Z</time></trkpt><trkpt lat="44.7239533" lon="10.1001533"><ele>141.0</ele><time>2026-04-30T15:40:51.589Z</time></trkpt><trkpt lat="44.72398" lon="10.100325"><ele>141.0</ele><time>2026-04-30T15:40:53.588Z</time></trkpt><trkpt lat="44.7240017" lon="10.1004083"><ele>141.0</ele><time>2026-04-30T15:40:54.592Z</time></trkpt><trkpt lat="44.72403" lon="10.100555"><ele>141.0</ele><time>2026-04-30T15:40:56.591Z</time></trkpt><trkpt lat="44.724055" lon="10.100695"><ele>141.0</ele><time>2026-04-30T15:40:58.597Z</time></trkpt><trkpt lat="44.72407" lon="10.1008433"><ele>141.0</ele><time>2026-04-30T15:41:00.598Z</time></trkpt><trkpt lat="44.7240967" lon="10.1010083"><ele>141.0</ele><time>2026-04-30T15:41:02.592Z</time></trkpt><trkpt lat="44.7241117" lon="10.1011667"><ele>141.0</ele><time>2026-04-30T15:41:04.588Z</time></trkpt><trkpt lat="44.7241333" lon="10.1013233"><ele>141.0</ele><time>2026-04-30T15:41:06.595Z</time></trkpt><trkpt lat="44.7241467" lon="10.10147"><ele>141.0</ele><time>2026-04-30T15:41:08.592Z</time></trkpt><trkpt lat="44.7241633" lon="10.1015933"><ele>141.0</ele><time>2026-04-30T15:41:10.587Z</time></trkpt><trkpt lat="44.7241867" lon="10.1017133"><ele>141.6</ele><time>2026-04-30T15:41:12.593Z</time></trkpt><trkpt lat="44.7241983" lon="10.1018183"><ele>142.2</ele><time>2026-04-30T15:41:14.594Z</time></trkpt><trkpt lat="44.7242083" lon="10.1019417"><ele>142.8</ele><time>2026-04-30T15:41:16.588Z</time></trkpt><trkpt lat="44.72423" lon="10.1020783"><ele>143.4</ele><time>2026-04-30T15:41:18.588Z</time></trkpt><trkpt lat="44.7242633" lon="10.1022183"><ele>144.0</ele><time>2026-04-30T15:41:20.588Z</time></trkpt><trkpt lat="44.7242833" lon="10.102355"><ele>143.6</ele><time>2026-04-30T15:41:22.585Z</time></trkpt><trkpt lat="44.724305" lon="10.1024767"><ele>143.2</ele><time>2026-04-30T15:41:24.585Z</time></trkpt><trkpt lat="44.72433" lon="10.1026217"><ele>142.79999999999998</ele><time>2026-04-30T15:41:26.587Z</time></trkpt><trkpt lat="44.7243583" lon="10.1027717"><ele>142.4</ele><time>2026-04-30T15:41:28.588Z</time></trkpt><trkpt lat="44.7243883" lon="10.1029167"><ele>142.0</ele><time>2026-04-30T15:41:30.591Z</time></trkpt><trkpt lat="44.724425" lon="10.10306"><ele>141.4</ele><time>2026-04-30T15:41:32.597Z</time></trkpt><trkpt lat="44.7244583" lon="10.1032"><ele>140.79999999999998</ele><time>2026-04-30T15:41:34.59Z</time></trkpt><trkpt lat="44.72448" lon="10.1033617"><ele>140.2</ele><time>2026-04-30T15:41:36.594Z</time></trkpt><trkpt lat="44.7245117" lon="10.1035267"><ele>139.6</ele><time>2026-04-30T15:41:38.597Z</time></trkpt><trkpt lat="44.72453" lon="10.1036117"><ele>139.0</ele><time>2026-04-30T15:41:39.593Z</time></trkpt><trkpt lat="44.72455" lon="10.1037817"><ele>138.8</ele><time>2026-04-30T15:41:41.596Z</time></trkpt><trkpt lat="44.7245583" lon="10.1039383"><ele>138.60000000000002</ele><time>2026-04-30T15:41:43.591Z</time></trkpt><trkpt lat="44.7245767" lon="10.1040967"><ele>138.4</ele><time>2026-04-30T15:41:45.592Z</time></trkpt><trkpt lat="44.7245983" lon="10.1042567"><ele>138.20000000000002</ele><time>2026-04-30T15:41:47.594Z</time></trkpt><trkpt lat="44.72461" lon="10.10435"><ele>138.0</ele><time>2026-04-30T15:41:48.595Z</time></trkpt><trkpt lat="44.7246267" lon="10.1045183"><ele>138.0</ele><time>2026-04-30T15:41:50.589Z</time></trkpt><trkpt lat="44.724635" lon="10.10467"><ele>138.0</ele><time>2026-04-30T15:41:52.588Z</time></trkpt><trkpt lat="44.724645" lon="10.1048267"><ele>138.0</ele><time>2026-04-30T15:41:54.592Z</time></trkpt><trkpt lat="44.7246417" lon="10.1050033"><ele>138.0</ele><time>2026-04-30T15:41:56.585Z</time></trkpt><trkpt lat="44.7246367" lon="10.1050967"><ele>138.0</ele><time>2026-04-30T15:41:57.587Z</time></trkpt><trkpt lat="44.7246267" lon="10.105185"><ele>138.25</ele><time>2026-04-30T15:41:58.593Z</time></trkpt><trkpt lat="44.7245917" lon="10.10535"><ele>138.5</ele><time>2026-04-30T15:42:00.591Z</time></trkpt><trkpt lat="44.7245433" lon="10.1054983"><ele>138.75</ele><time>2026-04-30T15:42:02.591Z</time></trkpt><trkpt lat="44.724505" lon="10.1056367"><ele>139.0</ele><time>2026-04-30T15:42:04.587Z</time></trkpt><trkpt lat="44.7244567" lon="10.1057717"><ele>139.2</ele><time>2026-04-30T15:42:06.586Z</time></trkpt><trkpt lat="44.7244133" lon="10.1059017"><ele>139.4</ele><time>2026-04-30T15:42:08.587Z</time></trkpt><trkpt lat="44.72436" lon="10.1060317"><ele>139.6</ele><time>2026-04-30T15:42:10.586Z</time></trkpt><trkpt lat="44.7242867" lon="10.10618"><ele>139.8</ele><time>2026-04-30T15:42:12.596Z</time></trkpt><trkpt lat="44.7242467" lon="10.1062517"><ele>140.0</ele><time>2026-04-30T15:42:13.588Z</time></trkpt><trkpt lat="44.7241733" lon="10.1063767"><ele>139.0</ele><time>2026-04-30T15:42:15.586Z</time></trkpt><trkpt lat="44.72411" lon="10.1065"><ele>138.0</ele><time>2026-04-30T15:42:17.59Z</time></trkpt><trkpt lat="44.7240567" lon="10.10662"><ele>137.0</ele><time>2026-04-30T15:42:19.594Z</time></trkpt><trkpt lat="44.724005" lon="10.1067317"><ele>136.0</ele><time>2026-04-30T15:42:21.589Z</time></trkpt><trkpt lat="44.7239617" lon="10.1068517"><ele>135.0</ele><time>2026-04-30T15:42:23.592Z</time></trkpt><trkpt lat="44.7239333" lon="10.1069767"><ele>134.6</ele><time>2026-04-30T15:42:25.587Z</time></trkpt><trkpt lat="44.7239283" lon="10.1071117"><ele>134.2</ele><time>2026-04-30T15:42:27.593Z</time></trkpt><trkpt lat="44.7239283" lon="10.10726"><ele>133.8</ele><time>2026-04-30T15:42:29.595Z</time></trkpt><trkpt lat="44.7239483" lon="10.1074"><ele>133.4</ele><time>2026-04-30T15:42:31.587Z</time></trkpt><trkpt lat="44.7239867" lon="10.1075333"><ele>133.0</ele><time>2026-04-30T15:42:33.586Z</time></trkpt><trkpt lat="44.7240483" lon="10.107685"><ele>132.6</ele><time>2026-04-30T15:42:35.59Z</time></trkpt><trkpt lat="44.724085" lon="10.1077683"><ele>132.20000000000002</ele><time>2026-04-30T15:42:36.583Z</time></trkpt><trkpt lat="44.7241633" lon="10.1079033"><ele>131.8</ele><time>2026-04-30T15:42:38.588Z</time></trkpt><trkpt lat="44.7242417" lon="10.10803"><ele>131.4</ele><time>2026-04-30T15:42:40.587Z</time></trkpt><trkpt lat="44.7243083" lon="10.1081683"><ele>131.0</ele><time>2026-04-30T15:42:42.588Z</time></trkpt><trkpt lat="44.7243467" lon="10.1083267"><ele>131.8</ele><time>2026-04-30T15:42:44.589Z</time></trkpt><trkpt lat="44.7243567" lon="10.1084783"><ele>132.6</ele><time>2026-04-30T15:42:46.588Z</time></trkpt><trkpt lat="44.7243467" lon="10.108635"><ele>133.4</ele><time>2026-04-30T15:42:48.592Z</time></trkpt><trkpt lat="44.724325" lon="10.1087817"><ele>134.2</ele><time>2026-04-30T15:42:50.592Z</time></trkpt><trkpt lat="44.7242867" lon="10.1089267"><ele>135.0</ele><time>2026-04-30T15:42:52.588Z</time></trkpt><trkpt lat="44.7242467" lon="10.1090633"><ele>134.8</ele><time>2026-04-30T15:42:54.595Z</time></trkpt><trkpt lat="44.7242083" lon="10.1091983"><ele>134.6</ele><time>2026-04-30T15:42:56.588Z</time></trkpt><trkpt lat="44.7241683" lon="10.1093383"><ele>134.4</ele><time>2026-04-30T15:42:58.586Z</time></trkpt><trkpt lat="44.72413" lon="10.1094683"><ele>134.2</ele><time>2026-04-30T15:43:00.589Z</time></trkpt><trkpt lat="44.7240967" lon="10.1095967"><ele>134.0</ele><time>2026-04-30T15:43:02.59Z</time></trkpt><trkpt lat="44.7240567" lon="10.1097267"><ele>134.0</ele><time>2026-04-30T15:43:04.587Z</time></trkpt><trkpt lat="44.7240167" lon="10.10987"><ele>134.0</ele><time>2026-04-30T15:43:06.586Z</time></trkpt><trkpt lat="44.723965" lon="10.1100067"><ele>134.0</ele><time>2026-04-30T15:43:08.593Z</time></trkpt><trkpt lat="44.7239317" lon="10.11012"><ele>134.0</ele><time>2026-04-30T15:43:10.587Z</time></trkpt><trkpt lat="44.7239" lon="10.1102217"><ele>134.0</ele><time>2026-04-30T15:43:12.586Z</time></trkpt><trkpt lat="44.7238817" lon="10.11032"><ele>134.0</ele><time>2026-04-30T15:43:14.594Z</time></trkpt><trkpt lat="44.7238567" lon="10.1104933"><ele>134.0</ele><time>2026-04-30T15:43:24.585Z</time></trkpt><trkpt lat="44.72382" lon="10.110575"><ele>134.0</ele><time>2026-04-30T15:43:26.585Z</time></trkpt><trkpt lat="44.7237917" lon="10.1106667"><ele>134.0</ele><time>2026-04-30T15:43:28.591Z</time></trkpt><trkpt lat="44.723765" lon="10.1107567"><ele>134.0</ele><time>2026-04-30T15:43:30.594Z</time></trkpt><trkpt lat="44.7237317" lon="10.1108483"><ele>134.0</ele><time>2026-04-30T15:43:32.597Z</time></trkpt><trkpt lat="44.7236867" lon="10.1109417"><ele>133.83333333333331</ele><time>2026-04-30T15:43:35.589Z</time></trkpt><trkpt lat="44.7237183" lon="10.1110283"><ele>133.66666666666666</ele><time>2026-04-30T15:43:38.591Z</time></trkpt><trkpt lat="44.7237733" lon="10.111115"><ele>133.5</ele><time>2026-04-30T15:43:40.595Z</time></trkpt><trkpt lat="44.7238383" lon="10.11122"><ele>133.33333333333334</ele><time>2026-04-30T15:43:42.592Z</time></trkpt><trkpt lat="44.723895" lon="10.1113267"><ele>133.16666666666669</ele><time>2026-04-30T15:43:44.59Z</time></trkpt><trkpt lat="44.7239533" lon="10.1114317"><ele>133.0</ele><time>2026-04-30T15:43:46.592Z</time></trkpt><trkpt lat="44.724015" lon="10.1115383"><ele>132.8</ele><time>2026-04-30T15:43:48.593Z</time></trkpt><trkpt lat="44.7240717" lon="10.1116467"><ele>132.60000000000002</ele><time>2026-04-30T15:43:50.597Z</time></trkpt><trkpt lat="44.72414" lon="10.1117367"><ele>132.39999999999998</ele><time>2026-04-30T15:43:52.588Z</time></trkpt><trkpt lat="44.7242017" lon="10.1118417"><ele>132.2</ele><time>2026-04-30T15:43:54.587Z</time></trkpt><trkpt lat="44.7242633" lon="10.111945"><ele>132.0</ele><time>2026-04-30T15:43:56.591Z</time></trkpt><trkpt lat="44.72432" lon="10.112045"><ele>132.0</ele><time>2026-04-30T15:43:58.595Z</time></trkpt><trkpt lat="44.7243767" lon="10.11215"><ele>132.0</ele><time>2026-04-30T15:44:00.588Z</time></trkpt><trkpt lat="44.72443" lon="10.1122467"><ele>132.0</ele><time>2026-04-30T15:44:02.592Z</time></trkpt><trkpt lat="44.7244767" lon="10.1123333"><ele>132.0</ele><time>2026-04-30T15:44:04.589Z</time></trkpt><trkpt lat="44.7245217" lon="10.1124183"><ele>132.0</ele><time>2026-04-30T15:44:06.593Z</time></trkpt><trkpt lat="44.7245833" lon="10.1125233"><ele>132.0</ele><time>2026-04-30T15:44:13.589Z</time></trkpt><trkpt lat="44.7246367" lon="10.1125817"><ele>132.14285714285714</ele><time>2026-04-30T15:44:16.592Z</time></trkpt><trkpt lat="44.7246817" lon="10.1126533"><ele>132.28571428571428</ele><time>2026-04-30T15:44:19.588Z</time></trkpt><trkpt lat="44.7247133" lon="10.112745"><ele>132.42857142857144</ele><time>2026-04-30T15:44:23.591Z</time></trkpt><trkpt lat="44.7246883" lon="10.1128533"><ele>132.57142857142856</ele><time>2026-04-30T15:44:32.59Z</time></trkpt><trkpt lat="44.7246333" lon="10.1129"><ele>132.71428571428572</ele><time>2026-04-30T15:44:35.593Z</time></trkpt><trkpt lat="44.7245817" lon="10.1129833"><ele>132.85714285714286</ele><time>2026-04-30T15:44:38.587Z</time></trkpt><trkpt lat="44.724525" lon="10.113065"><ele>133.0</ele><time>2026-04-30T15:44:42.587Z</time></trkpt><trkpt lat="44.724475" lon="10.1131667"><ele>133.0</ele><time>2026-04-30T15:44:45.588Z</time></trkpt><trkpt lat="44.7244467" lon="10.1132533"><ele>133.0</ele><time>2026-04-30T15:44:47.589Z</time></trkpt><trkpt lat="44.7244183" lon="10.113335"><ele>133.0</ele><time>2026-04-30T15:44:49.589Z</time></trkpt><trkpt lat="44.7243933" lon="10.1134417"><ele>133.0</ele><time>2026-04-30T15:44:51.589Z</time></trkpt><trkpt lat="44.72436" lon="10.1135683"><ele>133.0</ele><time>2026-04-30T15:44:53.598Z</time></trkpt><trkpt lat="44.7243" lon="10.11366"><ele>133.0</ele><time>2026-04-30T15:44:55.593Z</time></trkpt><trkpt lat="44.7242667" lon="10.113785"><ele>132.8</ele><time>2026-04-30T15:44:57.596Z</time></trkpt><trkpt lat="44.7242317" lon="10.11392"><ele>132.60000000000002</ele><time>2026-04-30T15:44:59.591Z</time></trkpt><trkpt lat="44.7241833" lon="10.1140483"><ele>132.39999999999998</ele><time>2026-04-30T15:45:01.591Z</time></trkpt><trkpt lat="44.724135" lon="10.1141567"><ele>132.2</ele><time>2026-04-30T15:45:03.588Z</time></trkpt><trkpt lat="44.7241017" lon="10.11427"><ele>132.0</ele><time>2026-04-30T15:45:05.594Z</time></trkpt><trkpt lat="44.7240817" lon="10.1143733"><ele>132.0</ele><time>2026-04-30T15:45:07.589Z</time></trkpt><trkpt lat="44.7240517" lon="10.1144967"><ele>132.0</ele><time>2026-04-30T15:45:10.589Z</time></trkpt><trkpt lat="44.72403" lon="10.11458"><ele>132.0</ele><time>2026-04-30T15:45:12.592Z</time></trkpt><trkpt lat="44.723995" lon="10.1146717"><ele>132.0</ele><time>2026-04-30T15:45:14.589Z</time></trkpt><trkpt lat="44.72396" lon="10.114755"><ele>132.0</ele><time>2026-04-30T15:45:16.59Z</time></trkpt><trkpt lat="44.72392" lon="10.1148583"><ele>132.0</ele><time>2026-04-30T15:45:18.589Z</time></trkpt><trkpt lat="44.7238833" lon="10.1149583"><ele>131.85714285714286</ele><time>2026-04-30T15:45:20.599Z</time></trkpt><trkpt lat="44.723895" lon="10.1150583"><ele>131.71428571428572</ele><time>2026-04-30T15:45:22.594Z</time></trkpt><trkpt lat="44.7239617" lon="10.115135"><ele>131.57142857142858</ele><time>2026-04-30T15:45:24.588Z</time></trkpt><trkpt lat="44.72402" lon="10.1151833"><ele>131.42857142857144</ele><time>2026-04-30T15:45:26.594Z</time></trkpt><trkpt lat="44.7240833" lon="10.1152217"><ele>131.2857142857143</ele><time>2026-04-30T15:45:28.593Z</time></trkpt><trkpt lat="44.724145" lon="10.115265"><ele>131.14285714285714</ele><time>2026-04-30T15:45:30.591Z</time></trkpt><trkpt lat="44.7242" lon="10.1153167"><ele>131.0</ele><time>2026-04-30T15:45:32.591Z</time></trkpt><trkpt lat="44.7242533" lon="10.1153717"><ele>131.0</ele><time>2026-04-30T15:45:34.587Z</time></trkpt><trkpt lat="44.72432" lon="10.1154183"><ele>131.0</ele><time>2026-04-30T15:45:36.59Z</time></trkpt><trkpt lat="44.7243767" lon="10.11547"><ele>131.0</ele><time>2026-04-30T15:45:38.592Z</time></trkpt><trkpt lat="44.7244333" lon="10.1155367"><ele>131.0</ele><time>2026-04-30T15:45:40.593Z</time></trkpt><trkpt lat="44.724475" lon="10.1156133"><ele>131.0</ele><time>2026-04-30T15:45:42.588Z</time></trkpt><trkpt lat="44.72449" lon="10.1157"><ele>131.0</ele><time>2026-04-30T15:45:44.592Z</time></trkpt><trkpt lat="44.7245367" lon="10.1157783"><ele>131.0</ele><time>2026-04-30T15:45:46.593Z</time></trkpt><trkpt lat="44.7245917" lon="10.1158533"><ele>131.0</ele><time>2026-04-30T15:45:48.591Z</time></trkpt><trkpt lat="44.7246467" lon="10.1159367"><ele>131.0</ele><time>2026-04-30T15:45:50.599Z</time></trkpt><trkpt lat="44.7247" lon="10.11602"><ele>131.0</ele><time>2026-04-30T15:45:52.589Z</time></trkpt><trkpt lat="44.724765" lon="10.116085"><ele>131.0</ele><time>2026-04-30T15:45:54.592Z</time></trkpt><trkpt lat="44.7248317" lon="10.1161417"><ele>131.0</ele><time>2026-04-30T15:45:56.588Z</time></trkpt><trkpt lat="44.7248933" lon="10.1161933"><ele>131.0</ele><time>2026-04-30T15:45:58.599Z</time></trkpt><trkpt lat="44.72495" lon="10.1162483"><ele>131.0</ele><time>2026-04-30T15:46:00.596Z</time></trkpt><trkpt lat="44.7250067" lon="10.1162917"><ele>131.0</ele><time>2026-04-30T15:46:02.597Z</time></trkpt><trkpt lat="44.7250767" lon="10.11637"><ele>131.0</ele><time>2026-04-30T15:46:05.59Z</time></trkpt><trkpt lat="44.72514" lon="10.11644"><ele>131.0</ele><time>2026-04-30T15:46:08.591Z</time></trkpt><trkpt lat="44.7251933" lon="10.1164967"><ele>131.0</ele><time>2026-04-30T15:46:11.587Z</time></trkpt><trkpt lat="44.72516" lon="10.1165933"><ele>131.0</ele><time>2026-04-30T15:46:15.59Z</time></trkpt><trkpt lat="44.7251183" lon="10.116675"><ele>131.0</ele><time>2026-04-30T15:46:18.587Z</time></trkpt><trkpt lat="44.7250767" lon="10.1167683"><ele>131.0</ele><time>2026-04-30T15:46:22.591Z</time></trkpt><trkpt lat="44.7250167" lon="10.1168067"><ele>131.0</ele><time>2026-04-30T15:46:26.594Z</time></trkpt><trkpt lat="44.7249583" lon="10.1167683"><ele>131.0</ele><time>2026-04-30T15:46:32.587Z</time></trkpt><trkpt lat="44.7250017" lon="10.116845"><ele>131.0</ele><time>2026-04-30T15:46:57.591Z</time></trkpt><trkpt lat="44.725095" lon="10.1167933"><ele>131.0</ele><time>2026-04-30T15:47:00.589Z</time></trkpt><trkpt lat="44.72514" lon="10.1167133"><ele>131.0</ele><time>2026-04-30T15:47:02.59Z</time></trkpt><trkpt lat="44.7251817" lon="10.11664"><ele>131.0</ele><time>2026-04-30T15:47:04.589Z</time></trkpt><trkpt lat="44.7252033" lon="10.1165283"><ele>131.0</ele><time>2026-04-30T15:47:07.59Z</time></trkpt><trkpt lat="44.72515" lon="10.1164517"><ele>131.0</ele><time>2026-04-30T15:47:10.59Z</time></trkpt><trkpt lat="44.7251033" lon="10.1163583"><ele>131.0</ele><time>2026-04-30T15:47:13.593Z</time></trkpt><trkpt lat="44.725165" lon="10.1164"><ele>131.0</ele><time>2026-04-30T15:47:17.594Z</time></trkpt><trkpt lat="44.72522" lon="10.1164717"><ele>131.0</ele><time>2026-04-30T15:47:20.591Z</time></trkpt><trkpt lat="44.725265" lon="10.11654"><ele>131.0</ele><time>2026-04-30T15:47:23.589Z</time></trkpt><trkpt lat="44.725235" lon="10.1166267"><ele>131.0</ele><time>2026-04-30T15:47:26.589Z</time></trkpt><trkpt lat="44.725175" lon="10.11672"><ele>129.0</ele><time>2026-04-30T15:47:29.586Z</time></trkpt><trkpt lat="44.7251167" lon="10.1168083"><ele>129.0</ele><time>2026-04-30T15:47:32.586Z</time></trkpt><trkpt lat="44.7250383" lon="10.1168467"><ele>129.0</ele><time>2026-04-30T15:47:35.583Z</time></trkpt><trkpt lat="44.7249717" lon="10.11682"><ele>129.0</ele><time>2026-04-30T15:47:40.59Z</time></trkpt></trkseg></trk></gpx>